St. Margarethen - Festspielgelnde
Wetterdaten: Montag, 09.01.2012
Datum Zeit Temp. A. Feuchte A. Regen Wind Richtung Richtung Windben
09.01.2012 00:00 4,0 C 81 % 0,0 l/m 2,1 km/h (1 Bft) W-SW 255 3,2 km/h (1 Bft)
09.01.2012 00:01 4,0 C 81 % 0,0 l/m 3,9 km/h (1 Bft) S-SW 207 6,4 km/h (2 Bft)
09.01.2012 00:02 4,0 C 81 % 0,0 l/m 6,9 km/h (2 Bft) SW 236 9,7 km/h (2 Bft)
09.01.2012 00:03 3,9 C 81 % 0,0 l/m 6,8 km/h (2 Bft) S-SW 207 9,7 km/h (2 Bft)
09.01.2012 00:04 3,9 C 81 % 0,0 l/m 6,3 km/h (2 Bft) SW 228 8,0 km/h (2 Bft)
09.01.2012 00:05 3,9 C 81 % 0,0 l/m 8,3 km/h (2 Bft) S-SW 205 9,7 km/h (2 Bft)
09.01.2012 00:06 3,9 C 81 % 0,0 l/m 7,9 km/h (2 Bft) SW 226 11,3 km/h (2 Bft)
09.01.2012 00:07 4,0 C 81 % 0,0 l/m 7,2 km/h (2 Bft) SW 225 9,7 km/h (2 Bft)
09.01.2012 00:08 4,0 C 81 % 0,0 l/m 8,8 km/h (2 Bft) SW 219 9,7 km/h (2 Bft)
09.01.2012 00:09 4,0 C 81 % 0,0 l/m 9,2 km/h (2 Bft) SW 229 12,9 km/h (3 Bft)
09.01.2012 00:10 4,0 C 81 % 0,0 l/m 10,0 km/h (2 Bft) W-SW 238 12,9 km/h (3 Bft)
09.01.2012 00:11 4,0 C 81 % 0,0 l/m 12,9 km/h (3 Bft) S 191 14,5 km/h (3 Bft)
09.01.2012 00:12 4,1 C 81 % 0,0 l/m 13,2 km/h (3 Bft) SW 228 16,1 km/h (3 Bft)
09.01.2012 00:13 4,1 C 81 % 0,0 l/m 10,2 km/h (2 Bft) W-SW 242 12,9 km/h (3 Bft)
09.01.2012 00:14 4,1 C 81 % 0,0 l/m 10,0 km/h (2 Bft) W-SW 240 12,9 km/h (3 Bft)
09.01.2012 00:15 4,1 C 81 % 0,0 l/m 7,7 km/h (2 Bft) SW 221 11,3 km/h (2 Bft)
09.01.2012 00:16 4,1 C 81 % 0,0 l/m 9,7 km/h (2 Bft) SW 218 12,9 km/h (3 Bft)
09.01.2012 00:17 4,1 C 80 % 0,0 l/m 8,0 km/h (2 Bft) SW 225 9,7 km/h (2 Bft)
09.01.2012 00:18 4,2 C 80 % 0,0 l/m 7,1 km/h (2 Bft) SW 225 11,3 km/h (2 Bft)
09.01.2012 00:19 4,2 C 80 % 0,0 l/m 10,6 km/h (2 Bft) SW 226 17,7 km/h (3 Bft)
09.01.2012 00:20 4,2 C 80 % 0,0 l/m 13,0 km/h (3 Bft) W-SW 256 16,1 km/h (3 Bft)
09.01.2012 00:21 4,2 C 80 % 0,0 l/m 8,5 km/h (2 Bft) S-SW 203 14,5 km/h (3 Bft)
09.01.2012 00:22 4,2 C 80 % 0,0 l/m 5,9 km/h (2 Bft) W-SW 246 9,7 km/h (2 Bft)
09.01.2012 00:23 4,2 C 80 % 0,0 l/m 9,5 km/h (2 Bft) W 274 14,5 km/h (3 Bft)
09.01.2012 00:24 4,2 C 80 % 0,0 l/m 7,8 km/h (2 Bft) W-SW 249 14,5 km/h (3 Bft)
09.01.2012 00:25 4,2 C 79 % 0,0 l/m 5,5 km/h (1 Bft) W 259 9,7 km/h (2 Bft)
09.01.2012 00:26 4,3 C 79 % 0,0 l/m 10,1 km/h (2 Bft) S-SW 194 14,5 km/h (3 Bft)
09.01.2012 00:27 4,3 C 79 % 0,0 l/m 6,8 km/h (2 Bft) W-SW 256 12,9 km/h (3 Bft)
09.01.2012 00:28 4,3 C 79 % 0,0 l/m 5,7 km/h (1 Bft) W-SW 250 8,0 km/h (2 Bft)
09.01.2012 00:29 4,3 C 79 % 0,0 l/m 8,3 km/h (2 Bft) W-SW 256 12,9 km/h (3 Bft)
09.01.2012 00:30 4,3 C 79 % 0,0 l/m 13,0 km/h (3 Bft) SW 235 22,5 km/h (4 Bft)
09.01.2012 00:31 4,3 C 79 % 0,0 l/m 7,6 km/h (2 Bft) W-NW 282 12,9 km/h (3 Bft)
09.01.2012 00:32 4,3 C 79 % 0,0 l/m 6,0 km/h (2 Bft) NW 305 11,3 km/h (2 Bft)
09.01.2012 00:33 4,3 C 79 % 0,0 l/m 7,4 km/h (2 Bft) S-SO 165 12,9 km/h (3 Bft)
09.01.2012 00:34 4,3 C 79 % 0,0 l/m 7,8 km/h (2 Bft) NW 307 16,1 km/h (3 Bft)
09.01.2012 00:35 4,3 C 79 % 0,0 l/m 12,1 km/h (2 Bft) NW 312 20,9 km/h (4 Bft)
09.01.2012 00:36 4,3 C 79 % 0,0 l/m 12,9 km/h (3 Bft) NW 313 20,9 km/h (4 Bft)
09.01.2012 00:37 4,3 C 79 % 0,0 l/m 4,8 km/h (1 Bft) W 269 6,4 km/h (2 Bft)
09.01.2012 00:38 4,3 C 79 % 0,0 l/m 9,4 km/h (2 Bft) W-NW 287 17,7 km/h (3 Bft)
09.01.2012 00:39 4,3 C 79 % 0,0 l/m 5,7 km/h (1 Bft) W-SW 248 12,9 km/h (3 Bft)
09.01.2012 00:40 4,3 C 79 % 0,0 l/m 10,0 km/h (2 Bft) W-SW 242 17,7 km/h (3 Bft)
09.01.2012 00:41 4,3 C 79 % 0,0 l/m 10,6 km/h (2 Bft) SW 219 16,1 km/h (3 Bft)
09.01.2012 00:42 4,3 C 79 % 0,0 l/m 7,9 km/h (2 Bft) W 270 14,5 km/h (3 Bft)
09.01.2012 00:43 4,3 C 79 % 0,0 l/m 8,1 km/h (2 Bft) W-SW 246 12,9 km/h (3 Bft)
09.01.2012 00:44 4,3 C 79 % 0,0 l/m 8,1 km/h (2 Bft) W-SW 242 16,1 km/h (3 Bft)
09.01.2012 00:45 4,3 C 79 % 0,0 l/m 10,7 km/h (2 Bft) NW 313 14,5 km/h (3 Bft)
09.01.2012 00:46 4,3 C 79 % 0,0 l/m 7,9 km/h (2 Bft) SW 231 12,9 km/h (3 Bft)
09.01.2012 00:47 4,2 C 79 % 0,0 l/m 8,2 km/h (2 Bft) W-NW 285 12,9 km/h (3 Bft)
09.01.2012 00:48 4,2 C 79 % 0,0 l/m 8,4 km/h (2 Bft) W-NW 285 16,1 km/h (3 Bft)
09.01.2012 00:49 4,2 C 79 % 0,0 l/m 7,1 km/h (2 Bft) NW 316 12,9 km/h (3 Bft)
09.01.2012 00:50 4,2 C 79 % 0,0 l/m 8,4 km/h (2 Bft) NW 313 14,5 km/h (3 Bft)
09.01.2012 00:51 4,2 C 79 % 0,0 l/m 8,9 km/h (2 Bft) O 84 16,1 km/h (3 Bft)
09.01.2012 00:52 4,2 C 80 % 0,0 l/m 11,0 km/h (2 Bft) NW 308 24,1 km/h (4 Bft)
09.01.2012 00:53 4,2 C 80 % 0,0 l/m 12,2 km/h (2 Bft) W-NW 302 19,3 km/h (3 Bft)
09.01.2012 00:54 4,2 C 80 % 0,0 l/m 11,1 km/h (2 Bft) W 271 20,9 km/h (4 Bft)
09.01.2012 00:55 4,2 C 80 % 0,0 l/m 14,8 km/h (3 Bft) W-NW 295 22,5 km/h (4 Bft)
09.01.2012 00:56 4,2 C 80 % 0,0 l/m 14,9 km/h (3 Bft) W 266 22,5 km/h (4 Bft)
09.01.2012 00:57 4,2 C 80 % 0,0 l/m 7,6 km/h (2 Bft) W-NW 295 14,5 km/h (3 Bft)
09.01.2012 00:58 4,2 C 80 % 0,0 l/m 10,5 km/h (2 Bft) W-NW 297 16,1 km/h (3 Bft)
09.01.2012 00:59 4,2 C 80 % 0,0 l/m 9,4 km/h (2 Bft) NW 307 14,5 km/h (3 Bft)
09.01.2012 01:00 4,2 C 80 % 0,0 l/m 8,9 km/h (2 Bft) W 269 19,3 km/h (3 Bft)
09.01.2012 01:01 4,2 C 80 % 0,0 l/m 10,5 km/h (2 Bft) W-NW 300 17,7 km/h (3 Bft)
09.01.2012 01:02 4,2 C 80 % 0,0 l/m 11,3 km/h (2 Bft) O-NO 78 20,9 km/h (4 Bft)
09.01.2012 01:03 4,2 C 80 % 0,0 l/m 12,0 km/h (2 Bft) W-SW 239 19,3 km/h (3 Bft)
09.01.2012 01:04 4,2 C 81 % 0,0 l/m 12,7 km/h (3 Bft) W-NW 290 20,9 km/h (4 Bft)
09.01.2012 01:05 4,2 C 81 % 0,0 l/m 9,8 km/h (2 Bft) W-NW 297 22,5 km/h (4 Bft)
09.01.2012 01:06 4,2 C 81 % 0,0 l/m 7,1 km/h (2 Bft) W-NW 302 17,7 km/h (3 Bft)
09.01.2012 01:07 4,2 C 81 % 0,0 l/m 9,3 km/h (2 Bft) W 280 12,9 km/h (3 Bft)
09.01.2012 01:08 4,2 C 81 % 0,0 l/m 9,7 km/h (2 Bft) NW 310 17,7 km/h (3 Bft)
09.01.2012 01:09 4,1 C 81 % 0,0 l/m 13,8 km/h (3 Bft) W 269 22,5 km/h (4 Bft)
09.01.2012 01:10 4,2 C 81 % 0,0 l/m 15,2 km/h (3 Bft) W-NW 295 22,5 km/h (4 Bft)
09.01.2012 01:11 4,2 C 81 % 0,0 l/m 12,7 km/h (3 Bft) NW 314 17,7 km/h (3 Bft)
09.01.2012 01:12 4,2 C 81 % 0,0 l/m 10,3 km/h (2 Bft) W 264 19,3 km/h (3 Bft)
09.01.2012 01:13 4,2 C 81 % 0,0 l/m 8,4 km/h (2 Bft) S-SW 208 16,1 km/h (3 Bft)
09.01.2012 01:14 4,2 C 81 % 0,0 l/m 4,4 km/h (1 Bft) NW 305 6,4 km/h (2 Bft)
09.01.2012 01:15 4,1 C 81 % 0,0 l/m 11,4 km/h (2 Bft) W 264 20,9 km/h (4 Bft)
09.01.2012 01:16 4,2 C 81 % 0,0 l/m 8,4 km/h (2 Bft) NW 316 12,9 km/h (3 Bft)
09.01.2012 01:17 4,1 C 81 % 0,0 l/m 11,3 km/h (2 Bft) W-SW 257 16,1 km/h (3 Bft)
09.01.2012 01:18 4,1 C 81 % 0,0 l/m 10,2 km/h (2 Bft) W-NW 301 14,5 km/h (3 Bft)
09.01.2012 01:19 4,1 C 81 % 0,0 l/m 8,4 km/h (2 Bft) W-NW 287 12,9 km/h (3 Bft)
09.01.2012 01:20 4,1 C 81 % 0,0 l/m 7,5 km/h (2 Bft) SW 218 12,9 km/h (3 Bft)
09.01.2012 01:21 4,1 C 81 % 0,0 l/m 8,3 km/h (2 Bft) NW 326 14,5 km/h (3 Bft)
09.01.2012 01:22 4,1 C 81 % 0,0 l/m 11,6 km/h (2 Bft) N-NW 330 16,1 km/h (3 Bft)
09.01.2012 01:23 4,1 C 81 % 0,0 l/m 14,5 km/h (3 Bft) W 269 20,9 km/h (4 Bft)
09.01.2012 01:24 4,1 C 81 % 0,0 l/m 12,8 km/h (3 Bft) W 261 17,7 km/h (3 Bft)
09.01.2012 01:25 4,1 C 81 % 0,0 l/m 6,1 km/h (2 Bft) W 259 11,3 km/h (2 Bft)
09.01.2012 01:26 4,1 C 82 % 0,0 l/m 7,5 km/h (2 Bft) W-NW 301 14,5 km/h (3 Bft)
09.01.2012 01:27 4,1 C 82 % 0,0 l/m 9,2 km/h (2 Bft) N-NW 333 16,1 km/h (3 Bft)
09.01.2012 01:28 4,1 C 82 % 0,0 l/m 12,8 km/h (3 Bft) W-SW 250 27,4 km/h (4 Bft)
09.01.2012 01:29 4,1 C 82 % 0,0 l/m 16,7 km/h (3 Bft) W-NW 284 25,7 km/h (4 Bft)
09.01.2012 01:30 4,1 C 82 % 0,0 l/m 14,8 km/h (3 Bft) W-SW 242 27,4 km/h (4 Bft)
09.01.2012 01:31 4,1 C 82 % 0,0 l/m 11,6 km/h (2 Bft) W-SW 248 20,9 km/h (4 Bft)
09.01.2012 01:32 4,1 C 82 % 0,0 l/m 10,2 km/h (2 Bft) NW 322 20,9 km/h (4 Bft)
09.01.2012 01:33 4,1 C 83 % 0,0 l/m 8,4 km/h (2 Bft) S-SO 167 12,9 km/h (3 Bft)
09.01.2012 01:34 4,1 C 83 % 0,0 l/m 11,5 km/h (2 Bft) W 278 22,5 km/h (4 Bft)
09.01.2012 01:35 4,1 C 83 % 0,0 l/m 12,4 km/h (3 Bft) W-NW 293 22,5 km/h (4 Bft)
09.01.2012 01:36 4,1 C 83 % 0,0 l/m 12,4 km/h (3 Bft) W-SW 237 19,3 km/h (3 Bft)
09.01.2012 01:37 4,1 C 83 % 0,0 l/m 4,3 km/h (1 Bft) NW 308 9,7 km/h (2 Bft)
09.01.2012 01:38 4,0 C 83 % 0,0 l/m 11,1 km/h (2 Bft) W 264 19,3 km/h (3 Bft)
09.01.2012 01:39 4,0 C 83 % 0,0 l/m 10,6 km/h (2 Bft) NW 307 24,1 km/h (4 Bft)
09.01.2012 01:40 3,9 C 84 % 0,0 l/m 11,1 km/h (2 Bft) NW 321 16,1 km/h (3 Bft)
09.01.2012 01:41 3,9 C 84 % 0,0 l/m 14,3 km/h (3 Bft) W-NW 301 20,9 km/h (4 Bft)
09.01.2012 01:42 3,9 C 84 % 0,0 l/m 12,3 km/h (3 Bft) W-NW 285 24,1 km/h (4 Bft)
09.01.2012 01:43 3,9 C 84 % 0,0 l/m 12,5 km/h (3 Bft) W 274 20,9 km/h (4 Bft)
09.01.2012 01:44 3,9 C 84 % 0,0 l/m 12,1 km/h (2 Bft) N-NW 327 32,2 km/h (5 Bft)
09.01.2012 01:45 3,9 C 84 % 0,0 l/m 15,1 km/h (3 Bft) NW 308 27,4 km/h (4 Bft)
09.01.2012 01:46 3,9 C 84 % 0,0 l/m 16,6 km/h (3 Bft) NW 315 27,4 km/h (4 Bft)
09.01.2012 01:47 3,9 C 84 % 0,0 l/m 11,2 km/h (2 Bft) W-NW 284 19,3 km/h (3 Bft)
09.01.2012 01:48 3,8 C 85 % 0,0 l/m 13,2 km/h (3 Bft) W 263 22,5 km/h (4 Bft)
09.01.2012 01:49 3,8 C 85 % 0,0 l/m 11,5 km/h (2 Bft) W-NW 296 19,3 km/h (3 Bft)
09.01.2012 01:50 3,8 C 85 % 0,0 l/m 13,6 km/h (3 Bft) O-SO 108 19,3 km/h (3 Bft)
09.01.2012 01:51 3,8 C 85 % 0,0 l/m 10,8 km/h (2 Bft) W-NW 295 20,9 km/h (4 Bft)
09.01.2012 01:52 3,8 C 85 % 0,0 l/m 6,7 km/h (2 Bft) NW 323 11,3 km/h (2 Bft)
09.01.2012 01:53 3,7 C 86 % 0,0 l/m 11,1 km/h (2 Bft) W-NW 295 22,5 km/h (4 Bft)
09.01.2012 01:54 3,7 C 86 % 0,0 l/m 13,4 km/h (3 Bft) W-NW 294 20,9 km/h (4 Bft)
09.01.2012 01:55 3,7 C 86 % 0,0 l/m 15,0 km/h (3 Bft) W-NW 294 20,9 km/h (4 Bft)
09.01.2012 01:56 3,7 C 86 % 0,0 l/m 8,3 km/h (2 Bft) W 267 14,5 km/h (3 Bft)
09.01.2012 01:57 3,7 C 86 % 0,0 l/m 6,0 km/h (2 Bft) N-NW 333 9,7 km/h (2 Bft)
09.01.2012 01:58 3,7 C 86 % 0,0 l/m 9,7 km/h (2 Bft) W-NW 297 16,1 km/h (3 Bft)
09.01.2012 01:59 3,7 C 86 % 0,0 l/m 7,9 km/h (2 Bft) W-SW 243 16,1 km/h (3 Bft)
09.01.2012 02:00 3,6 C 86 % 0,0 l/m 9,9 km/h (2 Bft) W-NW 300 22,5 km/h (4 Bft)
09.01.2012 02:01 3,7 C 86 % 0,0 l/m 12,4 km/h (3 Bft) NW 307 19,3 km/h (3 Bft)
09.01.2012 02:02 3,6 C 86 % 0,0 l/m 6,4 km/h (2 Bft) O 85 9,7 km/h (2 Bft)
09.01.2012 02:03 3,6 C 86 % 0,0 l/m 6,2 km/h (2 Bft) W-NW 301 14,5 km/h (3 Bft)
09.01.2012 02:04 3,6 C 86 % 0,0 l/m 8,8 km/h (2 Bft) SW 236 16,1 km/h (3 Bft)
09.01.2012 02:05 3,6 C 86 % 0,0 l/m 10,5 km/h (2 Bft) O-NO 68 19,3 km/h (3 Bft)
09.01.2012 02:06 3,6 C 86 % 0,0 l/m 11,1 km/h (2 Bft) W 259 20,9 km/h (4 Bft)
09.01.2012 02:07 3,6 C 86 % 0,0 l/m 6,8 km/h (2 Bft) S-SW 195 12,9 km/h (3 Bft)
09.01.2012 02:08 3,6 C 86 % 0,0 l/m 10,9 km/h (2 Bft) W 267 20,9 km/h (4 Bft)
09.01.2012 02:09 3,6 C 86 % 0,0 l/m 8,0 km/h (2 Bft) O-NO 65 16,1 km/h (3 Bft)
09.01.2012 02:10 3,6 C 86 % 0,0 l/m 11,5 km/h (2 Bft) N 354 20,9 km/h (4 Bft)
09.01.2012 02:11 3,6 C 86 % 0,0 l/m 14,7 km/h (3 Bft) N 1 20,9 km/h (4 Bft)
09.01.2012 02:12 3,7 C 86 % 0,0 l/m 11,0 km/h (2 Bft) W-NW 300 17,7 km/h (3 Bft)
09.01.2012 02:13 3,7 C 86 % 0,0 l/m 12,0 km/h (2 Bft) O-NO 77 22,5 km/h (4 Bft)
09.01.2012 02:14 3,7 C 86 % 0,0 l/m 12,0 km/h (2 Bft) W-NW 293 29,0 km/h (5 Bft)
09.01.2012 02:15 3,7 C 86 % 0,0 l/m 14,0 km/h (3 Bft) W 281 19,3 km/h (3 Bft)
09.01.2012 02:16 3,7 C 86 % 0,0 l/m 11,0 km/h (2 Bft) W 260 16,1 km/h (3 Bft)
09.01.2012 02:17 3,7 C 86 % 0,0 l/m 13,7 km/h (3 Bft) W-NW 294 20,9 km/h (4 Bft)
09.01.2012 02:18 3,7 C 86 % 0,0 l/m 10,1 km/h (2 Bft) W-SW 250 19,3 km/h (3 Bft)
09.01.2012 02:19 3,7 C 86 % 0,0 l/m 9,3 km/h (2 Bft) N-NW 332 19,3 km/h (3 Bft)
09.01.2012 02:20 3,7 C 86 % 0,0 l/m 12,1 km/h (2 Bft) W 260 17,7 km/h (3 Bft)
09.01.2012 02:21 3,7 C 86 % 0,0 l/m 10,4 km/h (2 Bft) SW 226 19,3 km/h (3 Bft)
09.01.2012 02:22 3,7 C 86 % 0,0 l/m 9,9 km/h (2 Bft) W-NW 287 16,1 km/h (3 Bft)
09.01.2012 02:23 3,7 C 86 % 0,0 l/m 7,5 km/h (2 Bft) N-NW 330 17,7 km/h (3 Bft)
09.01.2012 02:24 3,7 C 85 % 0,0 l/m 11,5 km/h (2 Bft) W-SW 243 14,5 km/h (3 Bft)
09.01.2012 02:25 3,7 C 85 % 0,0 l/m 9,3 km/h (2 Bft) W-SW 245 17,7 km/h (3 Bft)
09.01.2012 02:26 3,7 C 85 % 0,0 l/m 10,7 km/h (2 Bft) N-NW 328 17,7 km/h (3 Bft)
09.01.2012 02:27 3,7 C 85 % 0,0 l/m 5,8 km/h (2 Bft) W 271 11,3 km/h (2 Bft)
09.01.2012 02:28 3,7 C 85 % 0,0 l/m 10,3 km/h (2 Bft) W-NW 297 17,7 km/h (3 Bft)
09.01.2012 02:29 3,7 C 85 % 0,0 l/m 7,5 km/h (2 Bft) W-NW 285 14,5 km/h (3 Bft)
09.01.2012 02:30 3,7 C 85 % 0,0 l/m 9,9 km/h (2 Bft) SW 222 12,9 km/h (3 Bft)
09.01.2012 02:31 3,7 C 85 % 0,0 l/m 9,0 km/h (2 Bft) W 267 17,7 km/h (3 Bft)
09.01.2012 02:32 3,7 C 85 % 0,0 l/m 6,7 km/h (2 Bft) NW 304 12,9 km/h (3 Bft)
09.01.2012 02:33 3,7 C 85 % 0,0 l/m 7,3 km/h (2 Bft) SW 231 12,9 km/h (3 Bft)
09.01.2012 02:34 3,7 C 85 % 0,0 l/m 11,0 km/h (2 Bft) NW 304 20,9 km/h (4 Bft)
09.01.2012 02:35 3,7 C 85 % 0,0 l/m 8,7 km/h (2 Bft) W-SW 254 11,3 km/h (2 Bft)
09.01.2012 02:36 3,7 C 85 % 0,0 l/m 6,9 km/h (2 Bft) N-NO 32 12,9 km/h (3 Bft)
09.01.2012 02:37 3,7 C 85 % 0,0 l/m 9,3 km/h (2 Bft) N 8 16,1 km/h (3 Bft)
09.01.2012 02:38 3,7 C 85 % 0,0 l/m 7,0 km/h (2 Bft) W-SW 243 12,9 km/h (3 Bft)
09.01.2012 02:39 3,7 C 85 % 0,0 l/m 6,8 km/h (2 Bft) NW 309 11,3 km/h (2 Bft)
09.01.2012 02:40 3,7 C 85 % 0,0 l/m 8,0 km/h (2 Bft) W-NW 285 11,3 km/h (2 Bft)
09.01.2012 02:41 3,7 C 85 % 0,0 l/m 6,6 km/h (2 Bft) NW 307 11,3 km/h (2 Bft)
09.01.2012 02:42 3,7 C 85 % 0,0 l/m 12,1 km/h (2 Bft) W-SW 243 24,1 km/h (4 Bft)
09.01.2012 02:43 3,7 C 85 % 0,0 l/m 9,0 km/h (2 Bft) W-SW 245 14,5 km/h (3 Bft)
09.01.2012 02:44 3,7 C 85 % 0,0 l/m 6,2 km/h (2 Bft) W-NW 295 17,7 km/h (3 Bft)
09.01.2012 02:45 3,7 C 84 % 0,0 l/m 12,0 km/h (2 Bft) W 264 19,3 km/h (3 Bft)
09.01.2012 02:46 3,8 C 84 % 0,0 l/m 9,6 km/h (2 Bft) NW 316 20,9 km/h (4 Bft)
09.01.2012 02:47 3,8 C 84 % 0,0 l/m 13,3 km/h (3 Bft) W-NW 300 20,9 km/h (4 Bft)
09.01.2012 02:48 3,8 C 84 % 0,0 l/m 16,0 km/h (3 Bft) O-SO 122 27,4 km/h (4 Bft)
09.01.2012 02:49 3,8 C 84 % 0,0 l/m 8,3 km/h (2 Bft) N 349 16,1 km/h (3 Bft)
09.01.2012 02:50 3,8 C 84 % 0,0 l/m 5,9 km/h (2 Bft) W-NW 300 8,0 km/h (2 Bft)
09.01.2012 02:51 3,8 C 84 % 0,0 l/m 7,5 km/h (2 Bft) NW 307 11,3 km/h (2 Bft)
09.01.2012 02:52 3,8 C 84 % 0,0 l/m 6,9 km/h (2 Bft) NW 308 11,3 km/h (2 Bft)
09.01.2012 02:53 3,8 C 84 % 0,0 l/m 9,2 km/h (2 Bft) NW 308 17,7 km/h (3 Bft)
09.01.2012 02:54 3,8 C 84 % 0,0 l/m 12,3 km/h (3 Bft) W 263 19,3 km/h (3 Bft)
09.01.2012 02:55 3,9 C 84 % 0,0 l/m 16,3 km/h (3 Bft) W-NW 301 25,7 km/h (4 Bft)
09.01.2012 02:56 3,9 C 84 % 0,0 l/m 10,5 km/h (2 Bft) NW 304 19,3 km/h (3 Bft)
09.01.2012 02:57 3,9 C 84 % 0,0 l/m 10,7 km/h (2 Bft) W 263 17,7 km/h (3 Bft)
09.01.2012 02:58 3,9 C 84 % 0,0 l/m 10,5 km/h (2 Bft) NW 316 22,5 km/h (4 Bft)
09.01.2012 02:59 3,9 C 84 % 0,0 l/m 11,9 km/h (2 Bft) W-NW 296 17,7 km/h (3 Bft)
09.01.2012 03:00 4,0 C 83 % 0,0 l/m 14,8 km/h (3 Bft) W-NW 295 22,5 km/h (4 Bft)
09.01.2012 03:01 4,0 C 83 % 0,0 l/m 18,8 km/h (3 Bft) W 265 24,1 km/h (4 Bft)
09.01.2012 03:02 4,0 C 83 % 0,0 l/m 16,8 km/h (3 Bft) W-SW 257 33,8 km/h (5 Bft)
09.01.2012 03:03 4,1 C 83 % 0,0 l/m 15,9 km/h (3 Bft) W-NW 295 32,2 km/h (5 Bft)
09.01.2012 03:04 4,1 C 83 % 0,0 l/m 19,2 km/h (3 Bft) W-NW 300 24,1 km/h (4 Bft)
09.01.2012 03:05 4,1 C 83 % 0,0 l/m 8,7 km/h (2 Bft) W-NW 293 16,1 km/h (3 Bft)
09.01.2012 03:06 4,1 C 83 % 0,0 l/m 13,8 km/h (3 Bft) W-SW 248 24,1 km/h (4 Bft)
09.01.2012 03:07 4,1 C 83 % 0,0 l/m 10,3 km/h (2 Bft) W-NW 297 17,7 km/h (3 Bft)
09.01.2012 03:08 4,1 C 83 % 0,0 l/m 19,7 km/h (3 Bft) NW 304 29,0 km/h (5 Bft)
09.01.2012 03:09 4,2 C 83 % 0,0 l/m 13,4 km/h (3 Bft) W-NW 291 22,5 km/h (4 Bft)
09.01.2012 03:10 4,2 C 83 % 0,0 l/m 14,7 km/h (3 Bft) W-NW 294 27,4 km/h (4 Bft)
09.01.2012 03:11 4,2 C 83 % 0,0 l/m 17,8 km/h (3 Bft) W-SW 245 30,6 km/h (5 Bft)
09.01.2012 03:12 4,2 C 83 % 0,0 l/m 10,3 km/h (2 Bft) SW 236 17,7 km/h (3 Bft)
09.01.2012 03:13 4,2 C 83 % 0,0 l/m 14,5 km/h (3 Bft) NW 325 25,7 km/h (4 Bft)
09.01.2012 03:14 4,2 C 83 % 0,0 l/m 11,1 km/h (2 Bft) NW 322 16,1 km/h (3 Bft)
09.01.2012 03:15 4,2 C 83 % 0,0 l/m 10,8 km/h (2 Bft) W 276 16,1 km/h (3 Bft)
09.01.2012 03:16 4,2 C 83 % 0,0 l/m 10,5 km/h (2 Bft) NW 317 22,5 km/h (4 Bft)
09.01.2012 03:17 4,2 C 83 % 0,0 l/m 7,7 km/h (2 Bft) W-NW 302 25,7 km/h (4 Bft)
09.01.2012 03:18 4,1 C 83 % 0,0 l/m 16,9 km/h (3 Bft) NO 45 29,0 km/h (5 Bft)
09.01.2012 03:19 4,1 C 83 % 0,0 l/m 17,7 km/h (3 Bft) N-NO 13 27,4 km/h (4 Bft)
09.01.2012 03:20 4,1 C 83 % 0,0 l/m 14,9 km/h (3 Bft) W-NW 285 38,6 km/h (5 Bft)
09.01.2012 03:21 4,1 C 83 % 0,0 l/m 19,6 km/h (3 Bft) W 264 33,8 km/h (5 Bft)
09.01.2012 03:22 4,1 C 83 % 0,0 l/m 12,4 km/h (3 Bft) NW 321 22,5 km/h (4 Bft)
09.01.2012 03:23 4,2 C 82 % 0,0 l/m 18,7 km/h (3 Bft) W 278 30,6 km/h (5 Bft)
09.01.2012 03:24 4,2 C 82 % 0,0 l/m 18,0 km/h (3 Bft) W-NW 293 27,4 km/h (4 Bft)
09.01.2012 03:25 4,2 C 82 % 0,0 l/m 18,3 km/h (3 Bft) W-NW 291 25,7 km/h (4 Bft)
09.01.2012 03:26 4,2 C 82 % 0,0 l/m 18,8 km/h (3 Bft) W-SW 242 29,0 km/h (5 Bft)
09.01.2012 03:27 4,2 C 82 % 0,0 l/m 8,4 km/h (2 Bft) W-NW 297 17,7 km/h (3 Bft)
09.01.2012 03:28 4,2 C 82 % 0,0 l/m 15,6 km/h (3 Bft) W 269 25,7 km/h (4 Bft)
09.01.2012 03:29 4,2 C 82 % 0,0 l/m 14,2 km/h (3 Bft) W-NW 283 24,1 km/h (4 Bft)
09.01.2012 03:30 4,2 C 82 % 0,0 l/m 11,9 km/h (2 Bft) O-SO 113 17,7 km/h (3 Bft)
09.01.2012 03:31 4,2 C 82 % 0,0 l/m 10,2 km/h (2 Bft) NW 309 16,1 km/h (3 Bft)
09.01.2012 03:32 4,2 C 82 % 0,0 l/m 12,2 km/h (2 Bft) S 176 17,7 km/h (3 Bft)
09.01.2012 03:33 4,2 C 83 % 0,0 l/m 10,9 km/h (2 Bft) W 280 19,3 km/h (3 Bft)
09.01.2012 03:34 4,2 C 83 % 0,0 l/m 16,1 km/h (3 Bft) NW 304 20,9 km/h (4 Bft)
09.01.2012 03:35 4,1 C 83 % 0,0 l/m 9,1 km/h (2 Bft) W-SW 255 17,7 km/h (3 Bft)
09.01.2012 03:36 4,1 C 83 % 0,0 l/m 6,1 km/h (2 Bft) NW 317 22,5 km/h (4 Bft)
09.01.2012 03:37 4,1 C 83 % 0,0 l/m 8,9 km/h (2 Bft) W-SW 256 16,1 km/h (3 Bft)
09.01.2012 03:38 4,1 C 83 % 0,0 l/m 12,9 km/h (3 Bft) W-NW 298 17,7 km/h (3 Bft)
09.01.2012 03:39 4,1 C 83 % 0,0 l/m 12,1 km/h (2 Bft) NW 325 17,7 km/h (3 Bft)
09.01.2012 03:40 4,1 C 83 % 0,0 l/m 10,1 km/h (2 Bft) NW 319 16,1 km/h (3 Bft)
09.01.2012 03:41 4,1 C 83 % 0,0 l/m 7,4 km/h (2 Bft) SO 128 11,3 km/h (2 Bft)
09.01.2012 03:42 4,1 C 83 % 0,0 l/m 11,4 km/h (2 Bft) W-NW 297 20,9 km/h (4 Bft)
09.01.2012 03:43 4,1 C 82 % 0,0 l/m 15,4 km/h (3 Bft) W-SW 256 25,7 km/h (4 Bft)
09.01.2012 03:44 4,2 C 82 % 0,0 l/m 8,9 km/h (2 Bft) NW 313 16,1 km/h (3 Bft)
09.01.2012 03:45 4,2 C 82 % 0,0 l/m 18,8 km/h (3 Bft) W 280 29,0 km/h (5 Bft)
09.01.2012 03:46 4,2 C 82 % 0,0 l/m 16,4 km/h (3 Bft) NW 305 27,4 km/h (4 Bft)
09.01.2012 03:47 4,2 C 82 % 0,0 l/m 18,8 km/h (3 Bft) W-NW 298 33,8 km/h (5 Bft)
09.01.2012 03:48 4,2 C 82 % 0,0 l/m 11,4 km/h (2 Bft) W-NW 285 20,9 km/h (4 Bft)
09.01.2012 03:49 4,3 C 82 % 0,0 l/m 12,3 km/h (3 Bft) W-NW 284 25,7 km/h (4 Bft)
09.01.2012 03:50 4,2 C 82 % 0,0 l/m 12,3 km/h (3 Bft) W-NW 295 20,9 km/h (4 Bft)
09.01.2012 03:51 4,2 C 82 % 0,0 l/m 12,7 km/h (3 Bft) W-NW 297 32,2 km/h (5 Bft)
09.01.2012 03:52 4,2 C 82 % 0,0 l/m 19,5 km/h (3 Bft) NW 308 29,0 km/h (5 Bft)
09.01.2012 03:53 4,3 C 82 % 0,0 l/m 15,1 km/h (3 Bft) O-SO 102 25,7 km/h (4 Bft)
09.01.2012 03:54 4,3 C 82 % 0,0 l/m 19,0 km/h (3 Bft) W-NW 283 24,1 km/h (4 Bft)
09.01.2012 03:55 4,3 C 81 % 0,0 l/m 17,0 km/h (3 Bft) O 94 25,7 km/h (4 Bft)
09.01.2012 03:56 4,3 C 81 % 0,0 l/m 12,3 km/h (3 Bft) W-SW 255 19,3 km/h (3 Bft)
09.01.2012 03:57 4,3 C 81 % 0,0 l/m 14,6 km/h (3 Bft) W 273 22,5 km/h (4 Bft)
09.01.2012 03:58 4,3 C 81 % 0,0 l/m 12,7 km/h (3 Bft) N-NW 347 24,1 km/h (4 Bft)
09.01.2012 03:59 4,4 C 81 % 0,0 l/m 10,6 km/h (2 Bft) NW 319 20,9 km/h (4 Bft)
09.01.2012 04:00 4,4 C 81 % 0,0 l/m 11,3 km/h (2 Bft) N-NW 345 24,1 km/h (4 Bft)
09.01.2012 04:01 4,4 C 81 % 0,0 l/m 14,7 km/h (3 Bft) W-NW 283 25,7 km/h (4 Bft)
09.01.2012 04:02 4,4 C 81 % 0,0 l/m 19,1 km/h (3 Bft) W-NW 293 29,0 km/h (5 Bft)
09.01.2012 04:03 4,4 C 81 % 0,0 l/m 13,2 km/h (3 Bft) NW 308 25,7 km/h (4 Bft)
09.01.2012 04:04 4,4 C 81 % 0,0 l/m 16,0 km/h (3 Bft) NW 306 25,7 km/h (4 Bft)
09.01.2012 04:05 4,4 C 81 % 0,0 l/m 15,6 km/h (3 Bft) NW 325 20,9 km/h (4 Bft)
09.01.2012 04:06 4,4 C 81 % 0,0 l/m 17,7 km/h (3 Bft) W-NW 287 20,9 km/h (4 Bft)
09.01.2012 04:07 4,4 C 81 % 0,0 l/m 11,8 km/h (2 Bft) NW 308 22,5 km/h (4 Bft)
09.01.2012 04:08 4,4 C 81 % 0,0 l/m 5,4 km/h (1 Bft) W-NW 284 11,3 km/h (2 Bft)
09.01.2012 04:09 4,4 C 81 % 0,0 l/m 10,6 km/h (2 Bft) NW 319 19,3 km/h (3 Bft)
09.01.2012 04:10 4,4 C 81 % 0,0 l/m 13,6 km/h (3 Bft) W-NW 287 20,9 km/h (4 Bft)
09.01.2012 04:11 4,4 C 81 % 0,0 l/m 7,4 km/h (2 Bft) W 276 14,5 km/h (3 Bft)
09.01.2012 04:12 4,4 C 81 % 0,0 l/m 10,2 km/h (2 Bft) NW 314 22,5 km/h (4 Bft)
09.01.2012 04:13 4,4 C 81 % 0,0 l/m 12,9 km/h (3 Bft) NW 308 25,7 km/h (4 Bft)
09.01.2012 04:14 4,4 C 81 % 0,0 l/m 13,8 km/h (3 Bft) SW 224 19,3 km/h (3 Bft)
09.01.2012 04:15 4,4 C 81 % 0,0 l/m 10,4 km/h (2 Bft) W-SW 253 16,1 km/h (3 Bft)
09.01.2012 04:16 4,4 C 81 % 0,0 l/m 10,6 km/h (2 Bft) W-NW 286 17,7 km/h (3 Bft)
09.01.2012 04:17 4,4 C 81 % 0,0 l/m 14,0 km/h (3 Bft) W 280 24,1 km/h (4 Bft)
09.01.2012 04:18 4,4 C 81 % 0,0 l/m 15,7 km/h (3 Bft) NW 323 27,4 km/h (4 Bft)
09.01.2012 04:19 4,4 C 81 % 0,0 l/m 7,1 km/h (2 Bft) W-NW 295 17,7 km/h (3 Bft)
09.01.2012 04:20 4,4 C 81 % 0,0 l/m 15,4 km/h (3 Bft) W 259 24,1 km/h (4 Bft)
09.01.2012 04:21 4,4 C 81 % 0,0 l/m 21,0 km/h (4 Bft) W 278 35,4 km/h (5 Bft)
09.01.2012 04:22 4,4 C 81 % 0,0 l/m 14,1 km/h (3 Bft) W 276 25,7 km/h (4 Bft)
09.01.2012 04:23 4,4 C 81 % 0,0 l/m 16,5 km/h (3 Bft) W-NW 287 30,6 km/h (5 Bft)
09.01.2012 04:24 4,5 C 81 % 0,0 l/m 15,3 km/h (3 Bft) NW 307 24,1 km/h (4 Bft)
09.01.2012 04:25 4,4 C 81 % 0,0 l/m 19,4 km/h (3 Bft) W-NW 288 32,2 km/h (5 Bft)
09.01.2012 04:26 4,5 C 81 % 0,0 l/m 14,7 km/h (3 Bft) NW 311 25,7 km/h (4 Bft)
09.01.2012 04:27 4,5 C 81 % 0,0 l/m 17,1 km/h (3 Bft) W-NW 302 29,0 km/h (5 Bft)
09.01.2012 04:28 4,5 C 81 % 0,0 l/m 13,3 km/h (3 Bft) W-SW 256 17,7 km/h (3 Bft)
09.01.2012 04:29 4,5 C 81 % 0,0 l/m 23,3 km/h (4 Bft) W-NW 285 33,8 km/h (5 Bft)
09.01.2012 04:30 4,5 C 81 % 0,0 l/m 23,1 km/h (4 Bft) W-NW 300 38,6 km/h (5 Bft)
09.01.2012 04:31 4,5 C 81 % 0,0 l/m 18,5 km/h (3 Bft) W-NW 297 27,4 km/h (4 Bft)
09.01.2012 04:32 4,5 C 81 % 0,0 l/m 24,9 km/h (4 Bft) N-NW 340 33,8 km/h (5 Bft)
09.01.2012 04:33 4,6 C 81 % 0,0 l/m 17,3 km/h (3 Bft) W-NW 295 25,7 km/h (4 Bft)
09.01.2012 04:34 4,6 C 81 % 0,0 l/m 16,7 km/h (3 Bft) NW 313 30,6 km/h (5 Bft)
09.01.2012 04:35 4,6 C 81 % 0,0 l/m 14,0 km/h (3 Bft) W 268 25,7 km/h (4 Bft)
09.01.2012 04:36 4,5 C 81 % 0,0 l/m 13,7 km/h (3 Bft) N-NW 345 22,5 km/h (4 Bft)
09.01.2012 04:37 4,5 C 81 % 0,0 l/m 21,3 km/h (4 Bft) W 273 27,4 km/h (4 Bft)
09.01.2012 04:38 4,5 C 81 % 0,0 l/m 13,6 km/h (3 Bft) N 351 24,1 km/h (4 Bft)
09.01.2012 04:39 4,5 C 82 % 0,0 l/m 12,9 km/h (3 Bft) NW 306 22,5 km/h (4 Bft)
09.01.2012 04:40 4,5 C 81 % 0,0 l/m 19,6 km/h (3 Bft) NW 314 24,1 km/h (4 Bft)
09.01.2012 04:41 4,5 C 82 % 0,0 l/m 15,4 km/h (3 Bft) W-NW 288 27,4 km/h (4 Bft)
09.01.2012 04:42 4,5 C 82 % 0,0 l/m 14,1 km/h (3 Bft) NW 314 22,5 km/h (4 Bft)
09.01.2012 04:43 4,4 C 82 % 0,0 l/m 18,3 km/h (3 Bft) W-SW 255 32,2 km/h (5 Bft)
09.01.2012 04:44 4,4 C 82 % 0,0 l/m 17,3 km/h (3 Bft) W-NW 298 29,0 km/h (5 Bft)
09.01.2012 04:45 4,4 C 82 % 0,0 l/m 23,3 km/h (4 Bft) W-NW 301 45,1 km/h (6 Bft)
09.01.2012 04:46 4,4 C 83 % 0,0 l/m 21,5 km/h (4 Bft) W-NW 297 29,0 km/h (5 Bft)
09.01.2012 04:47 4,4 C 83 % 0,0 l/m 12,7 km/h (3 Bft) NW 319 25,7 km/h (4 Bft)
09.01.2012 04:48 4,4 C 83 % 0,0 l/m 14,7 km/h (3 Bft) W-SW 245 20,9 km/h (4 Bft)
09.01.2012 04:49 4,3 C 84 % 0,0 l/m 10,9 km/h (2 Bft) NW 304 22,5 km/h (4 Bft)
09.01.2012 04:50 4,3 C 84 % 0,0 l/m 11,0 km/h (2 Bft) W-NW 297 20,9 km/h (4 Bft)
09.01.2012 04:51 4,2 C 84 % 0,2 l/m 17,9 km/h (3 Bft) N-NW 344 27,4 km/h (4 Bft)
09.01.2012 04:52 4,2 C 84 % 0,0 l/m 14,3 km/h (3 Bft) W 280 20,9 km/h (4 Bft)
09.01.2012 04:53 4,2 C 85 % 0,0 l/m 13,4 km/h (3 Bft) W-NW 295 22,5 km/h (4 Bft)
09.01.2012 04:54 4,2 C 85 % 0,0 l/m 9,3 km/h (2 Bft) W 276 19,3 km/h (3 Bft)
09.01.2012 04:55 4,2 C 85 % 0,0 l/m 20,2 km/h (4 Bft) W-NW 287 29,0 km/h (5 Bft)
09.01.2012 04:56 4,2 C 85 % 0,0 l/m 16,3 km/h (3 Bft) W-NW 287 24,1 km/h (4 Bft)
09.01.2012 04:57 4,2 C 85 % 0,0 l/m 10,0 km/h (2 Bft) W-SW 238 14,5 km/h (3 Bft)
09.01.2012 04:58 4,1 C 85 % 0,0 l/m 15,0 km/h (3 Bft) W 263 22,5 km/h (4 Bft)
09.01.2012 04:59 4,2 C 85 % 0,0 l/m 19,2 km/h (3 Bft) NW 309 29,0 km/h (5 Bft)
09.01.2012 05:00 4,1 C 85 % 0,0 l/m 11,3 km/h (2 Bft) W 260 19,3 km/h (3 Bft)
09.01.2012 05:01 4,2 C 85 % 0,0 l/m 15,4 km/h (3 Bft) NW 313 22,5 km/h (4 Bft)
09.01.2012 05:02 4,1 C 85 % 0,0 l/m 13,8 km/h (3 Bft) N-NW 343 19,3 km/h (3 Bft)
09.01.2012 05:03 4,1 C 85 % 0,0 l/m 10,4 km/h (2 Bft) W-SW 252 16,1 km/h (3 Bft)
09.01.2012 05:04 4,1 C 85 % 0,0 l/m 9,3 km/h (2 Bft) NO 49 19,3 km/h (3 Bft)
09.01.2012 05:05 4,1 C 85 % 0,0 l/m 7,0 km/h (2 Bft) W-NW 300 14,5 km/h (3 Bft)
09.01.2012 05:06 4,1 C 86 % 0,0 l/m 11,7 km/h (2 Bft) W 270 20,9 km/h (4 Bft)
09.01.2012 05:07 4,1 C 86 % 0,0 l/m 7,8 km/h (2 Bft) NW 305 11,3 km/h (2 Bft)
09.01.2012 05:08 4,1 C 86 % 0,0 l/m 7,6 km/h (2 Bft) W-NW 297 14,5 km/h (3 Bft)
09.01.2012 05:09 4,0 C 86 % 0,0 l/m 12,0 km/h (2 Bft) N-NW 342 25,7 km/h (4 Bft)
09.01.2012 05:10 4,0 C 86 % 0,0 l/m 6,4 km/h (2 Bft) W 261 14,5 km/h (3 Bft)
09.01.2012 05:11 4,0 C 86 % 0,0 l/m 7,1 km/h (2 Bft) NW 311 11,3 km/h (2 Bft)
09.01.2012 05:12 4,0 C 86 % 0,0 l/m 11,1 km/h (2 Bft) W-NW 290 19,3 km/h (3 Bft)
09.01.2012 05:13 4,0 C 86 % 0,0 l/m 13,7 km/h (3 Bft) W 281 29,0 km/h (5 Bft)
09.01.2012 05:14 4,1 C 86 % 0,0 l/m 14,5 km/h (3 Bft) NW 317 25,7 km/h (4 Bft)
09.01.2012 05:15 4,1 C 85 % 0,0 l/m 19,1 km/h (3 Bft) W-NW 287 29,0 km/h (5 Bft)
09.01.2012 05:16 4,1 C 85 % 0,0 l/m 12,1 km/h (2 Bft) NW 312 22,5 km/h (4 Bft)
09.01.2012 05:17 4,1 C 85 % 0,0 l/m 13,4 km/h (3 Bft) W 274 20,9 km/h (4 Bft)
09.01.2012 05:18 4,1 C 85 % 0,0 l/m 17,1 km/h (3 Bft) N-NO 33 37,0 km/h (5 Bft)
09.01.2012 05:19 4,2 C 85 % 0,0 l/m 21,1 km/h (4 Bft) NW 305 37,0 km/h (5 Bft)
09.01.2012 05:20 4,2 C 84 % 0,0 l/m 15,9 km/h (3 Bft) W-SW 246 33,8 km/h (5 Bft)
09.01.2012 05:21 4,2 C 84 % 0,0 l/m 16,0 km/h (3 Bft) W-NW 293 24,1 km/h (4 Bft)
09.01.2012 05:22 4,2 C 84 % 0,0 l/m 17,3 km/h (3 Bft) W-NW 284 24,1 km/h (4 Bft)
09.01.2012 05:23 4,2 C 84 % 0,0 l/m 18,6 km/h (3 Bft) W-NW 289 24,1 km/h (4 Bft)
09.01.2012 05:24 4,2 C 84 % 0,0 l/m 10,4 km/h (2 Bft) W-NW 285 17,7 km/h (3 Bft)
09.01.2012 05:25 4,2 C 84 % 0,0 l/m 12,7 km/h (3 Bft) W 260 24,1 km/h (4 Bft)
09.01.2012 05:26 4,2 C 84 % 0,0 l/m 14,2 km/h (3 Bft) NW 308 22,5 km/h (4 Bft)
09.01.2012 05:27 4,2 C 84 % 0,0 l/m 9,3 km/h (2 Bft) W-NW 293 16,1 km/h (3 Bft)
09.01.2012 05:28 4,2 C 85 % 0,0 l/m 13,0 km/h (3 Bft) W-NW 289 20,9 km/h (4 Bft)
09.01.2012 05:29 4,2 C 85 % 0,0 l/m 17,5 km/h (3 Bft) W 280 22,5 km/h (4 Bft)
09.01.2012 05:30 4,1 C 85 % 0,0 l/m 7,6 km/h (2 Bft) W-NW 303 14,5 km/h (3 Bft)
09.01.2012 05:31 4,1 C 85 % 0,0 l/m 11,7 km/h (2 Bft) O-SO 102 20,9 km/h (4 Bft)
09.01.2012 05:32 4,1 C 85 % 0,0 l/m 13,0 km/h (3 Bft) S 191 22,5 km/h (4 Bft)
09.01.2012 05:33 4,1 C 84 % 0,0 l/m 21,5 km/h (4 Bft) W-NW 299 32,2 km/h (5 Bft)
09.01.2012 05:34 4,2 C 84 % 0,0 l/m 21,5 km/h (4 Bft) NW 304 27,4 km/h (4 Bft)
09.01.2012 05:35 4,2 C 84 % 0,0 l/m 15,6 km/h (3 Bft) N-NW 336 25,7 km/h (4 Bft)
09.01.2012 05:36 4,2 C 84 % 0,0 l/m 8,9 km/h (2 Bft) N-NW 337 16,1 km/h (3 Bft)
09.01.2012 05:37 4,2 C 84 % 0,0 l/m 9,6 km/h (2 Bft) SW 217 16,1 km/h (3 Bft)
09.01.2012 05:38 4,2 C 84 % 0,0 l/m 8,9 km/h (2 Bft) NW 313 14,5 km/h (3 Bft)
09.01.2012 05:39 4,2 C 84 % 0,0 l/m 20,0 km/h (4 Bft) W-NW 293 32,2 km/h (5 Bft)
09.01.2012 05:40 4,2 C 84 % 0,0 l/m 17,9 km/h (3 Bft) W-NW 284 25,7 km/h (4 Bft)
09.01.2012 05:41 4,2 C 84 % 0,0 l/m 11,3 km/h (2 Bft) W-NW 284 19,3 km/h (3 Bft)
09.01.2012 05:42 4,2 C 84 % 0,0 l/m 22,6 km/h (4 Bft) W-NW 285 32,2 km/h (5 Bft)
09.01.2012 05:43 4,2 C 84 % 0,0 l/m 16,3 km/h (3 Bft) NW 315 22,5 km/h (4 Bft)
09.01.2012 05:44 4,2 C 84 % 0,0 l/m 9,2 km/h (2 Bft) W 277 22,5 km/h (4 Bft)
09.01.2012 05:45 4,2 C 84 % 0,0 l/m 16,6 km/h (3 Bft) W 273 29,0 km/h (5 Bft)
09.01.2012 05:46 4,2 C 85 % 0,0 l/m 8,6 km/h (2 Bft) W 271 19,3 km/h (3 Bft)
09.01.2012 05:47 4,2 C 84 % 0,0 l/m 11,3 km/h (2 Bft) NW 316 24,1 km/h (4 Bft)
09.01.2012 05:48 4,2 C 85 % 0,0 l/m 12,1 km/h (2 Bft) NW 309 20,9 km/h (4 Bft)
09.01.2012 05:49 4,1 C 84 % 0,0 l/m 11,7 km/h (2 Bft) N-NO 23 20,9 km/h (4 Bft)
09.01.2012 05:50 4,2 C 84 % 0,0 l/m 9,1 km/h (2 Bft) W-NW 288 20,9 km/h (4 Bft)
09.01.2012 05:51 4,2 C 84 % 0,0 l/m 18,8 km/h (3 Bft) W-NW 289 25,7 km/h (4 Bft)
09.01.2012 05:52 4,2 C 84 % 0,0 l/m 15,7 km/h (3 Bft) W-SW 250 24,1 km/h (4 Bft)
09.01.2012 05:53 4,2 C 84 % 0,0 l/m 8,9 km/h (2 Bft) W 269 16,1 km/h (3 Bft)
09.01.2012 05:54 4,1 C 85 % 0,0 l/m 10,5 km/h (2 Bft) W 259 16,1 km/h (3 Bft)
09.01.2012 05:55 4,1 C 85 % 0,0 l/m 8,0 km/h (2 Bft) NW 307 16,1 km/h (3 Bft)
09.01.2012 05:56 4,1 C 85 % 0,0 l/m 11,3 km/h (2 Bft) W-NW 284 20,9 km/h (4 Bft)
09.01.2012 05:57 4,1 C 85 % 0,0 l/m 8,9 km/h (2 Bft) W 264 16,1 km/h (3 Bft)
09.01.2012 05:58 4,1 C 85 % 0,0 l/m 7,1 km/h (2 Bft) W-NW 297 12,9 km/h (3 Bft)
09.01.2012 05:59 4,1 C 85 % 0,0 l/m 13,9 km/h (3 Bft) S 185 24,1 km/h (4 Bft)
09.01.2012 06:00 4,1 C 85 % 0,0 l/m 12,7 km/h (3 Bft) NW 309 20,9 km/h (4 Bft)
09.01.2012 06:01 4,1 C 85 % 0,0 l/m 11,9 km/h (2 Bft) N 1 22,5 km/h (4 Bft)
09.01.2012 06:02 4,1 C 85 % 0,0 l/m 7,7 km/h (2 Bft) W-SW 256 11,3 km/h (2 Bft)
09.01.2012 06:03 4,1 C 85 % 0,0 l/m 8,9 km/h (2 Bft) W-SW 242 16,1 km/h (3 Bft)
09.01.2012 06:04 4,1 C 85 % 0,0 l/m 11,1 km/h (2 Bft) W-NW 297 16,1 km/h (3 Bft)
09.01.2012 06:05 4,1 C 85 % 0,0 l/m 6,7 km/h (2 Bft) N-NO 17 9,7 km/h (2 Bft)
09.01.2012 06:06 4,0 C 85 % 0,0 l/m 8,8 km/h (2 Bft) W 267 17,7 km/h (3 Bft)
09.01.2012 06:07 4,0 C 85 % 0,0 l/m 11,7 km/h (2 Bft) W-SW 245 16,1 km/h (3 Bft)
09.01.2012 06:08 4,0 C 85 % 0,0 l/m 7,0 km/h (2 Bft) W 276 11,3 km/h (2 Bft)
09.01.2012 06:09 4,0 C 85 % 0,0 l/m 8,4 km/h (2 Bft) W 265 14,5 km/h (3 Bft)
09.01.2012 06:10 4,0 C 85 % 0,0 l/m 7,5 km/h (2 Bft) NW 304 11,3 km/h (2 Bft)
09.01.2012 06:11 3,9 C 85 % 0,0 l/m 7,0 km/h (2 Bft) N 5 12,9 km/h (3 Bft)
09.01.2012 06:12 3,9 C 85 % 0,0 l/m 13,4 km/h (3 Bft) W-NW 298 20,9 km/h (4 Bft)
09.01.2012 06:13 3,9 C 85 % 0,0 l/m 15,5 km/h (3 Bft) W-NW 285 19,3 km/h (3 Bft)
09.01.2012 06:14 4,0 C 85 % 0,0 l/m 11,1 km/h (2 Bft) W-NW 300 20,9 km/h (4 Bft)
09.01.2012 06:15 4,0 C 85 % 0,0 l/m 10,7 km/h (2 Bft) W-NW 302 14,5 km/h (3 Bft)
09.01.2012 06:16 4,0 C 85 % 0,0 l/m 7,6 km/h (2 Bft) W-NW 298 11,3 km/h (2 Bft)
09.01.2012 06:17 4,0 C 85 % 0,0 l/m 6,0 km/h (2 Bft) W 281 9,7 km/h (2 Bft)
09.01.2012 06:18 4,0 C 85 % 0,0 l/m 5,2 km/h (1 Bft) S-SW 200 9,7 km/h (2 Bft)
09.01.2012 06:19 4,0 C 85 % 0,0 l/m 5,5 km/h (1 Bft) W-NW 297 8,0 km/h (2 Bft)
09.01.2012 06:20 4,0 C 85 % 0,0 l/m 7,0 km/h (2 Bft) NW 316 9,7 km/h (2 Bft)
09.01.2012 06:21 4,0 C 85 % 0,0 l/m 4,5 km/h (1 Bft) NW 312 8,0 km/h (2 Bft)
09.01.2012 06:22 4,0 C 85 % 0,0 l/m 6,9 km/h (2 Bft) NW 321 12,9 km/h (3 Bft)
09.01.2012 06:23 4,0 C 85 % 0,0 l/m 7,8 km/h (2 Bft) W-NW 293 12,9 km/h (3 Bft)
09.01.2012 06:24 4,0 C 85 % 0,0 l/m 11,3 km/h (2 Bft) W 281 17,7 km/h (3 Bft)
09.01.2012 06:25 4,1 C 84 % 0,0 l/m 15,7 km/h (3 Bft) W-NW 288 25,7 km/h (4 Bft)
09.01.2012 06:26 4,1 C 84 % 0,0 l/m 15,8 km/h (3 Bft) N 358 24,1 km/h (4 Bft)
09.01.2012 06:27 4,1 C 84 % 0,0 l/m 13,9 km/h (3 Bft) S-SW 201 19,3 km/h (3 Bft)
09.01.2012 06:28 4,1 C 84 % 0,0 l/m 17,5 km/h (3 Bft) W 266 24,1 km/h (4 Bft)
09.01.2012 06:29 4,1 C 84 % 0,0 l/m 18,2 km/h (3 Bft) W-NW 285 27,4 km/h (4 Bft)
09.01.2012 06:30 4,2 C 83 % 0,0 l/m 16,4 km/h (3 Bft) W-NW 297 20,9 km/h (4 Bft)
09.01.2012 06:31 4,2 C 83 % 0,0 l/m 13,1 km/h (3 Bft) W-NW 293 20,9 km/h (4 Bft)
09.01.2012 06:32 4,2 C 83 % 0,0 l/m 15,8 km/h (3 Bft) W 269 22,5 km/h (4 Bft)
09.01.2012 06:33 4,2 C 83 % 0,0 l/m 14,7 km/h (3 Bft) SW 232 24,1 km/h (4 Bft)
09.01.2012 06:34 4,2 C 83 % 0,0 l/m 11,8 km/h (2 Bft) W-SW 237 22,5 km/h (4 Bft)
09.01.2012 06:35 4,2 C 84 % 0,0 l/m 12,0 km/h (2 Bft) W 278 19,3 km/h (3 Bft)
09.01.2012 06:36 4,1 C 84 % 0,0 l/m 15,8 km/h (3 Bft) W-NW 293 24,1 km/h (4 Bft)
09.01.2012 06:37 4,2 C 83 % 0,0 l/m 15,0 km/h (3 Bft) W-NW 288 27,4 km/h (4 Bft)
09.01.2012 06:38 4,2 C 83 % 0,0 l/m 15,8 km/h (3 Bft) W-NW 298 29,0 km/h (5 Bft)
09.01.2012 06:39 4,2 C 84 % 0,0 l/m 13,1 km/h (3 Bft) W-NW 297 25,7 km/h (4 Bft)
09.01.2012 06:40 4,2 C 83 % 0,0 l/m 24,6 km/h (4 Bft) W-NW 303 33,8 km/h (5 Bft)
09.01.2012 06:41 4,2 C 83 % 0,0 l/m 17,3 km/h (3 Bft) W-NW 293 29,0 km/h (5 Bft)
09.01.2012 06:42 4,2 C 83 % 0,0 l/m 20,3 km/h (4 Bft) W-NW 298 30,6 km/h (5 Bft)
09.01.2012 06:43 4,2 C 83 % 0,0 l/m 14,5 km/h (3 Bft) W-NW 301 27,4 km/h (4 Bft)
09.01.2012 06:44 4,2 C 83 % 0,0 l/m 10,7 km/h (2 Bft) NW 307 19,3 km/h (3 Bft)
09.01.2012 06:45 4,2 C 83 % 0,0 l/m 11,3 km/h (2 Bft) W 266 20,9 km/h (4 Bft)
09.01.2012 06:46 4,2 C 83 % 0,0 l/m 14,7 km/h (3 Bft) W-NW 293 22,5 km/h (4 Bft)
09.01.2012 06:47 4,2 C 83 % 0,0 l/m 10,7 km/h (2 Bft) W-NW 287 17,7 km/h (3 Bft)
09.01.2012 06:48 4,2 C 83 % 0,0 l/m 17,2 km/h (3 Bft) NW 308 22,5 km/h (4 Bft)
09.01.2012 06:49 4,2 C 83 % 0,0 l/m 14,0 km/h (3 Bft) W-NW 287 22,5 km/h (4 Bft)
09.01.2012 06:50 4,2 C 83 % 0,0 l/m 11,4 km/h (2 Bft) S 186 19,3 km/h (3 Bft)
09.01.2012 06:51 4,1 C 84 % 0,0 l/m 8,7 km/h (2 Bft) W 276 19,3 km/h (3 Bft)
09.01.2012 06:52 4,2 C 83 % 0,0 l/m 20,6 km/h (4 Bft) W-NW 300 38,6 km/h (5 Bft)
09.01.2012 06:53 4,2 C 83 % 0,0 l/m 18,7 km/h (3 Bft) W-NW 293 29,0 km/h (5 Bft)
09.01.2012 06:54 4,2 C 83 % 0,0 l/m 13,0 km/h (3 Bft) W-NW 282 22,5 km/h (4 Bft)
09.01.2012 06:55 4,2 C 83 % 0,0 l/m 13,8 km/h (3 Bft) NW 309 20,9 km/h (4 Bft)
09.01.2012 06:56 4,2 C 83 % 0,0 l/m 9,6 km/h (2 Bft) N-NW 332 19,3 km/h (3 Bft)
09.01.2012 06:57 4,2 C 83 % 0,0 l/m 16,6 km/h (3 Bft) W 267 30,6 km/h (5 Bft)
09.01.2012 06:58 4,2 C 83 % 0,0 l/m 17,6 km/h (3 Bft) W-NW 300 29,0 km/h (5 Bft)
09.01.2012 06:59 4,2 C 83 % 0,0 l/m 12,2 km/h (2 Bft) N-NW 330 19,3 km/h (3 Bft)
09.01.2012 07:00 4,2 C 83 % 0,0 l/m 12,6 km/h (3 Bft) NW 316 17,7 km/h (3 Bft)
09.01.2012 07:01 4,2 C 83 % 0,0 l/m 10,4 km/h (2 Bft) W-SW 257 17,7 km/h (3 Bft)
09.01.2012 07:02 4,1 C 83 % 0,0 l/m 13,0 km/h (3 Bft) N-NW 328 19,3 km/h (3 Bft)
09.01.2012 07:03 4,1 C 83 % 0,0 l/m 10,3 km/h (2 Bft) N-NO 32 14,5 km/h (3 Bft)
09.01.2012 07:04 4,1 C 83 % 0,0 l/m 16,4 km/h (3 Bft) W-SW 248 30,6 km/h (5 Bft)
09.01.2012 07:05 4,1 C 83 % 0,0 l/m 12,2 km/h (2 Bft) NW 325 17,7 km/h (3 Bft)
09.01.2012 07:06 4,1 C 83 % 0,0 l/m 13,5 km/h (3 Bft) W-NW 295 19,3 km/h (3 Bft)
09.01.2012 07:07 4,1 C 83 % 0,0 l/m 9,7 km/h (2 Bft) W-NW 287 12,9 km/h (3 Bft)
09.01.2012 07:08 4,1 C 83 % 0,0 l/m 9,3 km/h (2 Bft) NW 326 16,1 km/h (3 Bft)
09.01.2012 07:09 4,1 C 83 % 0,0 l/m 7,3 km/h (2 Bft) W-NW 297 25,7 km/h (4 Bft)
09.01.2012 07:10 4,1 C 83 % 0,0 l/m 17,6 km/h (3 Bft) S 176 30,6 km/h (5 Bft)
09.01.2012 07:11 4,1 C 83 % 0,0 l/m 10,8 km/h (2 Bft) NW 305 24,1 km/h (4 Bft)
09.01.2012 07:12 4,1 C 83 % 0,0 l/m 17,0 km/h (3 Bft) NO 40 27,4 km/h (4 Bft)
09.01.2012 07:13 4,1 C 83 % 0,0 l/m 13,8 km/h (3 Bft) SO 144 25,7 km/h (4 Bft)
09.01.2012 07:14 4,1 C 84 % 0,0 l/m 13,3 km/h (3 Bft) NW 305 25,7 km/h (4 Bft)
09.01.2012 07:15 4,1 C 83 % 0,0 l/m 13,0 km/h (3 Bft) W-SW 257 20,9 km/h (4 Bft)
09.01.2012 07:16 4,1 C 84 % 0,0 l/m 16,4 km/h (3 Bft) W-NW 284 30,6 km/h (5 Bft)
09.01.2012 07:17 4,1 C 83 % 0,0 l/m 17,2 km/h (3 Bft) W-NW 291 25,7 km/h (4 Bft)
09.01.2012 07:18 4,1 C 84 % 0,0 l/m 16,7 km/h (3 Bft) W-NW 300 32,2 km/h (5 Bft)
09.01.2012 07:19 4,1 C 84 % 0,0 l/m 16,7 km/h (3 Bft) NW 319 25,7 km/h (4 Bft)
09.01.2012 07:20 4,1 C 84 % 0,0 l/m 12,9 km/h (3 Bft) W 269 25,7 km/h (4 Bft)
09.01.2012 07:21 4,1 C 84 % 0,0 l/m 13,8 km/h (3 Bft) W-NW 295 19,3 km/h (3 Bft)
09.01.2012 07:22 4,0 C 84 % 0,0 l/m 19,2 km/h (3 Bft) W-NW 298 35,4 km/h (5 Bft)
09.01.2012 07:23 4,0 C 84 % 0,0 l/m 16,9 km/h (3 Bft) W-SW 255 27,4 km/h (4 Bft)
09.01.2012 07:24 4,0 C 85 % 0,0 l/m 12,1 km/h (2 Bft) W 276 20,9 km/h (4 Bft)
09.01.2012 07:25 3,9 C 85 % 0,0 l/m 12,7 km/h (3 Bft) NW 321 19,3 km/h (3 Bft)
09.01.2012 07:26 3,9 C 85 % 0,0 l/m 11,9 km/h (2 Bft) N-NW 330 20,9 km/h (4 Bft)
09.01.2012 07:27 3,9 C 85 % 0,0 l/m 9,7 km/h (2 Bft) W 278 17,7 km/h (3 Bft)
09.01.2012 07:28 3,9 C 85 % 0,0 l/m 11,3 km/h (2 Bft) SW 232 20,9 km/h (4 Bft)
09.01.2012 07:29 3,9 C 85 % 0,0 l/m 13,9 km/h (3 Bft) W-NW 291 22,5 km/h (4 Bft)
09.01.2012 07:30 3,9 C 85 % 0,0 l/m 15,7 km/h (3 Bft) W-SW 255 30,6 km/h (5 Bft)
09.01.2012 07:31 3,9 C 85 % 0,0 l/m 16,5 km/h (3 Bft) N 353 30,6 km/h (5 Bft)
09.01.2012 07:32 3,9 C 85 % 0,0 l/m 17,5 km/h (3 Bft) W-SW 248 29,0 km/h (5 Bft)
09.01.2012 07:33 3,9 C 85 % 0,0 l/m 8,6 km/h (2 Bft) N-NO 33 16,1 km/h (3 Bft)
09.01.2012 07:34 3,9 C 85 % 0,0 l/m 9,6 km/h (2 Bft) N-NW 333 19,3 km/h (3 Bft)
09.01.2012 07:35 3,9 C 85 % 0,0 l/m 21,1 km/h (4 Bft) W 276 27,4 km/h (4 Bft)
09.01.2012 07:36 3,9 C 85 % 0,0 l/m 11,2 km/h (2 Bft) NW 307 19,3 km/h (3 Bft)
09.01.2012 07:37 3,9 C 85 % 0,0 l/m 17,2 km/h (3 Bft) NW 316 24,1 km/h (4 Bft)
09.01.2012 07:38 3,9 C 85 % 0,0 l/m 16,1 km/h (3 Bft) NW 318 20,9 km/h (4 Bft)
09.01.2012 07:39 3,9 C 85 % 0,0 l/m 8,5 km/h (2 Bft) W-NW 300 19,3 km/h (3 Bft)
09.01.2012 07:40 3,9 C 85 % 0,0 l/m 7,2 km/h (2 Bft) NW 308 9,7 km/h (2 Bft)
09.01.2012 07:41 3,9 C 85 % 0,0 l/m 7,8 km/h (2 Bft) W-SW 249 12,9 km/h (3 Bft)
09.01.2012 07:42 3,9 C 85 % 0,0 l/m 13,6 km/h (3 Bft) W 271 19,3 km/h (3 Bft)
09.01.2012 07:43 3,9 C 85 % 0,0 l/m 13,9 km/h (3 Bft) W-NW 301 19,3 km/h (3 Bft)
09.01.2012 07:44 3,9 C 85 % 0,0 l/m 7,7 km/h (2 Bft) W-NW 291 12,9 km/h (3 Bft)
09.01.2012 07:45 3,9 C 85 % 0,0 l/m 7,6 km/h (2 Bft) W-SW 246 14,5 km/h (3 Bft)
09.01.2012 07:46 3,9 C 85 % 0,0 l/m 6,6 km/h (2 Bft) W-NW 291 9,7 km/h (2 Bft)
09.01.2012 07:47 3,9 C 85 % 0,0 l/m 15,0 km/h (3 Bft) W-NW 285 20,9 km/h (4 Bft)
09.01.2012 07:48 3,9 C 85 % 0,0 l/m 10,0 km/h (2 Bft) W 276 14,5 km/h (3 Bft)
09.01.2012 07:49 3,9 C 85 % 0,0 l/m 11,1 km/h (2 Bft) W 260 19,3 km/h (3 Bft)
09.01.2012 07:50 3,9 C 85 % 0,0 l/m 13,3 km/h (3 Bft) NW 309 22,5 km/h (4 Bft)
09.01.2012 07:51 3,9 C 85 % 0,0 l/m 12,0 km/h (2 Bft) W-NW 287 19,3 km/h (3 Bft)
09.01.2012 07:52 3,9 C 85 % 0,0 l/m 17,7 km/h (3 Bft) W 276 25,7 km/h (4 Bft)
09.01.2012 07:53 3,9 C 85 % 0,0 l/m 14,6 km/h (3 Bft) NW 310 20,9 km/h (4 Bft)
09.01.2012 07:54 3,9 C 85 % 0,0 l/m 16,3 km/h (3 Bft) N-NW 335 27,4 km/h (4 Bft)
09.01.2012 07:55 3,9 C 85 % 0,0 l/m 13,6 km/h (3 Bft) W-NW 291 24,1 km/h (4 Bft)
09.01.2012 07:56 3,9 C 85 % 0,0 l/m 6,8 km/h (2 Bft) W-NW 285 12,9 km/h (3 Bft)
09.01.2012 07:57 3,9 C 85 % 0,0 l/m 10,9 km/h (2 Bft) W-NW 302 17,7 km/h (3 Bft)
09.01.2012 07:58 3,9 C 85 % 0,0 l/m 16,2 km/h (3 Bft) N 8 22,5 km/h (4 Bft)
09.01.2012 07:59 3,9 C 85 % 0,0 l/m 14,3 km/h (3 Bft) NW 308 19,3 km/h (3 Bft)
09.01.2012 08:00 4,0 C 85 % 0,0 l/m 13,3 km/h (3 Bft) SW 233 20,9 km/h (4 Bft)
09.01.2012 08:01 4,0 C 85 % 0,0 l/m 16,3 km/h (3 Bft) W-NW 301 29,0 km/h (5 Bft)
09.01.2012 08:02 4,0 C 85 % 0,0 l/m 13,8 km/h (3 Bft) W-NW 297 25,7 km/h (4 Bft)
09.01.2012 08:03 4,0 C 85 % 0,0 l/m 21,2 km/h (4 Bft) W-NW 302 37,0 km/h (5 Bft)
09.01.2012 08:04 4,0 C 85 % 0,0 l/m 14,2 km/h (3 Bft) W-NW 288 22,5 km/h (4 Bft)
09.01.2012 08:05 4,1 C 85 % 0,0 l/m 17,6 km/h (3 Bft) NW 304 22,5 km/h (4 Bft)
09.01.2012 08:06 4,1 C 84 % 0,0 l/m 17,1 km/h (3 Bft) O-NO 77 24,1 km/h (4 Bft)
09.01.2012 08:07 4,1 C 84 % 0,0 l/m 20,2 km/h (4 Bft) W-NW 295 35,4 km/h (5 Bft)
09.01.2012 08:08 4,1 C 84 % 0,0 l/m 16,3 km/h (3 Bft) W-NW 295 22,5 km/h (4 Bft)
09.01.2012 08:09 4,1 C 84 % 0,0 l/m 17,4 km/h (3 Bft) W-NW 285 33,8 km/h (5 Bft)
09.01.2012 08:10 4,1 C 84 % 0,0 l/m 17,6 km/h (3 Bft) NW 314 32,2 km/h (5 Bft)
09.01.2012 08:11 4,1 C 84 % 0,0 l/m 17,5 km/h (3 Bft) W-NW 285 30,6 km/h (5 Bft)
09.01.2012 08:12 4,1 C 84 % 0,0 l/m 14,1 km/h (3 Bft) NW 306 29,0 km/h (5 Bft)
09.01.2012 08:13 4,1 C 84 % 0,0 l/m 18,0 km/h (3 Bft) NW 312 32,2 km/h (5 Bft)
09.01.2012 08:14 4,1 C 84 % 0,0 l/m 20,7 km/h (4 Bft) W-NW 291 37,0 km/h (5 Bft)
09.01.2012 08:15 4,1 C 84 % 0,0 l/m 14,8 km/h (3 Bft) W-SW 249 30,6 km/h (5 Bft)
09.01.2012 08:16 4,1 C 84 % 0,0 l/m 15,7 km/h (3 Bft) N-NW 345 25,7 km/h (4 Bft)
09.01.2012 08:17 4,1 C 84 % 0,0 l/m 9,7 km/h (2 Bft) NO 39 19,3 km/h (3 Bft)
09.01.2012 08:18 4,1 C 84 % 0,0 l/m 23,4 km/h (4 Bft) W-NW 293 32,2 km/h (5 Bft)
09.01.2012 08:19 4,1 C 84 % 0,0 l/m 15,7 km/h (3 Bft) W 267 27,4 km/h (4 Bft)
09.01.2012 08:20 4,1 C 84 % 0,0 l/m 13,7 km/h (3 Bft) NW 311 24,1 km/h (4 Bft)
09.01.2012 08:21 4,1 C 84 % 0,0 l/m 16,8 km/h (3 Bft) W-NW 293 20,9 km/h (4 Bft)
09.01.2012 08:22 4,1 C 84 % 0,0 l/m 16,3 km/h (3 Bft) W-NW 289 25,7 km/h (4 Bft)
09.01.2012 08:23 4,1 C 85 % 0,0 l/m 9,5 km/h (2 Bft) W-NW 287 14,5 km/h (3 Bft)
09.01.2012 08:24 4,1 C 85 % 0,0 l/m 13,4 km/h (3 Bft) W-NW 299 19,3 km/h (3 Bft)
09.01.2012 08:25 4,1 C 85 % 0,0 l/m 14,3 km/h (3 Bft) NW 311 29,0 km/h (5 Bft)
09.01.2012 08:26 4,1 C 85 % 0,0 l/m 15,0 km/h (3 Bft) W-NW 293 22,5 km/h (4 Bft)
09.01.2012 08:27 4,1 C 84 % 0,0 l/m 17,8 km/h (3 Bft) NW 312 27,4 km/h (4 Bft)
09.01.2012 08:28 4,1 C 84 % 0,0 l/m 15,4 km/h (3 Bft) NW 309 20,9 km/h (4 Bft)
09.01.2012 08:29 4,1 C 85 % 0,0 l/m 13,7 km/h (3 Bft) N 8 22,5 km/h (4 Bft)
09.01.2012 08:30 4,1 C 85 % 0,0 l/m 12,1 km/h (2 Bft) W-NW 293 20,9 km/h (4 Bft)
09.01.2012 08:31 4,1 C 85 % 0,0 l/m 14,8 km/h (3 Bft) W-SW 252 20,9 km/h (4 Bft)
09.01.2012 08:32 4,1 C 84 % 0,0 l/m 11,1 km/h (2 Bft) W-NW 289 17,7 km/h (3 Bft)
09.01.2012 08:33 4,1 C 84 % 0,0 l/m 17,8 km/h (3 Bft) W-SW 243 32,2 km/h (5 Bft)
09.01.2012 08:34 4,1 C 84 % 0,0 l/m 18,6 km/h (3 Bft) NW 314 29,0 km/h (5 Bft)
09.01.2012 08:35 4,1 C 84 % 0,0 l/m 18,8 km/h (3 Bft) W-NW 297 27,4 km/h (4 Bft)
09.01.2012 08:36 4,1 C 84 % 0,0 l/m 13,3 km/h (3 Bft) W-NW 301 20,9 km/h (4 Bft)
09.01.2012 08:37 4,1 C 84 % 0,0 l/m 14,6 km/h (3 Bft) W-NW 295 20,9 km/h (4 Bft)
09.01.2012 08:38 4,1 C 84 % 0,0 l/m 16,6 km/h (3 Bft) W-NW 284 29,0 km/h (5 Bft)
09.01.2012 08:39 4,1 C 84 % 0,0 l/m 13,8 km/h (3 Bft) W-NW 293 29,0 km/h (5 Bft)
09.01.2012 08:40 4,1 C 84 % 0,0 l/m 17,7 km/h (3 Bft) W-NW 302 25,7 km/h (4 Bft)
09.01.2012 08:41 4,2 C 84 % 0,0 l/m 12,5 km/h (3 Bft) W 269 17,7 km/h (3 Bft)
09.01.2012 08:42 4,2 C 84 % 0,0 l/m 13,1 km/h (3 Bft) W-NW 283 20,9 km/h (4 Bft)
09.01.2012 08:43 4,2 C 84 % 0,0 l/m 12,6 km/h (3 Bft) W-NW 300 16,1 km/h (3 Bft)
09.01.2012 08:44 4,2 C 84 % 0,0 l/m 13,9 km/h (3 Bft) W-SW 253 17,7 km/h (3 Bft)
09.01.2012 08:45 4,2 C 84 % 0,0 l/m 16,1 km/h (3 Bft) W-NW 284 20,9 km/h (4 Bft)
09.01.2012 08:46 4,2 C 83 % 0,0 l/m 11,1 km/h (2 Bft) W 271 17,7 km/h (3 Bft)
09.01.2012 08:47 4,2 C 83 % 0,0 l/m 15,9 km/h (3 Bft) W-NW 283 24,1 km/h (4 Bft)
09.01.2012 08:48 4,3 C 83 % 0,0 l/m 21,3 km/h (4 Bft) W-NW 284 33,8 km/h (5 Bft)
09.01.2012 08:49 4,3 C 83 % 0,0 l/m 9,0 km/h (2 Bft) W 260 16,1 km/h (3 Bft)
09.01.2012 08:50 4,4 C 83 % 0,0 l/m 17,3 km/h (3 Bft) N-NW 335 25,7 km/h (4 Bft)
09.01.2012 08:51 4,4 C 82 % 0,0 l/m 8,7 km/h (2 Bft) W-NW 297 16,1 km/h (3 Bft)
09.01.2012 08:52 4,4 C 82 % 0,0 l/m 15,2 km/h (3 Bft) W-NW 291 25,7 km/h (4 Bft)
09.01.2012 08:53 4,4 C 82 % 0,0 l/m 10,6 km/h (2 Bft) W 276 16,1 km/h (3 Bft)
09.01.2012 08:54 4,4 C 82 % 0,0 l/m 14,7 km/h (3 Bft) NW 307 20,9 km/h (4 Bft)
09.01.2012 08:55 4,4 C 82 % 0,0 l/m 11,3 km/h (2 Bft) NW 319 16,1 km/h (3 Bft)
09.01.2012 08:56 4,4 C 82 % 0,0 l/m 10,0 km/h (2 Bft) W 277 14,5 km/h (3 Bft)
09.01.2012 08:57 4,4 C 82 % 0,0 l/m 9,8 km/h (2 Bft) SW 236 14,5 km/h (3 Bft)
09.01.2012 08:58 4,4 C 82 % 0,0 l/m 8,0 km/h (2 Bft) W 280 14,5 km/h (3 Bft)
09.01.2012 08:59 4,4 C 82 % 0,0 l/m 16,5 km/h (3 Bft) N-NW 328 27,4 km/h (4 Bft)
09.01.2012 09:00 4,4 C 82 % 0,0 l/m 12,4 km/h (3 Bft) W-SW 249 17,7 km/h (3 Bft)
09.01.2012 09:01 4,4 C 82 % 0,0 l/m 8,5 km/h (2 Bft) NW 314 27,4 km/h (4 Bft)
09.01.2012 09:02 4,4 C 82 % 0,0 l/m 11,2 km/h (2 Bft) W-SW 237 24,1 km/h (4 Bft)
09.01.2012 09:03 4,4 C 81 % 0,0 l/m 14,2 km/h (3 Bft) W-NW 300 24,1 km/h (4 Bft)
09.01.2012 09:04 4,4 C 81 % 0,0 l/m 16,7 km/h (3 Bft) NW 312 22,5 km/h (4 Bft)
09.01.2012 09:05 4,4 C 81 % 0,0 l/m 9,7 km/h (2 Bft) W-NW 299 16,1 km/h (3 Bft)
09.01.2012 09:06 4,4 C 81 % 0,0 l/m 5,7 km/h (1 Bft) W-SW 255 9,7 km/h (2 Bft)
09.01.2012 09:07 4,4 C 81 % 0,0 l/m 13,7 km/h (3 Bft) W-NW 291 24,1 km/h (4 Bft)
09.01.2012 09:08 4,4 C 81 % 0,0 l/m 12,9 km/h (3 Bft) W-SW 255 22,5 km/h (4 Bft)
09.01.2012 09:09 4,4 C 81 % 0,0 l/m 9,1 km/h (2 Bft) N 349 17,7 km/h (3 Bft)
09.01.2012 09:10 4,4 C 81 % 0,0 l/m 9,9 km/h (2 Bft) S-SW 211 17,7 km/h (3 Bft)
09.01.2012 09:11 4,4 C 81 % 0,0 l/m 4,6 km/h (1 Bft) W-NW 294 8,0 km/h (2 Bft)
09.01.2012 09:12 4,4 C 81 % 0,0 l/m 9,4 km/h (2 Bft) W-NW 291 16,1 km/h (3 Bft)
09.01.2012 09:13 4,4 C 81 % 0,0 l/m 11,6 km/h (2 Bft) NW 310 14,5 km/h (3 Bft)
09.01.2012 09:14 4,4 C 81 % 0,0 l/m 10,6 km/h (2 Bft) W-NW 283 17,7 km/h (3 Bft)
09.01.2012 09:15 4,4 C 81 % 0,0 l/m 7,7 km/h (2 Bft) W-NW 300 12,9 km/h (3 Bft)
09.01.2012 09:16 4,4 C 82 % 0,0 l/m 11,1 km/h (2 Bft) W-NW 293 16,1 km/h (3 Bft)
09.01.2012 09:17 4,4 C 81 % 0,0 l/m 13,3 km/h (3 Bft) W 271 17,7 km/h (3 Bft)
09.01.2012 09:18 4,4 C 81 % 0,0 l/m 13,1 km/h (3 Bft) W 269 22,5 km/h (4 Bft)
09.01.2012 09:19 4,4 C 81 % 0,0 l/m 12,3 km/h (3 Bft) W-NW 289 16,1 km/h (3 Bft)
09.01.2012 09:20 4,4 C 82 % 0,0 l/m 7,8 km/h (2 Bft) W-NW 286 11,3 km/h (2 Bft)
09.01.2012 09:21 4,4 C 82 % 0,0 l/m 9,7 km/h (2 Bft) NW 315 19,3 km/h (3 Bft)
09.01.2012 09:22 4,4 C 81 % 0,0 l/m 11,3 km/h (2 Bft) W 274 19,3 km/h (3 Bft)
09.01.2012 09:23 4,4 C 81 % 0,0 l/m 8,9 km/h (2 Bft) W-NW 297 14,5 km/h (3 Bft)
09.01.2012 09:24 4,4 C 82 % 0,0 l/m 10,6 km/h (2 Bft) W-NW 284 17,7 km/h (3 Bft)
09.01.2012 09:25 4,4 C 82 % 0,0 l/m 7,8 km/h (2 Bft) W-SW 255 11,3 km/h (2 Bft)
09.01.2012 09:26 4,4 C 82 % 0,0 l/m 9,3 km/h (2 Bft) NW 306 14,5 km/h (3 Bft)
09.01.2012 09:27 4,4 C 82 % 0,0 l/m 5,7 km/h (1 Bft) W 263 12,9 km/h (3 Bft)
09.01.2012 09:28 4,4 C 82 % 0,0 l/m 7,1 km/h (2 Bft) W 263 12,9 km/h (3 Bft)
09.01.2012 09:29 4,3 C 82 % 0,0 l/m 10,2 km/h (2 Bft) W-NW 302 20,9 km/h (4 Bft)
09.01.2012 09:30 4,3 C 82 % 0,0 l/m 8,9 km/h (2 Bft) N 9 20,9 km/h (4 Bft)
09.01.2012 09:31 4,3 C 82 % 0,0 l/m 6,6 km/h (2 Bft) W 260 12,9 km/h (3 Bft)
09.01.2012 09:32 4,3 C 82 % 0,0 l/m 14,6 km/h (3 Bft) S 173 25,7 km/h (4 Bft)
09.01.2012 09:33 4,3 C 82 % 0,0 l/m 14,7 km/h (3 Bft) S-SW 205 24,1 km/h (4 Bft)
09.01.2012 09:34 4,3 C 82 % 0,0 l/m 9,5 km/h (2 Bft) W 273 17,7 km/h (3 Bft)
09.01.2012 09:35 4,3 C 82 % 0,0 l/m 11,2 km/h (2 Bft) W-SW 256 22,5 km/h (4 Bft)
09.01.2012 09:36 4,3 C 82 % 0,0 l/m 11,8 km/h (2 Bft) W-SW 257 22,5 km/h (4 Bft)
09.01.2012 09:37 4,3 C 82 % 0,0 l/m 8,1 km/h (2 Bft) SW 222 12,9 km/h (3 Bft)
09.01.2012 09:38 4,3 C 82 % 0,0 l/m 9,7 km/h (2 Bft) NW 323 19,3 km/h (3 Bft)
09.01.2012 09:39 4,3 C 82 % 0,0 l/m 10,0 km/h (2 Bft) S 173 17,7 km/h (3 Bft)
09.01.2012 09:40 4,3 C 82 % 0,0 l/m 6,7 km/h (2 Bft) SO 144 17,7 km/h (3 Bft)
09.01.2012 09:41 4,3 C 82 % 0,0 l/m 10,8 km/h (2 Bft) W 267 16,1 km/h (3 Bft)
09.01.2012 09:42 4,3 C 82 % 0,0 l/m 13,4 km/h (3 Bft) NW 308 20,9 km/h (4 Bft)
09.01.2012 09:43 4,3 C 82 % 0,0 l/m 10,1 km/h (2 Bft) SW 236 16,1 km/h (3 Bft)
09.01.2012 09:44 4,3 C 82 % 0,0 l/m 13,5 km/h (3 Bft) W 269 17,7 km/h (3 Bft)
09.01.2012 09:45 4,3 C 82 % 0,0 l/m 16,4 km/h (3 Bft) W 281 24,1 km/h (4 Bft)
09.01.2012 09:46 4,3 C 82 % 0,0 l/m 13,3 km/h (3 Bft) W-NW 293 25,7 km/h (4 Bft)
09.01.2012 09:47 4,3 C 82 % 0,0 l/m 13,3 km/h (3 Bft) W-NW 285 20,9 km/h (4 Bft)
09.01.2012 09:48 4,3 C 83 % 0,0 l/m 8,4 km/h (2 Bft) N-NW 329 16,1 km/h (3 Bft)
09.01.2012 09:49 4,3 C 83 % 0,0 l/m 6,0 km/h (2 Bft) W-NW 298 12,9 km/h (3 Bft)
09.01.2012 09:50 4,4 C 83 % 0,0 l/m 11,3 km/h (2 Bft) W-NW 297 19,3 km/h (3 Bft)
09.01.2012 09:51 4,4 C 83 % 0,0 l/m 17,7 km/h (3 Bft) W 278 22,5 km/h (4 Bft)
09.01.2012 09:52 4,4 C 82 % 0,0 l/m 12,3 km/h (3 Bft) W 277 20,9 km/h (4 Bft)
09.01.2012 09:53 4,4 C 82 % 0,0 l/m 15,5 km/h (3 Bft) W-NW 289 25,7 km/h (4 Bft)
09.01.2012 09:54 4,4 C 82 % 0,0 l/m 7,5 km/h (2 Bft) S 181 11,3 km/h (2 Bft)
09.01.2012 09:55 4,4 C 82 % 0,0 l/m 9,8 km/h (2 Bft) W 270 22,5 km/h (4 Bft)
09.01.2012 09:56 4,4 C 82 % 0,0 l/m 19,3 km/h (3 Bft) W-SW 249 27,4 km/h (4 Bft)
09.01.2012 09:57 4,4 C 82 % 0,0 l/m 8,9 km/h (2 Bft) N 352 14,5 km/h (3 Bft)
09.01.2012 09:58 4,4 C 82 % 0,0 l/m 18,4 km/h (3 Bft) W 273 24,1 km/h (4 Bft)
09.01.2012 09:59 4,5 C 82 % 0,0 l/m 12,7 km/h (3 Bft) W-NW 283 22,5 km/h (4 Bft)
09.01.2012 10:00 4,5 C 82 % 0,0 l/m 16,3 km/h (3 Bft) N-NO 18 27,4 km/h (4 Bft)
09.01.2012 10:01 4,5 C 82 % 0,0 l/m 14,0 km/h (3 Bft) W-NW 288 22,5 km/h (4 Bft)
09.01.2012 10:02 4,6 C 82 % 0,0 l/m 13,5 km/h (3 Bft) W-NW 285 17,7 km/h (3 Bft)
09.01.2012 10:03 4,6 C 82 % 0,0 l/m 9,3 km/h (2 Bft) NW 321 14,5 km/h (3 Bft)
09.01.2012 10:04 4,6 C 82 % 0,0 l/m 11,9 km/h (2 Bft) W 262 20,9 km/h (4 Bft)
09.01.2012 10:05 4,6 C 82 % 0,0 l/m 10,9 km/h (2 Bft) NW 304 24,1 km/h (4 Bft)
09.01.2012 10:06 4,6 C 82 % 0,0 l/m 13,6 km/h (3 Bft) SO 141 29,0 km/h (5 Bft)
09.01.2012 10:07 4,7 C 82 % 0,0 l/m 13,9 km/h (3 Bft) NW 304 27,4 km/h (4 Bft)
09.01.2012 10:08 4,6 C 81 % 0,0 l/m 17,6 km/h (3 Bft) NW 325 29,0 km/h (5 Bft)
09.01.2012 10:09 4,6 C 81 % 0,0 l/m 14,8 km/h (3 Bft) NW 315 27,4 km/h (4 Bft)
09.01.2012 10:10 4,6 C 82 % 0,0 l/m 10,2 km/h (2 Bft) W-NW 300 20,9 km/h (4 Bft)
09.01.2012 10:11 4,6 C 82 % 0,0 l/m 10,0 km/h (2 Bft) W 270 24,1 km/h (4 Bft)
09.01.2012 10:12 4,6 C 82 % 0,0 l/m 10,0 km/h (2 Bft) W-NW 287 12,9 km/h (3 Bft)
09.01.2012 10:13 4,6 C 82 % 0,0 l/m 11,1 km/h (2 Bft) W-NW 294 20,9 km/h (4 Bft)
09.01.2012 10:14 4,6 C 82 % 0,0 l/m 14,7 km/h (3 Bft) W 269 22,5 km/h (4 Bft)
09.01.2012 10:15 4,6 C 82 % 0,0 l/m 13,0 km/h (3 Bft) W-NW 293 22,5 km/h (4 Bft)
09.01.2012 10:16 4,6 C 82 % 0,0 l/m 14,3 km/h (3 Bft) W 269 17,7 km/h (3 Bft)
09.01.2012 10:17 4,6 C 82 % 0,0 l/m 15,5 km/h (3 Bft) SO 124 24,1 km/h (4 Bft)
09.01.2012 10:18 4,6 C 82 % 0,0 l/m 11,6 km/h (2 Bft) W 273 32,2 km/h (5 Bft)
09.01.2012 10:19 4,7 C 82 % 0,0 l/m 14,9 km/h (3 Bft) SO 127 22,5 km/h (4 Bft)
09.01.2012 10:20 4,7 C 82 % 0,0 l/m 11,1 km/h (2 Bft) W-NW 299 22,5 km/h (4 Bft)
09.01.2012 10:21 4,7 C 82 % 0,0 l/m 16,0 km/h (3 Bft) W-NW 297 24,1 km/h (4 Bft)
09.01.2012 10:22 4,8 C 82 % 0,0 l/m 10,2 km/h (2 Bft) W 274 14,5 km/h (3 Bft)
09.01.2012 10:23 4,8 C 81 % 0,0 l/m 14,2 km/h (3 Bft) N 356 22,5 km/h (4 Bft)
09.01.2012 10:24 4,8 C 81 % 0,0 l/m 17,0 km/h (3 Bft) NW 316 24,1 km/h (4 Bft)
09.01.2012 10:25 4,9 C 81 % 0,0 l/m 9,9 km/h (2 Bft) W-SW 256 20,9 km/h (4 Bft)
09.01.2012 10:26 4,9 C 81 % 0,0 l/m 11,5 km/h (2 Bft) W-SW 245 19,3 km/h (3 Bft)
09.01.2012 10:27 4,9 C 81 % 0,0 l/m 12,8 km/h (3 Bft) W 261 24,1 km/h (4 Bft)
09.01.2012 10:28 5,1 C 81 % 0,0 l/m 12,2 km/h (2 Bft) W-SW 256 19,3 km/h (3 Bft)
09.01.2012 10:29 5,1 C 80 % 0,0 l/m 17,6 km/h (3 Bft) N-NW 327 25,7 km/h (4 Bft)
09.01.2012 10:30 5,1 C 80 % 0,0 l/m 16,2 km/h (3 Bft) N-NO 15 22,5 km/h (4 Bft)
09.01.2012 10:31 5,1 C 80 % 0,0 l/m 10,8 km/h (2 Bft) W 259 25,7 km/h (4 Bft)
09.01.2012 10:32 5,1 C 79 % 0,0 l/m 15,6 km/h (3 Bft) W 271 24,1 km/h (4 Bft)
09.01.2012 10:33 5,1 C 79 % 0,0 l/m 16,3 km/h (3 Bft) W-SW 249 19,3 km/h (3 Bft)
09.01.2012 10:34 5,1 C 79 % 0,0 l/m 8,9 km/h (2 Bft) W 276 20,9 km/h (4 Bft)
09.01.2012 10:35 5,1 C 79 % 0,0 l/m 12,2 km/h (2 Bft) W 280 20,9 km/h (4 Bft)
09.01.2012 10:36 5,1 C 79 % 0,0 l/m 12,2 km/h (2 Bft) W-SW 243 24,1 km/h (4 Bft)
09.01.2012 10:37 5,1 C 79 % 0,0 l/m 14,1 km/h (3 Bft) N-NW 345 29,0 km/h (5 Bft)
09.01.2012 10:38 5,1 C 79 % 0,0 l/m 10,3 km/h (2 Bft) NW 319 22,5 km/h (4 Bft)
09.01.2012 10:39 5,1 C 79 % 0,0 l/m 20,7 km/h (4 Bft) W-NW 285 30,6 km/h (5 Bft)
09.01.2012 10:40 5,1 C 79 % 0,0 l/m 15,0 km/h (3 Bft) W-NW 293 27,4 km/h (4 Bft)
09.01.2012 10:41 5,1 C 79 % 0,0 l/m 12,6 km/h (3 Bft) W-NW 293 24,1 km/h (4 Bft)
09.01.2012 10:42 5,1 C 79 % 0,0 l/m 9,0 km/h (2 Bft) N-NW 327 17,7 km/h (3 Bft)
09.01.2012 10:43 5,0 C 79 % 0,0 l/m 8,8 km/h (2 Bft) W-NW 297 22,5 km/h (4 Bft)
09.01.2012 10:44 5,0 C 79 % 0,0 l/m 12,1 km/h (2 Bft) W-NW 291 22,5 km/h (4 Bft)
09.01.2012 10:45 5,0 C 79 % 0,0 l/m 16,9 km/h (3 Bft) W-NW 297 27,4 km/h (4 Bft)
09.01.2012 10:46 4,9 C 79 % 0,0 l/m 14,0 km/h (3 Bft) W-NW 289 29,0 km/h (5 Bft)
09.01.2012 10:47 4,9 C 78 % 0,0 l/m 21,6 km/h (4 Bft) SW 217 32,2 km/h (5 Bft)
09.01.2012 10:48 4,9 C 78 % 0,0 l/m 16,2 km/h (3 Bft) W-SW 257 30,6 km/h (5 Bft)
09.01.2012 10:49 4,9 C 78 % 0,0 l/m 16,6 km/h (3 Bft) NW 314 24,1 km/h (4 Bft)
09.01.2012 10:50 4,9 C 79 % 0,0 l/m 14,2 km/h (3 Bft) W-NW 291 29,0 km/h (5 Bft)
09.01.2012 10:51 4,9 C 78 % 0,0 l/m 18,2 km/h (3 Bft) NW 325 30,6 km/h (5 Bft)
09.01.2012 10:52 4,9 C 78 % 0,0 l/m 12,4 km/h (3 Bft) N 6 25,7 km/h (4 Bft)
09.01.2012 10:53 4,9 C 79 % 0,0 l/m 11,4 km/h (2 Bft) W 281 20,9 km/h (4 Bft)
09.01.2012 10:54 4,9 C 79 % 0,0 l/m 12,4 km/h (3 Bft) N-NO 19 19,3 km/h (3 Bft)
09.01.2012 10:55 4,9 C 79 % 0,0 l/m 14,7 km/h (3 Bft) W 273 25,7 km/h (4 Bft)
09.01.2012 10:56 4,9 C 79 % 0,0 l/m 13,2 km/h (3 Bft) W-NW 286 22,5 km/h (4 Bft)
09.01.2012 10:57 4,9 C 79 % 0,0 l/m 11,7 km/h (2 Bft) NW 305 19,3 km/h (3 Bft)
09.01.2012 10:58 4,9 C 79 % 0,0 l/m 14,4 km/h (3 Bft) W-NW 297 19,3 km/h (3 Bft)
09.01.2012 10:59 4,9 C 79 % 0,0 l/m 16,8 km/h (3 Bft) W-SW 239 25,7 km/h (4 Bft)
09.01.2012 11:00 4,9 C 79 % 0,0 l/m 12,8 km/h (3 Bft) W-SW 255 22,5 km/h (4 Bft)
09.01.2012 11:01 4,9 C 79 % 0,0 l/m 11,5 km/h (2 Bft) W 260 17,7 km/h (3 Bft)
09.01.2012 11:02 5,0 C 79 % 0,0 l/m 11,7 km/h (2 Bft) W-SW 245 19,3 km/h (3 Bft)
09.01.2012 11:03 5,0 C 79 % 0,0 l/m 13,4 km/h (3 Bft) W-NW 288 19,3 km/h (3 Bft)
09.01.2012 11:04 5,0 C 79 % 0,0 l/m 16,2 km/h (3 Bft) SW 216 25,7 km/h (4 Bft)
09.01.2012 11:05 5,0 C 79 % 0,0 l/m 10,1 km/h (2 Bft) W 274 19,3 km/h (3 Bft)
09.01.2012 11:06 5,1 C 79 % 0,0 l/m 10,3 km/h (2 Bft) W-NW 293 20,9 km/h (4 Bft)
09.01.2012 11:07 5,0 C 79 % 0,0 l/m 10,1 km/h (2 Bft) NW 308 20,9 km/h (4 Bft)
09.01.2012 11:08 5,1 C 79 % 0,0 l/m 10,9 km/h (2 Bft) W-NW 297 16,1 km/h (3 Bft)
09.01.2012 11:09 5,1 C 78 % 0,0 l/m 16,1 km/h (3 Bft) W-NW 295 22,5 km/h (4 Bft)
09.01.2012 11:10 5,1 C 79 % 0,0 l/m 14,0 km/h (3 Bft) W-SW 253 22,5 km/h (4 Bft)
09.01.2012 11:11 5,1 C 79 % 0,0 l/m 8,0 km/h (2 Bft) W-NW 297 19,3 km/h (3 Bft)
09.01.2012 11:12 5,1 C 78 % 0,0 l/m 19,5 km/h (3 Bft) W-NW 293 32,2 km/h (5 Bft)
09.01.2012 11:13 5,1 C 78 % 0,0 l/m 12,9 km/h (3 Bft) W-NW 301 22,5 km/h (4 Bft)
09.01.2012 11:14 5,1 C 78 % 0,0 l/m 10,8 km/h (2 Bft) W 276 17,7 km/h (3 Bft)
09.01.2012 11:15 5,1 C 78 % 0,0 l/m 10,0 km/h (2 Bft) NW 304 24,1 km/h (4 Bft)
09.01.2012 11:16 5,1 C 78 % 0,0 l/m 12,6 km/h (3 Bft) NW 314 24,1 km/h (4 Bft)
09.01.2012 11:17 5,1 C 78 % 0,0 l/m 12,0 km/h (2 Bft) NW 323 17,7 km/h (3 Bft)
09.01.2012 11:18 5,1 C 78 % 0,0 l/m 7,8 km/h (2 Bft) NW 309 27,4 km/h (4 Bft)
09.01.2012 11:19 5,1 C 78 % 0,0 l/m 10,1 km/h (2 Bft) W 281 19,3 km/h (3 Bft)
09.01.2012 11:20 5,1 C 78 % 0,0 l/m 8,7 km/h (2 Bft) W-NW 291 14,5 km/h (3 Bft)
09.01.2012 11:21 5,1 C 78 % 0,0 l/m 10,7 km/h (2 Bft) N-NW 336 14,5 km/h (3 Bft)
09.01.2012 11:22 5,1 C 78 % 0,0 l/m 11,4 km/h (2 Bft) NW 321 19,3 km/h (3 Bft)
09.01.2012 11:23 5,1 C 79 % 0,0 l/m 11,8 km/h (2 Bft) W-NW 301 20,9 km/h (4 Bft)
09.01.2012 11:24 5,1 C 78 % 0,0 l/m 15,3 km/h (3 Bft) SW 235 27,4 km/h (4 Bft)
09.01.2012 11:25 5,1 C 78 % 0,0 l/m 15,8 km/h (3 Bft) W-SW 249 24,1 km/h (4 Bft)
09.01.2012 11:26 5,1 C 77 % 0,0 l/m 13,9 km/h (3 Bft) NW 314 25,7 km/h (4 Bft)
09.01.2012 11:27 5,1 C 77 % 0,0 l/m 18,4 km/h (3 Bft) W 277 25,7 km/h (4 Bft)
09.01.2012 11:28 5,1 C 77 % 0,0 l/m 7,5 km/h (2 Bft) N 351 12,9 km/h (3 Bft)
09.01.2012 11:29 5,1 C 78 % 0,0 l/m 12,2 km/h (2 Bft) NW 305 25,7 km/h (4 Bft)
09.01.2012 11:30 5,1 C 78 % 0,0 l/m 14,8 km/h (3 Bft) SW 226 27,4 km/h (4 Bft)
09.01.2012 11:31 5,1 C 78 % 0,0 l/m 14,2 km/h (3 Bft) W-NW 298 22,5 km/h (4 Bft)
09.01.2012 11:32 5,1 C 78 % 0,0 l/m 11,5 km/h (2 Bft) W-NW 293 25,7 km/h (4 Bft)
09.01.2012 11:33 5,1 C 78 % 0,0 l/m 11,0 km/h (2 Bft) S 174 17,7 km/h (3 Bft)
09.01.2012 11:34 5,1 C 78 % 0,0 l/m 13,3 km/h (3 Bft) O-NO 71 24,1 km/h (4 Bft)
09.01.2012 11:35 5,1 C 79 % 0,0 l/m 7,3 km/h (2 Bft) O-NO 61 12,9 km/h (3 Bft)
09.01.2012 11:36 5,1 C 78 % 0,0 l/m 14,0 km/h (3 Bft) W-NW 282 22,5 km/h (4 Bft)
09.01.2012 11:37 5,1 C 78 % 0,0 l/m 13,0 km/h (3 Bft) W-NW 297 19,3 km/h (3 Bft)
09.01.2012 11:38 5,1 C 78 % 0,0 l/m 9,5 km/h (2 Bft) NW 312 12,9 km/h (3 Bft)
09.01.2012 11:39 5,1 C 78 % 0,0 l/m 16,3 km/h (3 Bft) O-SO 105 20,9 km/h (4 Bft)
09.01.2012 11:40 5,1 C 79 % 0,0 l/m 14,8 km/h (3 Bft) W-SW 245 20,9 km/h (4 Bft)
09.01.2012 11:41 5,1 C 79 % 0,0 l/m 12,4 km/h (3 Bft) O 101 19,3 km/h (3 Bft)
09.01.2012 11:42 5,1 C 79 % 0,0 l/m 11,7 km/h (2 Bft) NW 316 19,3 km/h (3 Bft)
09.01.2012 11:43 5,1 C 79 % 0,0 l/m 16,1 km/h (3 Bft) W-NW 297 22,5 km/h (4 Bft)
09.01.2012 11:44 5,1 C 78 % 0,0 l/m 17,1 km/h (3 Bft) W-NW 289 33,8 km/h (5 Bft)
09.01.2012 11:45 5,1 C 78 % 0,0 l/m 26,4 km/h (4 Bft) W-SW 250 37,0 km/h (5 Bft)
09.01.2012 11:46 5,1 C 77 % 0,0 l/m 24,1 km/h (4 Bft) W 276 30,6 km/h (5 Bft)
09.01.2012 11:47 5,1 C 77 % 0,0 l/m 19,2 km/h (3 Bft) NW 319 29,0 km/h (5 Bft)
09.01.2012 11:48 5,1 C 78 % 0,0 l/m 15,5 km/h (3 Bft) NW 308 29,0 km/h (5 Bft)
09.01.2012 11:49 5,1 C 77 % 0,0 l/m 10,3 km/h (2 Bft) W-NW 283 19,3 km/h (3 Bft)
09.01.2012 11:50 5,1 C 77 % 0,0 l/m 15,1 km/h (3 Bft) NW 321 20,9 km/h (4 Bft)
09.01.2012 11:51 5,1 C 78 % 0,0 l/m 11,9 km/h (2 Bft) W-NW 287 17,7 km/h (3 Bft)
09.01.2012 11:52 5,1 C 78 % 0,0 l/m 11,3 km/h (2 Bft) W-NW 291 25,7 km/h (4 Bft)
09.01.2012 11:53 5,1 C 78 % 0,0 l/m 13,0 km/h (3 Bft) S-SW 200 22,5 km/h (4 Bft)
09.01.2012 11:54 5,1 C 78 % 0,0 l/m 17,3 km/h (3 Bft) W-NW 298 29,0 km/h (5 Bft)
09.01.2012 11:55 5,1 C 78 % 0,0 l/m 17,7 km/h (3 Bft) SO 145 30,6 km/h (5 Bft)
09.01.2012 11:56 5,1 C 78 % 0,0 l/m 10,9 km/h (2 Bft) W 267 19,3 km/h (3 Bft)
09.01.2012 11:57 5,1 C 78 % 0,0 l/m 13,2 km/h (3 Bft) W-NW 288 27,4 km/h (4 Bft)
09.01.2012 11:58 5,1 C 78 % 0,0 l/m 18,2 km/h (3 Bft) W-NW 298 33,8 km/h (5 Bft)
09.01.2012 11:59 5,1 C 78 % 0,0 l/m 15,6 km/h (3 Bft) W 278 29,0 km/h (5 Bft)
09.01.2012 12:00 5,1 C 78 % 0,0 l/m 23,9 km/h (4 Bft) W-NW 288 30,6 km/h (5 Bft)
09.01.2012 12:01 5,1 C 78 % 0,0 l/m 13,2 km/h (3 Bft) SW 215 20,9 km/h (4 Bft)
09.01.2012 12:02 5,1 C 78 % 0,0 l/m 14,9 km/h (3 Bft) W-NW 297 20,9 km/h (4 Bft)
09.01.2012 12:03 5,1 C 78 % 0,0 l/m 13,5 km/h (3 Bft) W-NW 297 19,3 km/h (3 Bft)
09.01.2012 12:04 5,1 C 78 % 0,0 l/m 11,1 km/h (2 Bft) W-NW 283 29,0 km/h (5 Bft)
09.01.2012 12:05 5,1 C 77 % 0,0 l/m 23,7 km/h (4 Bft) W-NW 297 30,6 km/h (5 Bft)
09.01.2012 12:06 5,1 C 78 % 0,0 l/m 10,5 km/h (2 Bft) W 264 17,7 km/h (3 Bft)
09.01.2012 12:07 5,1 C 78 % 0,0 l/m 11,5 km/h (2 Bft) W 269 17,7 km/h (3 Bft)
09.01.2012 12:08 5,1 C 78 % 0,0 l/m 14,2 km/h (3 Bft) N-NW 327 22,5 km/h (4 Bft)
09.01.2012 12:09 5,1 C 78 % 0,0 l/m 14,1 km/h (3 Bft) W 281 41,8 km/h (6 Bft)
09.01.2012 12:10 5,1 C 78 % 0,2 l/m 16,6 km/h (3 Bft) W 280 40,2 km/h (6 Bft)
09.01.2012 12:11 5,1 C 78 % 0,0 l/m 21,3 km/h (4 Bft) W 277 32,2 km/h (5 Bft)
09.01.2012 12:12 5,1 C 77 % 0,0 l/m 17,1 km/h (3 Bft) W-NW 293 24,1 km/h (4 Bft)
09.01.2012 12:13 5,1 C 77 % 0,0 l/m 15,7 km/h (3 Bft) N-NO 33 29,0 km/h (5 Bft)
09.01.2012 12:14 5,0 C 78 % 0,0 l/m 10,8 km/h (2 Bft) S-SW 212 17,7 km/h (3 Bft)
09.01.2012 12:15 5,0 C 78 % 0,0 l/m 9,5 km/h (2 Bft) W-NW 295 17,7 km/h (3 Bft)
09.01.2012 12:16 5,0 C 78 % 0,0 l/m 16,8 km/h (3 Bft) W-NW 293 24,1 km/h (4 Bft)
09.01.2012 12:17 5,0 C 78 % 0,0 l/m 17,4 km/h (3 Bft) SW 217 25,7 km/h (4 Bft)
09.01.2012 12:18 5,0 C 78 % 0,0 l/m 18,5 km/h (3 Bft) N-NW 332 25,7 km/h (4 Bft)
09.01.2012 12:19 5,0 C 78 % 0,0 l/m 16,4 km/h (3 Bft) N-NW 330 30,6 km/h (5 Bft)
09.01.2012 12:20 5,0 C 78 % 0,0 l/m 23,8 km/h (4 Bft) W-NW 300 38,6 km/h (5 Bft)
09.01.2012 12:21 5,0 C 78 % 0,0 l/m 19,6 km/h (3 Bft) W-SW 257 33,8 km/h (5 Bft)
09.01.2012 12:22 5,0 C 78 % 0,0 l/m 16,4 km/h (3 Bft) W-SW 255 27,4 km/h (4 Bft)
09.01.2012 12:23 5,0 C 77 % 0,0 l/m 20,1 km/h (4 Bft) N-NW 327 32,2 km/h (5 Bft)
09.01.2012 12:24 5,0 C 78 % 0,0 l/m 18,9 km/h (3 Bft) W 270 29,0 km/h (5 Bft)
09.01.2012 12:25 5,0 C 78 % 0,0 l/m 17,8 km/h (3 Bft) W-NW 293 27,4 km/h (4 Bft)
09.01.2012 12:26 5,0 C 77 % 0,0 l/m 25,1 km/h (4 Bft) W 259 35,4 km/h (5 Bft)
09.01.2012 12:27 5,0 C 77 % 0,0 l/m 21,4 km/h (4 Bft) W-NW 300 32,2 km/h (5 Bft)
09.01.2012 12:28 5,0 C 77 % 0,0 l/m 17,3 km/h (3 Bft) N-NW 336 22,5 km/h (4 Bft)
09.01.2012 12:29 5,0 C 77 % 0,0 l/m 15,3 km/h (3 Bft) NW 321 24,1 km/h (4 Bft)
09.01.2012 12:30 5,0 C 78 % 0,0 l/m 24,1 km/h (4 Bft) W 276 32,2 km/h (5 Bft)
09.01.2012 12:31 5,0 C 77 % 0,0 l/m 17,2 km/h (3 Bft) NW 321 25,7 km/h (4 Bft)
09.01.2012 12:32 5,1 C 77 % 0,0 l/m 21,4 km/h (4 Bft) W-NW 293 29,0 km/h (5 Bft)
09.01.2012 12:33 5,1 C 77 % 0,0 l/m 20,3 km/h (4 Bft) W 267 33,8 km/h (5 Bft)
09.01.2012 12:34 5,1 C 77 % 0,0 l/m 19,0 km/h (3 Bft) W-NW 288 27,4 km/h (4 Bft)
09.01.2012 12:35 5,1 C 77 % 0,0 l/m 17,8 km/h (3 Bft) N 354 27,4 km/h (4 Bft)
09.01.2012 12:36 5,1 C 77 % 0,0 l/m 19,8 km/h (3 Bft) W 278 27,4 km/h (4 Bft)
09.01.2012 12:37 5,1 C 78 % 0,0 l/m 19,1 km/h (3 Bft) W-NW 302 29,0 km/h (5 Bft)
09.01.2012 12:38 5,1 C 77 % 0,0 l/m 21,8 km/h (4 Bft) NW 321 35,4 km/h (5 Bft)
09.01.2012 12:39 5,1 C 77 % 0,0 l/m 19,8 km/h (3 Bft) W 277 30,6 km/h (5 Bft)
09.01.2012 12:40 5,1 C 76 % 0,0 l/m 20,5 km/h (4 Bft) W-NW 289 33,8 km/h (5 Bft)
09.01.2012 12:41 5,1 C 76 % 0,0 l/m 25,0 km/h (4 Bft) W-NW 297 37,0 km/h (5 Bft)
09.01.2012 12:42 5,1 C 76 % 0,0 l/m 23,3 km/h (4 Bft) W-NW 298 37,0 km/h (5 Bft)
09.01.2012 12:43 5,1 C 77 % 0,0 l/m 23,1 km/h (4 Bft) W-NW 283 35,4 km/h (5 Bft)
09.01.2012 12:44 5,2 C 76 % 0,0 l/m 27,0 km/h (4 Bft) W-NW 301 40,2 km/h (6 Bft)
09.01.2012 12:45 5,2 C 76 % 0,0 l/m 22,0 km/h (4 Bft) NW 305 41,8 km/h (6 Bft)
09.01.2012 12:46 5,2 C 76 % 0,0 l/m 19,7 km/h (3 Bft) W 278 29,0 km/h (5 Bft)
09.01.2012 12:47 5,2 C 77 % 0,0 l/m 21,5 km/h (4 Bft) W 274 33,8 km/h (5 Bft)
09.01.2012 12:48 5,2 C 75 % 0,0 l/m 23,9 km/h (4 Bft) W-NW 295 33,8 km/h (5 Bft)
09.01.2012 12:49 5,2 C 75 % 0,0 l/m 23,2 km/h (4 Bft) W-NW 285 30,6 km/h (5 Bft)
09.01.2012 12:50 5,2 C 75 % 0,0 l/m 16,6 km/h (3 Bft) W-NW 297 33,8 km/h (5 Bft)
09.01.2012 12:51 5,2 C 76 % 0,0 l/m 22,3 km/h (4 Bft) W-NW 287 35,4 km/h (5 Bft)
09.01.2012 12:52 5,3 C 75 % 0,0 l/m 27,6 km/h (4 Bft) S-SW 200 35,4 km/h (5 Bft)
09.01.2012 12:53 5,3 C 76 % 0,0 l/m 13,6 km/h (3 Bft) N-NW 333 24,1 km/h (4 Bft)
09.01.2012 12:54 5,3 C 76 % 0,0 l/m 24,9 km/h (4 Bft) W-NW 297 37,0 km/h (5 Bft)
09.01.2012 12:55 5,3 C 75 % 0,0 l/m 23,1 km/h (4 Bft) W-NW 287 33,8 km/h (5 Bft)
09.01.2012 12:56 5,3 C 75 % 0,0 l/m 13,6 km/h (3 Bft) W-SW 248 25,7 km/h (4 Bft)
09.01.2012 12:57 5,3 C 76 % 0,0 l/m 21,4 km/h (4 Bft) W 262 27,4 km/h (4 Bft)
09.01.2012 12:58 5,3 C 76 % 0,0 l/m 18,7 km/h (3 Bft) W-NW 297 38,6 km/h (5 Bft)
09.01.2012 12:59 5,3 C 75 % 0,0 l/m 28,8 km/h (4 Bft) W-NW 294 41,8 km/h (6 Bft)
09.01.2012 13:00 5,3 C 75 % 0,0 l/m 23,5 km/h (4 Bft) SW 219 33,8 km/h (5 Bft)
09.01.2012 13:01 5,3 C 75 % 0,0 l/m 26,6 km/h (4 Bft) W 259 37,0 km/h (5 Bft)
09.01.2012 13:02 5,2 C 75 % 0,0 l/m 27,9 km/h (4 Bft) W-NW 297 38,6 km/h (5 Bft)
09.01.2012 13:03 5,2 C 76 % 0,0 l/m 30,1 km/h (5 Bft) W-NW 302 46,7 km/h (6 Bft)
09.01.2012 13:04 5,2 C 75 % 0,0 l/m 21,1 km/h (4 Bft) W-NW 290 33,8 km/h (5 Bft)
09.01.2012 13:05 5,2 C 76 % 0,0 l/m 27,0 km/h (4 Bft) W-NW 297 40,2 km/h (6 Bft)
09.01.2012 13:06 5,2 C 76 % 0,0 l/m 27,9 km/h (4 Bft) NW 304 45,1 km/h (6 Bft)
09.01.2012 13:07 5,2 C 76 % 0,0 l/m 21,6 km/h (4 Bft) W-NW 298 38,6 km/h (5 Bft)
09.01.2012 13:08 5,2 C 76 % 0,0 l/m 20,5 km/h (4 Bft) NW 308 30,6 km/h (5 Bft)
09.01.2012 13:09 5,2 C 77 % 0,0 l/m 16,4 km/h (3 Bft) S 186 22,5 km/h (4 Bft)
09.01.2012 13:10 5,2 C 77 % 0,0 l/m 12,7 km/h (3 Bft) W-NW 293 29,0 km/h (5 Bft)
09.01.2012 13:11 5,2 C 77 % 0,0 l/m 13,0 km/h (3 Bft) N-NW 341 27,4 km/h (4 Bft)
09.01.2012 13:12 5,2 C 77 % 0,0 l/m 17,4 km/h (3 Bft) N-NW 333 25,7 km/h (4 Bft)
09.01.2012 13:13 5,2 C 77 % 0,0 l/m 15,4 km/h (3 Bft) NW 312 22,5 km/h (4 Bft)
09.01.2012 13:14 5,1 C 77 % 0,0 l/m 21,4 km/h (4 Bft) S-SW 207 35,4 km/h (5 Bft)
09.01.2012 13:15 5,1 C 77 % 0,0 l/m 19,1 km/h (3 Bft) NW 306 29,0 km/h (5 Bft)
09.01.2012 13:16 5,1 C 77 % 0,0 l/m 22,8 km/h (4 Bft) NW 316 35,4 km/h (5 Bft)
09.01.2012 13:17 5,1 C 77 % 0,0 l/m 21,3 km/h (4 Bft) W-NW 300 30,6 km/h (5 Bft)
09.01.2012 13:18 5,1 C 77 % 0,0 l/m 17,9 km/h (3 Bft) W-NW 300 30,6 km/h (5 Bft)
09.01.2012 13:19 5,0 C 78 % 0,0 l/m 20,4 km/h (4 Bft) W-SW 248 32,2 km/h (5 Bft)
09.01.2012 13:20 5,0 C 78 % 0,0 l/m 21,4 km/h (4 Bft) W-NW 291 30,6 km/h (5 Bft)
09.01.2012 13:21 5,0 C 77 % 0,0 l/m 20,3 km/h (4 Bft) W-NW 285 29,0 km/h (5 Bft)
09.01.2012 13:22 5,0 C 78 % 0,0 l/m 15,9 km/h (3 Bft) W-NW 297 29,0 km/h (5 Bft)
09.01.2012 13:23 4,9 C 78 % 0,0 l/m 20,1 km/h (4 Bft) W 281 29,0 km/h (5 Bft)
09.01.2012 13:24 4,9 C 78 % 0,0 l/m 16,5 km/h (3 Bft) W 271 22,5 km/h (4 Bft)
09.01.2012 13:25 4,9 C 78 % 0,0 l/m 21,5 km/h (4 Bft) NW 312 29,0 km/h (5 Bft)
09.01.2012 13:26 4,9 C 78 % 0,0 l/m 15,6 km/h (3 Bft) NW 312 29,0 km/h (5 Bft)
09.01.2012 13:27 4,9 C 78 % 0,0 l/m 17,4 km/h (3 Bft) W-NW 287 30,6 km/h (5 Bft)
09.01.2012 13:28 4,9 C 78 % 0,0 l/m 19,1 km/h (3 Bft) W-NW 300 25,7 km/h (4 Bft)
09.01.2012 13:29 4,9 C 78 % 0,0 l/m 17,3 km/h (3 Bft) W-NW 297 27,4 km/h (4 Bft)
09.01.2012 13:30 4,9 C 78 % 0,0 l/m 15,4 km/h (3 Bft) W 264 29,0 km/h (5 Bft)
09.01.2012 13:31 4,9 C 78 % 0,0 l/m 20,8 km/h (4 Bft) N-NW 345 29,0 km/h (5 Bft)
09.01.2012 13:32 4,9 C 78 % 0,0 l/m 19,8 km/h (3 Bft) W-NW 284 25,7 km/h (4 Bft)
09.01.2012 13:33 4,9 C 78 % 0,0 l/m 17,0 km/h (3 Bft) W 281 24,1 km/h (4 Bft)
09.01.2012 13:34 4,9 C 78 % 0,0 l/m 20,8 km/h (4 Bft) S-SO 153 33,8 km/h (5 Bft)
09.01.2012 13:35 4,9 C 77 % 0,0 l/m 19,4 km/h (3 Bft) W-SW 250 41,8 km/h (6 Bft)
09.01.2012 13:36 4,9 C 77 % 0,0 l/m 19,5 km/h (3 Bft) W-NW 294 33,8 km/h (5 Bft)
09.01.2012 13:37 4,9 C 77 % 0,0 l/m 19,5 km/h (3 Bft) NW 307 33,8 km/h (5 Bft)
09.01.2012 13:38 4,9 C 77 % 0,0 l/m 19,2 km/h (3 Bft) W-NW 293 30,6 km/h (5 Bft)
09.01.2012 13:39 5,0 C 77 % 0,0 l/m 20,0 km/h (4 Bft) W 276 27,4 km/h (4 Bft)
09.01.2012 13:40 5,0 C 76 % 0,0 l/m 18,7 km/h (3 Bft) W-NW 283 25,7 km/h (4 Bft)
09.01.2012 13:41 5,0 C 76 % 0,0 l/m 21,7 km/h (4 Bft) W 271 30,6 km/h (5 Bft)
09.01.2012 13:42 5,1 C 76 % 0,0 l/m 27,0 km/h (4 Bft) W-NW 295 38,6 km/h (5 Bft)
09.01.2012 13:43 5,1 C 77 % 0,0 l/m 19,5 km/h (3 Bft) N-NW 332 32,2 km/h (5 Bft)
09.01.2012 13:44 5,1 C 76 % 0,0 l/m 19,5 km/h (3 Bft) W-SW 249 27,4 km/h (4 Bft)
09.01.2012 13:45 5,1 C 77 % 0,0 l/m 13,6 km/h (3 Bft) W-NW 291 22,5 km/h (4 Bft)
09.01.2012 13:46 5,1 C 77 % 0,0 l/m 15,0 km/h (3 Bft) NW 314 22,5 km/h (4 Bft)
09.01.2012 13:47 5,1 C 77 % 0,0 l/m 10,8 km/h (2 Bft) NW 308 17,7 km/h (3 Bft)
09.01.2012 13:48 5,2 C 77 % 0,0 l/m 20,1 km/h (4 Bft) W 281 33,8 km/h (5 Bft)
09.01.2012 13:49 5,2 C 76 % 0,0 l/m 21,7 km/h (4 Bft) W-NW 297 37,0 km/h (5 Bft)
09.01.2012 13:50 5,2 C 76 % 0,0 l/m 22,5 km/h (4 Bft) W-NW 289 33,8 km/h (5 Bft)
09.01.2012 13:51 5,2 C 76 % 0,0 l/m 17,4 km/h (3 Bft) W-NW 284 25,7 km/h (4 Bft)
09.01.2012 13:52 5,2 C 76 % 0,0 l/m 20,9 km/h (4 Bft) NW 304 30,6 km/h (5 Bft)
09.01.2012 13:53 5,2 C 75 % 0,0 l/m 25,4 km/h (4 Bft) W-NW 297 38,6 km/h (5 Bft)
09.01.2012 13:54 5,2 C 75 % 0,0 l/m 16,6 km/h (3 Bft) W-NW 298 27,4 km/h (4 Bft)
09.01.2012 13:55 5,2 C 76 % 0,0 l/m 13,2 km/h (3 Bft) W 270 30,6 km/h (5 Bft)
09.01.2012 13:56 5,3 C 76 % 0,0 l/m 21,1 km/h (4 Bft) NW 308 33,8 km/h (5 Bft)
09.01.2012 13:57 5,3 C 76 % 0,0 l/m 15,3 km/h (3 Bft) W-SW 253 30,6 km/h (5 Bft)
09.01.2012 13:58 5,3 C 75 % 0,0 l/m 17,8 km/h (3 Bft) W-NW 284 32,2 km/h (5 Bft)
09.01.2012 13:59 5,3 C 75 % 0,0 l/m 21,9 km/h (4 Bft) SW 235 30,6 km/h (5 Bft)
09.01.2012 14:00 5,2 C 75 % 0,0 l/m 19,8 km/h (3 Bft) W-NW 302 32,2 km/h (5 Bft)
09.01.2012 14:01 5,2 C 76 % 0,0 l/m 20,0 km/h (4 Bft) N-NO 21 29,0 km/h (5 Bft)
09.01.2012 14:02 5,2 C 76 % 0,0 l/m 21,2 km/h (4 Bft) W 276 32,2 km/h (5 Bft)
09.01.2012 14:03 5,3 C 76 % 0,0 l/m 14,4 km/h (3 Bft) NW 304 25,7 km/h (4 Bft)
09.01.2012 14:04 5,3 C 76 % 0,0 l/m 23,2 km/h (4 Bft) W 275 35,4 km/h (5 Bft)
09.01.2012 14:05 5,3 C 75 % 0,0 l/m 19,3 km/h (3 Bft) O-NO 64 27,4 km/h (4 Bft)
09.01.2012 14:06 5,3 C 76 % 0,0 l/m 17,3 km/h (3 Bft) W-NW 302 27,4 km/h (4 Bft)
09.01.2012 14:07 5,3 C 76 % 0,0 l/m 15,4 km/h (3 Bft) W 281 29,0 km/h (5 Bft)
09.01.2012 14:08 5,3 C 76 % 0,0 l/m 15,0 km/h (3 Bft) W-NW 284 25,7 km/h (4 Bft)
09.01.2012 14:09 5,3 C 76 % 0,0 l/m 21,8 km/h (4 Bft) NW 304 32,2 km/h (5 Bft)
09.01.2012 14:10 5,3 C 76 % 0,0 l/m 17,1 km/h (3 Bft) W-NW 283 25,7 km/h (4 Bft)
09.01.2012 14:11 5,3 C 75 % 0,0 l/m 20,0 km/h (4 Bft) W 273 32,2 km/h (5 Bft)
09.01.2012 14:12 5,3 C 75 % 0,0 l/m 16,3 km/h (3 Bft) W-NW 285 24,1 km/h (4 Bft)
09.01.2012 14:13 5,3 C 76 % 0,0 l/m 18,4 km/h (3 Bft) W-NW 301 27,4 km/h (4 Bft)
09.01.2012 14:14 5,2 C 76 % 0,0 l/m 12,5 km/h (3 Bft) W 269 25,7 km/h (4 Bft)
09.01.2012 14:15 5,2 C 76 % 0,0 l/m 15,0 km/h (3 Bft) NW 309 27,4 km/h (4 Bft)
09.01.2012 14:16 5,2 C 76 % 0,0 l/m 17,4 km/h (3 Bft) W-NW 293 22,5 km/h (4 Bft)
09.01.2012 14:17 5,2 C 76 % 0,0 l/m 16,0 km/h (3 Bft) NW 314 24,1 km/h (4 Bft)
09.01.2012 14:18 5,2 C 76 % 0,0 l/m 11,1 km/h (2 Bft) W-NW 286 30,6 km/h (5 Bft)
09.01.2012 14:19 5,2 C 76 % 0,0 l/m 11,6 km/h (2 Bft) N-NW 329 16,1 km/h (3 Bft)
09.01.2012 14:20 5,2 C 76 % 0,0 l/m 11,9 km/h (2 Bft) W-NW 287 20,9 km/h (4 Bft)
09.01.2012 14:21 5,2 C 75 % 0,0 l/m 12,4 km/h (3 Bft) NW 308 22,5 km/h (4 Bft)
09.01.2012 14:22 5,2 C 75 % 0,0 l/m 12,3 km/h (3 Bft) W-NW 289 19,3 km/h (3 Bft)
09.01.2012 14:23 5,2 C 75 % 0,0 l/m 15,4 km/h (3 Bft) W 273 24,1 km/h (4 Bft)
09.01.2012 14:24 5,2 C 76 % 0,0 l/m 12,5 km/h (3 Bft) W-NW 288 20,9 km/h (4 Bft)
09.01.2012 14:25 5,2 C 76 % 0,0 l/m 11,0 km/h (2 Bft) W-NW 286 19,3 km/h (3 Bft)
09.01.2012 14:26 5,2 C 76 % 0,0 l/m 7,2 km/h (2 Bft) W 276 11,3 km/h (2 Bft)
09.01.2012 14:27 5,2 C 76 % 0,0 l/m 16,7 km/h (3 Bft) W-NW 288 24,1 km/h (4 Bft)
09.01.2012 14:28 5,2 C 75 % 0,0 l/m 17,0 km/h (3 Bft) N-NW 333 25,7 km/h (4 Bft)
09.01.2012 14:29 5,2 C 75 % 0,0 l/m 18,3 km/h (3 Bft) W-NW 284 25,7 km/h (4 Bft)
09.01.2012 14:30 5,2 C 75 % 0,0 l/m 12,1 km/h (2 Bft) N 352 19,3 km/h (3 Bft)
09.01.2012 14:31 5,2 C 75 % 0,0 l/m 13,4 km/h (3 Bft) N-NW 329 25,7 km/h (4 Bft)
09.01.2012 14:32 5,2 C 76 % 0,0 l/m 13,6 km/h (3 Bft) NW 307 25,7 km/h (4 Bft)
09.01.2012 14:33 5,3 C 76 % 0,0 l/m 16,0 km/h (3 Bft) NO 44 22,5 km/h (4 Bft)
09.01.2012 14:34 5,3 C 75 % 0,0 l/m 16,6 km/h (3 Bft) NW 315 22,5 km/h (4 Bft)
09.01.2012 14:35 5,3 C 75 % 0,0 l/m 7,8 km/h (2 Bft) N 349 12,9 km/h (3 Bft)
09.01.2012 14:36 5,3 C 75 % 0,0 l/m 14,8 km/h (3 Bft) W-NW 285 20,9 km/h (4 Bft)
09.01.2012 14:37 5,3 C 75 % 0,0 l/m 10,1 km/h (2 Bft) S-SO 161 16,1 km/h (3 Bft)
09.01.2012 14:38 5,3 C 76 % 0,0 l/m 12,1 km/h (2 Bft) W-SW 249 17,7 km/h (3 Bft)
09.01.2012 14:39 5,3 C 75 % 0,0 l/m 16,0 km/h (3 Bft) NO 51 29,0 km/h (5 Bft)
09.01.2012 14:40 5,4 C 75 % 0,0 l/m 14,4 km/h (3 Bft) W-SW 238 17,7 km/h (3 Bft)
09.01.2012 14:41 5,4 C 75 % 0,0 l/m 11,7 km/h (2 Bft) NW 316 22,5 km/h (4 Bft)
09.01.2012 14:42 5,4 C 75 % 0,0 l/m 19,4 km/h (3 Bft) NW 306 24,1 km/h (4 Bft)
09.01.2012 14:43 5,5 C 75 % 0,0 l/m 12,3 km/h (3 Bft) W-NW 294 16,1 km/h (3 Bft)
09.01.2012 14:44 5,5 C 75 % 0,0 l/m 7,7 km/h (2 Bft) SW 228 14,5 km/h (3 Bft)
09.01.2012 14:45 5,6 C 75 % 0,0 l/m 9,1 km/h (2 Bft) W 262 16,1 km/h (3 Bft)
09.01.2012 14:46 5,6 C 75 % 0,0 l/m 10,9 km/h (2 Bft) W-NW 300 17,7 km/h (3 Bft)
09.01.2012 14:47 5,6 C 74 % 0,0 l/m 17,1 km/h (3 Bft) NW 309 24,1 km/h (4 Bft)
09.01.2012 14:48 5,6 C 74 % 0,0 l/m 15,2 km/h (3 Bft) W-NW 297 24,1 km/h (4 Bft)
09.01.2012 14:49 5,6 C 75 % 0,0 l/m 10,8 km/h (2 Bft) W-SW 241 19,3 km/h (3 Bft)
09.01.2012 14:50 5,6 C 75 % 0,0 l/m 7,2 km/h (2 Bft) W-NW 288 11,3 km/h (2 Bft)
09.01.2012 14:51 5,5 C 75 % 0,0 l/m 14,8 km/h (3 Bft) W 277 20,9 km/h (4 Bft)
09.01.2012 14:52 5,5 C 75 % 0,0 l/m 15,4 km/h (3 Bft) W-NW 293 27,4 km/h (4 Bft)
09.01.2012 14:53 5,5 C 74 % 0,0 l/m 20,0 km/h (4 Bft) W 263 32,2 km/h (5 Bft)
09.01.2012 14:54 5,5 C 73 % 0,0 l/m 18,8 km/h (3 Bft) N-NO 12 33,8 km/h (5 Bft)
09.01.2012 14:55 5,4 C 74 % 0,0 l/m 19,1 km/h (3 Bft) S 179 33,8 km/h (5 Bft)
09.01.2012 14:56 5,4 C 73 % 0,0 l/m 12,7 km/h (3 Bft) W 272 24,1 km/h (4 Bft)
09.01.2012 14:57 5,4 C 73 % 0,0 l/m 10,9 km/h (2 Bft) W 266 16,1 km/h (3 Bft)
09.01.2012 14:58 5,4 C 74 % 0,0 l/m 12,7 km/h (3 Bft) W-NW 295 24,1 km/h (4 Bft)
09.01.2012 14:59 5,4 C 73 % 0,0 l/m 20,5 km/h (4 Bft) W-NW 300 32,2 km/h (5 Bft)
09.01.2012 15:00 5,4 C 73 % 0,0 l/m 37,0 km/h (5 Bft) W-NW 297 46,7 km/h (6 Bft)
09.01.2012 15:01 5,3 C 73 % 0,0 l/m 16,8 km/h (3 Bft) S 190 24,1 km/h (4 Bft)
09.01.2012 15:02 5,3 C 73 % 0,0 l/m 15,3 km/h (3 Bft) NW 310 32,2 km/h (5 Bft)
09.01.2012 15:03 5,3 C 73 % 0,0 l/m 24,2 km/h (4 Bft) W-NW 300 37,0 km/h (5 Bft)
09.01.2012 15:04 5,3 C 73 % 0,0 l/m 18,4 km/h (3 Bft) W-NW 293 32,2 km/h (5 Bft)
09.01.2012 15:05 5,2 C 74 % 0,0 l/m 24,7 km/h (4 Bft) W-NW 298 32,2 km/h (5 Bft)
09.01.2012 15:06 5,2 C 74 % 0,0 l/m 18,6 km/h (3 Bft) W-SW 252 27,4 km/h (4 Bft)
09.01.2012 15:07 5,2 C 74 % 0,0 l/m 16,2 km/h (3 Bft) W 277 24,1 km/h (4 Bft)
09.01.2012 15:08 5,1 C 74 % 0,0 l/m 21,5 km/h (4 Bft) W 281 29,0 km/h (5 Bft)
09.01.2012 15:09 5,1 C 74 % 0,0 l/m 23,7 km/h (4 Bft) NW 317 33,8 km/h (5 Bft)
09.01.2012 15:10 5,1 C 74 % 0,0 l/m 16,6 km/h (3 Bft) W 280 25,7 km/h (4 Bft)
09.01.2012 15:11 5,1 C 75 % 0,0 l/m 17,1 km/h (3 Bft) NW 306 29,0 km/h (5 Bft)
09.01.2012 15:12 5,1 C 75 % 0,0 l/m 17,8 km/h (3 Bft) W 277 24,1 km/h (4 Bft)
09.01.2012 15:13 5,1 C 75 % 0,0 l/m 12,6 km/h (3 Bft) W-NW 302 22,5 km/h (4 Bft)
09.01.2012 15:14 5,1 C 75 % 0,0 l/m 12,8 km/h (3 Bft) N-NW 342 20,9 km/h (4 Bft)
09.01.2012 15:15 5,1 C 75 % 0,0 l/m 8,5 km/h (2 Bft) W-NW 301 24,1 km/h (4 Bft)
09.01.2012 15:16 5,0 C 75 % 0,0 l/m 11,1 km/h (2 Bft) W-NW 290 16,1 km/h (3 Bft)
09.01.2012 15:17 5,1 C 76 % 0,0 l/m 16,8 km/h (3 Bft) W-NW 284 24,1 km/h (4 Bft)
09.01.2012 15:18 5,1 C 76 % 0,0 l/m 16,1 km/h (3 Bft) NO 36 22,5 km/h (4 Bft)
09.01.2012 15:19 5,1 C 75 % 0,0 l/m 12,9 km/h (3 Bft) NW 316 20,9 km/h (4 Bft)
09.01.2012 15:20 5,0 C 75 % 0,0 l/m 13,8 km/h (3 Bft) NW 322 22,5 km/h (4 Bft)
09.01.2012 15:21 5,0 C 76 % 0,0 l/m 18,4 km/h (3 Bft) W-NW 294 24,1 km/h (4 Bft)
09.01.2012 15:22 5,0 C 76 % 0,0 l/m 19,1 km/h (3 Bft) W-NW 298 27,4 km/h (4 Bft)
09.01.2012 15:23 5,0 C 76 % 0,0 l/m 18,6 km/h (3 Bft) N-NO 33 25,7 km/h (4 Bft)
09.01.2012 15:24 5,0 C 75 % 0,0 l/m 17,2 km/h (3 Bft) W-NW 294 29,0 km/h (5 Bft)
09.01.2012 15:25 5,0 C 76 % 0,0 l/m 13,8 km/h (3 Bft) NW 311 24,1 km/h (4 Bft)
09.01.2012 15:26 4,9 C 75 % 0,0 l/m 15,7 km/h (3 Bft) S 177 22,5 km/h (4 Bft)
09.01.2012 15:27 4,9 C 76 % 0,0 l/m 9,9 km/h (2 Bft) W 280 16,1 km/h (3 Bft)
09.01.2012 15:29 4,9 C 76 % 0,0 l/m 16,8 km/h (3 Bft) W 269 27,4 km/h (4 Bft)
09.01.2012 15:30 4,9 C 75 % 0,0 l/m 17,4 km/h (3 Bft) N-NW 345 29,0 km/h (5 Bft)
09.01.2012 15:31 4,9 C 75 % 0,0 l/m 12,3 km/h (3 Bft) NW 307 19,3 km/h (3 Bft)
09.01.2012 15:32 4,9 C 76 % 0,0 l/m 8,7 km/h (2 Bft) SW 218 16,1 km/h (3 Bft)
09.01.2012 15:33 4,9 C 76 % 0,0 l/m 14,3 km/h (3 Bft) N-NO 17 20,9 km/h (4 Bft)
09.01.2012 15:34 4,9 C 76 % 0,0 l/m 13,2 km/h (3 Bft) W 276 17,7 km/h (3 Bft)
09.01.2012 15:35 4,9 C 76 % 0,0 l/m 14,3 km/h (3 Bft) W-NW 296 20,9 km/h (4 Bft)
09.01.2012 15:36 4,8 C 76 % 0,0 l/m 13,0 km/h (3 Bft) NW 304 17,7 km/h (3 Bft)
09.01.2012 15:37 4,8 C 76 % 0,0 l/m 12,1 km/h (2 Bft) NW 309 19,3 km/h (3 Bft)
09.01.2012 15:38 4,8 C 77 % 0,0 l/m 16,7 km/h (3 Bft) W-NW 295 22,5 km/h (4 Bft)
09.01.2012 15:39 4,8 C 77 % 0,0 l/m 19,0 km/h (3 Bft) W 273 25,7 km/h (4 Bft)
09.01.2012 15:40 4,8 C 77 % 0,0 l/m 21,2 km/h (4 Bft) W 267 29,0 km/h (5 Bft)
09.01.2012 15:41 4,8 C 76 % 0,0 l/m 17,5 km/h (3 Bft) W-NW 293 32,2 km/h (5 Bft)
09.01.2012 15:42 4,8 C 76 % 0,0 l/m 23,2 km/h (4 Bft) W-NW 293 33,8 km/h (5 Bft)
09.01.2012 15:43 4,8 C 76 % 0,0 l/m 21,1 km/h (4 Bft) W-NW 301 32,2 km/h (5 Bft)
09.01.2012 15:44 4,8 C 76 % 0,0 l/m 23,1 km/h (4 Bft) NW 305 37,0 km/h (5 Bft)
09.01.2012 15:45 4,9 C 76 % 0,0 l/m 19,4 km/h (3 Bft) N-NW 330 32,2 km/h (5 Bft)
09.01.2012 15:46 4,9 C 76 % 0,0 l/m 14,5 km/h (3 Bft) W 270 22,5 km/h (4 Bft)
09.01.2012 15:47 4,8 C 76 % 0,0 l/m 15,4 km/h (3 Bft) W-SW 250 22,5 km/h (4 Bft)
09.01.2012 15:48 4,8 C 76 % 0,0 l/m 19,2 km/h (3 Bft) SW 224 29,0 km/h (5 Bft)
09.01.2012 15:49 4,8 C 76 % 0,0 l/m 19,0 km/h (3 Bft) W 271 24,1 km/h (4 Bft)
09.01.2012 15:50 4,8 C 76 % 0,0 l/m 11,0 km/h (2 Bft) W 267 20,9 km/h (4 Bft)
09.01.2012 15:51 4,8 C 76 % 0,0 l/m 18,6 km/h (3 Bft) W-NW 293 25,7 km/h (4 Bft)
09.01.2012 15:52 4,8 C 76 % 0,0 l/m 16,3 km/h (3 Bft) W-NW 297 24,1 km/h (4 Bft)
09.01.2012 15:53 4,8 C 76 % 0,0 l/m 18,7 km/h (3 Bft) W 260 29,0 km/h (5 Bft)
09.01.2012 15:54 4,8 C 76 % 0,0 l/m 18,1 km/h (3 Bft) W-NW 297 25,7 km/h (4 Bft)
09.01.2012 15:55 4,8 C 76 % 0,0 l/m 16,6 km/h (3 Bft) W-NW 285 27,4 km/h (4 Bft)
09.01.2012 15:56 4,8 C 76 % 0,0 l/m 20,0 km/h (4 Bft) NW 326 27,4 km/h (4 Bft)
09.01.2012 15:57 4,8 C 76 % 0,0 l/m 14,9 km/h (3 Bft) W-NW 295 25,7 km/h (4 Bft)
09.01.2012 15:58 4,8 C 76 % 0,0 l/m 18,4 km/h (3 Bft) N-NW 331 30,6 km/h (5 Bft)
09.01.2012 15:59 4,8 C 76 % 0,0 l/m 14,4 km/h (3 Bft) N-NW 335 25,7 km/h (4 Bft)
09.01.2012 16:00 4,8 C 76 % 0,0 l/m 12,9 km/h (3 Bft) W-NW 297 25,7 km/h (4 Bft)
09.01.2012 16:01 4,7 C 76 % 0,0 l/m 19,5 km/h (3 Bft) W-NW 284 25,7 km/h (4 Bft)
09.01.2012 16:02 4,7 C 76 % 0,0 l/m 19,2 km/h (3 Bft) NW 307 30,6 km/h (5 Bft)
09.01.2012 16:03 4,7 C 76 % 0,0 l/m 18,4 km/h (3 Bft) W-NW 297 33,8 km/h (5 Bft)
09.01.2012 16:04 4,7 C 76 % 0,0 l/m 23,5 km/h (4 Bft) W-NW 290 35,4 km/h (5 Bft)
09.01.2012 16:05 4,8 C 76 % 0,0 l/m 23,9 km/h (4 Bft) NW 307 35,4 km/h (5 Bft)
09.01.2012 16:06 4,8 C 76 % 0,0 l/m 16,2 km/h (3 Bft) NW 307 30,6 km/h (5 Bft)
09.01.2012 16:07 4,7 C 76 % 0,0 l/m 13,0 km/h (3 Bft) W-NW 294 24,1 km/h (4 Bft)
09.01.2012 16:08 4,7 C 76 % 0,0 l/m 13,8 km/h (3 Bft) W-NW 301 22,5 km/h (4 Bft)
09.01.2012 16:09 4,7 C 76 % 0,0 l/m 16,0 km/h (3 Bft) W-NW 301 27,4 km/h (4 Bft)
09.01.2012 16:10 4,7 C 76 % 0,0 l/m 16,0 km/h (3 Bft) W-NW 288 22,5 km/h (4 Bft)
09.01.2012 16:11 4,7 C 76 % 0,0 l/m 14,4 km/h (3 Bft) W-NW 291 22,5 km/h (4 Bft)
09.01.2012 16:12 4,7 C 76 % 0,0 l/m 15,2 km/h (3 Bft) NW 312 20,9 km/h (4 Bft)
09.01.2012 16:13 4,7 C 76 % 0,0 l/m 15,3 km/h (3 Bft) NW 312 24,1 km/h (4 Bft)
09.01.2012 16:14 4,6 C 76 % 0,0 l/m 15,0 km/h (3 Bft) NW 314 22,5 km/h (4 Bft)
09.01.2012 16:15 4,6 C 76 % 0,0 l/m 14,3 km/h (3 Bft) W-NW 285 22,5 km/h (4 Bft)
09.01.2012 16:16 4,6 C 76 % 0,0 l/m 9,3 km/h (2 Bft) W-NW 291 14,5 km/h (3 Bft)
09.01.2012 16:17 4,6 C 76 % 0,0 l/m 12,1 km/h (2 Bft) W 267 17,7 km/h (3 Bft)
09.01.2012 16:18 4,6 C 76 % 0,0 l/m 14,0 km/h (3 Bft) W-NW 283 22,5 km/h (4 Bft)
09.01.2012 16:19 4,6 C 76 % 0,0 l/m 10,9 km/h (2 Bft) W-NW 284 22,5 km/h (4 Bft)
09.01.2012 16:20 4,6 C 76 % 0,0 l/m 14,3 km/h (3 Bft) W-NW 287 22,5 km/h (4 Bft)
09.01.2012 16:21 4,6 C 76 % 0,0 l/m 13,2 km/h (3 Bft) N-NW 333 19,3 km/h (3 Bft)
09.01.2012 16:22 4,6 C 76 % 0,0 l/m 11,5 km/h (2 Bft) W-NW 293 19,3 km/h (3 Bft)
09.01.2012 16:23 4,6 C 76 % 0,0 l/m 16,2 km/h (3 Bft) N-NO 21 24,1 km/h (4 Bft)
09.01.2012 16:24 4,5 C 76 % 0,0 l/m 10,6 km/h (2 Bft) W-NW 287 17,7 km/h (3 Bft)
09.01.2012 16:25 4,5 C 76 % 0,0 l/m 18,5 km/h (3 Bft) W-NW 297 25,7 km/h (4 Bft)
09.01.2012 16:26 4,5 C 76 % 0,0 l/m 16,1 km/h (3 Bft) W-NW 302 27,4 km/h (4 Bft)
09.01.2012 16:27 4,5 C 76 % 0,0 l/m 16,7 km/h (3 Bft) W-SW 256 24,1 km/h (4 Bft)
09.01.2012 16:28 4,5 C 76 % 0,0 l/m 17,7 km/h (3 Bft) W-NW 295 27,4 km/h (4 Bft)
09.01.2012 16:29 4,5 C 76 % 0,0 l/m 15,8 km/h (3 Bft) W-NW 291 24,1 km/h (4 Bft)
09.01.2012 16:30 4,5 C 76 % 0,0 l/m 13,3 km/h (3 Bft) W-NW 291 19,3 km/h (3 Bft)
09.01.2012 16:31 4,5 C 76 % 0,0 l/m 7,8 km/h (2 Bft) W-SW 248 14,5 km/h (3 Bft)
09.01.2012 16:32 4,5 C 76 % 0,0 l/m 13,4 km/h (3 Bft) N 11 19,3 km/h (3 Bft)
09.01.2012 16:33 4,5 C 76 % 0,0 l/m 12,6 km/h (3 Bft) W 276 20,9 km/h (4 Bft)
09.01.2012 16:34 4,4 C 76 % 0,0 l/m 9,8 km/h (2 Bft) NW 307 17,7 km/h (3 Bft)
09.01.2012 16:35 4,4 C 76 % 0,0 l/m 16,8 km/h (3 Bft) W-NW 284 24,1 km/h (4 Bft)
09.01.2012 16:36 4,4 C 76 % 0,0 l/m 12,8 km/h (3 Bft) W-NW 298 19,3 km/h (3 Bft)
09.01.2012 16:37 4,4 C 76 % 0,0 l/m 7,0 km/h (2 Bft) NW 306 12,9 km/h (3 Bft)
09.01.2012 16:38 4,4 C 76 % 0,0 l/m 13,6 km/h (3 Bft) NW 322 17,7 km/h (3 Bft)
09.01.2012 16:39 4,4 C 76 % 0,0 l/m 11,8 km/h (2 Bft) N-NW 339 17,7 km/h (3 Bft)
09.01.2012 16:40 4,4 C 76 % 0,0 l/m 10,5 km/h (2 Bft) W 276 14,5 km/h (3 Bft)
09.01.2012 16:41 4,4 C 76 % 0,0 l/m 9,9 km/h (2 Bft) W-NW 294 16,1 km/h (3 Bft)
09.01.2012 16:42 4,4 C 76 % 0,0 l/m 15,5 km/h (3 Bft) NW 305 22,5 km/h (4 Bft)
09.01.2012 16:43 4,4 C 76 % 0,0 l/m 10,5 km/h (2 Bft) NW 309 17,7 km/h (3 Bft)
09.01.2012 16:44 4,4 C 76 % 0,0 l/m 12,8 km/h (3 Bft) W 273 16,1 km/h (3 Bft)
09.01.2012 16:45 4,4 C 76 % 0,0 l/m 10,0 km/h (2 Bft) W-NW 294 12,9 km/h (3 Bft)
09.01.2012 16:46 4,3 C 76 % 0,0 l/m 7,7 km/h (2 Bft) W-NW 295 12,9 km/h (3 Bft)
09.01.2012 16:47 4,3 C 77 % 0,0 l/m 14,2 km/h (3 Bft) W-NW 300 16,1 km/h (3 Bft)
09.01.2012 16:48 4,3 C 76 % 0,0 l/m 12,1 km/h (2 Bft) W-NW 293 17,7 km/h (3 Bft)
09.01.2012 16:49 4,3 C 76 % 0,0 l/m 13,4 km/h (3 Bft) W-NW 284 19,3 km/h (3 Bft)
09.01.2012 16:50 4,3 C 77 % 0,0 l/m 8,3 km/h (2 Bft) W-NW 301 14,5 km/h (3 Bft)
09.01.2012 16:51 4,3 C 77 % 0,0 l/m 7,0 km/h (2 Bft) W-NW 285 12,9 km/h (3 Bft)
09.01.2012 16:52 4,3 C 77 % 0,0 l/m 12,5 km/h (3 Bft) W-NW 298 17,7 km/h (3 Bft)
09.01.2012 16:53 4,2 C 77 % 0,0 l/m 5,8 km/h (2 Bft) N 6 11,3 km/h (2 Bft)
09.01.2012 16:54 4,2 C 77 % 0,0 l/m 5,6 km/h (1 Bft) W-NW 293 9,7 km/h (2 Bft)
09.01.2012 16:55 4,2 C 77 % 0,0 l/m 12,6 km/h (3 Bft) NW 312 17,7 km/h (3 Bft)
09.01.2012 16:56 4,2 C 77 % 0,0 l/m 11,7 km/h (2 Bft) W-NW 285 17,7 km/h (3 Bft)
09.01.2012 16:57 4,2 C 77 % 0,0 l/m 8,8 km/h (2 Bft) NW 308 12,9 km/h (3 Bft)
09.01.2012 16:58 4,2 C 77 % 0,0 l/m 8,1 km/h (2 Bft) W-NW 300 11,3 km/h (2 Bft)
09.01.2012 16:59 4,2 C 77 % 0,0 l/m 5,0 km/h (1 Bft) NW 326 8,0 km/h (2 Bft)
09.01.2012 17:00 4,2 C 77 % 0,0 l/m 5,9 km/h (2 Bft) W-NW 301 9,7 km/h (2 Bft)
09.01.2012 17:01 4,2 C 77 % 0,0 l/m 9,3 km/h (2 Bft) N 349 14,5 km/h (3 Bft)
09.01.2012 17:02 4,2 C 76 % 0,0 l/m 12,2 km/h (2 Bft) N 4 19,3 km/h (3 Bft)
09.01.2012 17:03 4,2 C 76 % 0,0 l/m 8,1 km/h (2 Bft) W 263 11,3 km/h (2 Bft)
09.01.2012 17:04 4,2 C 77 % 0,0 l/m 6,0 km/h (2 Bft) NW 311 8,0 km/h (2 Bft)
09.01.2012 17:05 4,2 C 77 % 0,0 l/m 8,3 km/h (2 Bft) SW 217 11,3 km/h (2 Bft)
09.01.2012 17:06 4,2 C 77 % 0,0 l/m 4,8 km/h (1 Bft) W 271 6,4 km/h (2 Bft)
09.01.2012 17:07 4,1 C 77 % 0,0 l/m 5,9 km/h (2 Bft) W 274 11,3 km/h (2 Bft)
09.01.2012 17:08 4,1 C 77 % 0,0 l/m 5,5 km/h (1 Bft) W-NW 300 9,7 km/h (2 Bft)
09.01.2012 17:09 4,1 C 77 % 0,0 l/m 7,5 km/h (2 Bft) N-NW 336 9,7 km/h (2 Bft)
09.01.2012 17:10 4,1 C 77 % 0,0 l/m 5,0 km/h (1 Bft) W 273 11,3 km/h (2 Bft)
09.01.2012 17:11 4,1 C 77 % 0,0 l/m 7,5 km/h (2 Bft) W-NW 303 14,5 km/h (3 Bft)
09.01.2012 17:12 4,1 C 77 % 0,0 l/m 8,0 km/h (2 Bft) W 264 12,9 km/h (3 Bft)
09.01.2012 17:13 4,1 C 76 % 0,0 l/m 4,2 km/h (1 Bft) NW 321 6,4 km/h (2 Bft)
09.01.2012 17:14 4,1 C 76 % 0,0 l/m 6,7 km/h (2 Bft) W-NW 301 19,3 km/h (3 Bft)
09.01.2012 17:15 4,1 C 76 % 0,0 l/m 11,2 km/h (2 Bft) N-NO 27 17,7 km/h (3 Bft)
09.01.2012 17:16 4,1 C 76 % 0,0 l/m 6,2 km/h (2 Bft) SW 228 9,7 km/h (2 Bft)
09.01.2012 17:17 4,1 C 76 % 0,0 l/m 9,3 km/h (2 Bft) W-NW 288 12,9 km/h (3 Bft)
09.01.2012 17:18 4,2 C 76 % 0,0 l/m 11,1 km/h (2 Bft) NW 312 17,7 km/h (3 Bft)
09.01.2012 17:19 4,2 C 76 % 0,0 l/m 8,0 km/h (2 Bft) W 267 12,9 km/h (3 Bft)
09.01.2012 17:20 4,2 C 76 % 0,0 l/m 7,8 km/h (2 Bft) W-NW 297 19,3 km/h (3 Bft)
09.01.2012 17:21 4,2 C 76 % 0,0 l/m 11,6 km/h (2 Bft) W-NW 300 17,7 km/h (3 Bft)
09.01.2012 17:22 4,2 C 76 % 0,0 l/m 11,1 km/h (2 Bft) W-SW 253 19,3 km/h (3 Bft)
09.01.2012 17:23 4,2 C 76 % 0,0 l/m 14,4 km/h (3 Bft) W-NW 302 20,9 km/h (4 Bft)
09.01.2012 17:24 4,2 C 75 % 0,0 l/m 15,0 km/h (3 Bft) W 273 20,9 km/h (4 Bft)
09.01.2012 17:25 4,3 C 75 % 0,0 l/m 13,9 km/h (3 Bft) W-NW 302 19,3 km/h (3 Bft)
09.01.2012 17:26 4,3 C 75 % 0,0 l/m 7,0 km/h (2 Bft) W-NW 288 14,5 km/h (3 Bft)
09.01.2012 17:27 4,3 C 75 % 0,0 l/m 10,6 km/h (2 Bft) NW 309 17,7 km/h (3 Bft)
09.01.2012 17:28 4,3 C 75 % 0,0 l/m 12,4 km/h (3 Bft) NW 307 24,1 km/h (4 Bft)
09.01.2012 17:29 4,3 C 75 % 0,0 l/m 11,3 km/h (2 Bft) W-NW 300 19,3 km/h (3 Bft)
09.01.2012 17:30 4,3 C 75 % 0,0 l/m 16,2 km/h (3 Bft) W-NW 302 27,4 km/h (4 Bft)
09.01.2012 17:31 4,3 C 74 % 0,0 l/m 15,1 km/h (3 Bft) W-NW 293 25,7 km/h (4 Bft)
09.01.2012 17:32 4,3 C 74 % 0,0 l/m 7,4 km/h (2 Bft) W-NW 298 12,9 km/h (3 Bft)
09.01.2012 17:33 4,3 C 74 % 0,0 l/m 14,9 km/h (3 Bft) N-NW 332 22,5 km/h (4 Bft)
09.01.2012 17:34 4,3 C 74 % 0,0 l/m 10,7 km/h (2 Bft) N 11 16,1 km/h (3 Bft)
09.01.2012 17:35 4,3 C 74 % 0,0 l/m 11,5 km/h (2 Bft) N-NW 329 16,1 km/h (3 Bft)
09.01.2012 17:36 4,4 C 74 % 0,0 l/m 10,9 km/h (2 Bft) N-NW 341 20,9 km/h (4 Bft)
09.01.2012 17:37 4,4 C 74 % 0,0 l/m 2,5 km/h (1 Bft) W 273 6,4 km/h (2 Bft)
09.01.2012 17:38 4,4 C 74 % 0,0 l/m 15,3 km/h (3 Bft) W-SW 248 24,1 km/h (4 Bft)
09.01.2012 17:39 4,4 C 74 % 0,0 l/m 15,2 km/h (3 Bft) W 274 24,1 km/h (4 Bft)
09.01.2012 17:40 4,4 C 74 % 0,0 l/m 16,5 km/h (3 Bft) W 277 22,5 km/h (4 Bft)
09.01.2012 17:41 4,4 C 73 % 0,0 l/m 13,4 km/h (3 Bft) NW 308 19,3 km/h (3 Bft)
09.01.2012 17:42 4,4 C 73 % 0,0 l/m 9,2 km/h (2 Bft) NW 308 14,5 km/h (3 Bft)
09.01.2012 17:43 4,4 C 73 % 0,0 l/m 15,6 km/h (3 Bft) W-SW 252 24,1 km/h (4 Bft)
09.01.2012 17:44 4,5 C 73 % 0,0 l/m 14,3 km/h (3 Bft) W-NW 288 20,9 km/h (4 Bft)
09.01.2012 17:45 4,5 C 73 % 0,0 l/m 9,3 km/h (2 Bft) W-NW 285 14,5 km/h (3 Bft)
09.01.2012 17:46 4,4 C 73 % 0,0 l/m 12,2 km/h (2 Bft) W-NW 293 17,7 km/h (3 Bft)
09.01.2012 17:47 4,5 C 73 % 0,0 l/m 11,0 km/h (2 Bft) W-NW 293 19,3 km/h (3 Bft)
09.01.2012 17:48 4,4 C 73 % 0,0 l/m 11,1 km/h (2 Bft) W-NW 295 19,3 km/h (3 Bft)
09.01.2012 17:49 4,4 C 73 % 0,0 l/m 13,4 km/h (3 Bft) W-NW 290 19,3 km/h (3 Bft)
09.01.2012 17:50 4,4 C 73 % 0,0 l/m 12,7 km/h (3 Bft) W 274 19,3 km/h (3 Bft)
09.01.2012 17:51 4,4 C 73 % 0,0 l/m 10,5 km/h (2 Bft) W-NW 293 17,7 km/h (3 Bft)
09.01.2012 17:52 4,4 C 73 % 0,0 l/m 13,3 km/h (3 Bft) NW 309 17,7 km/h (3 Bft)
09.01.2012 17:53 4,5 C 72 % 0,0 l/m 20,3 km/h (4 Bft) W 278 25,7 km/h (4 Bft)
09.01.2012 17:54 4,5 C 72 % 0,0 l/m 15,4 km/h (3 Bft) W-NW 298 20,9 km/h (4 Bft)
09.01.2012 17:55 4,5 C 72 % 0,0 l/m 14,8 km/h (3 Bft) W-NW 297 20,9 km/h (4 Bft)
09.01.2012 17:56 4,5 C 72 % 0,0 l/m 15,5 km/h (3 Bft) W-NW 288 20,9 km/h (4 Bft)
09.01.2012 17:57 4,5 C 72 % 0,0 l/m 14,1 km/h (3 Bft) NO 42 17,7 km/h (3 Bft)
09.01.2012 17:58 4,5 C 72 % 0,0 l/m 14,0 km/h (3 Bft) S 190 25,7 km/h (4 Bft)
09.01.2012 17:59 4,5 C 72 % 0,0 l/m 18,7 km/h (3 Bft) W-NW 285 25,7 km/h (4 Bft)
09.01.2012 18:00 4,6 C 72 % 0,0 l/m 13,9 km/h (3 Bft) W-NW 300 20,9 km/h (4 Bft)
09.01.2012 18:01 4,6 C 72 % 0,0 l/m 9,1 km/h (2 Bft) NW 308 17,7 km/h (3 Bft)
09.01.2012 18:02 4,6 C 72 % 0,0 l/m 12,2 km/h (2 Bft) W-NW 300 17,7 km/h (3 Bft)
09.01.2012 18:03 4,6 C 72 % 0,0 l/m 9,0 km/h (2 Bft) W-NW 297 17,7 km/h (3 Bft)
09.01.2012 18:04 4,6 C 72 % 0,0 l/m 12,8 km/h (3 Bft) W-NW 293 17,7 km/h (3 Bft)
09.01.2012 18:05 4,5 C 72 % 0,0 l/m 11,4 km/h (2 Bft) W-NW 299 17,7 km/h (3 Bft)
09.01.2012 18:06 4,5 C 72 % 0,0 l/m 11,2 km/h (2 Bft) W-NW 300 16,1 km/h (3 Bft)
09.01.2012 18:07 4,5 C 72 % 0,0 l/m 9,8 km/h (2 Bft) N-NW 334 14,5 km/h (3 Bft)
09.01.2012 18:08 4,5 C 72 % 0,0 l/m 9,2 km/h (2 Bft) W 281 14,5 km/h (3 Bft)
09.01.2012 18:09 4,5 C 73 % 0,0 l/m 11,2 km/h (2 Bft) W-NW 283 16,1 km/h (3 Bft)
09.01.2012 18:10 4,5 C 73 % 0,0 l/m 7,1 km/h (2 Bft) NW 312 12,9 km/h (3 Bft)
09.01.2012 18:11 4,4 C 73 % 0,0 l/m 8,2 km/h (2 Bft) NW 308 16,1 km/h (3 Bft)
09.01.2012 18:12 4,4 C 73 % 0,0 l/m 7,0 km/h (2 Bft) W-NW 290 14,5 km/h (3 Bft)
09.01.2012 18:13 4,4 C 73 % 0,0 l/m 6,9 km/h (2 Bft) N-NO 21 12,9 km/h (3 Bft)
09.01.2012 18:14 4,4 C 73 % 0,0 l/m 8,1 km/h (2 Bft) N 356 17,7 km/h (3 Bft)
09.01.2012 18:15 4,4 C 73 % 0,0 l/m 8,5 km/h (2 Bft) W-NW 298 12,9 km/h (3 Bft)
09.01.2012 18:16 4,4 C 73 % 0,0 l/m 6,4 km/h (2 Bft) NW 317 9,7 km/h (2 Bft)
09.01.2012 18:17 4,4 C 73 % 0,0 l/m 8,9 km/h (2 Bft) NW 307 14,5 km/h (3 Bft)
09.01.2012 18:18 4,4 C 73 % 0,0 l/m 6,3 km/h (2 Bft) W-NW 291 9,7 km/h (2 Bft)
09.01.2012 18:19 4,4 C 72 % 0,0 l/m 6,7 km/h (2 Bft) N 355 9,7 km/h (2 Bft)
09.01.2012 18:20 4,4 C 73 % 0,0 l/m 5,1 km/h (1 Bft) NW 316 9,7 km/h (2 Bft)
09.01.2012 18:21 4,4 C 72 % 0,0 l/m 4,3 km/h (1 Bft) W-SW 256 6,4 km/h (2 Bft)
09.01.2012 18:22 4,4 C 73 % 0,0 l/m 12,5 km/h (3 Bft) NW 307 22,5 km/h (4 Bft)
09.01.2012 18:23 4,4 C 72 % 0,0 l/m 9,7 km/h (2 Bft) NW 316 16,1 km/h (3 Bft)
09.01.2012 18:24 4,4 C 72 % 0,0 l/m 17,1 km/h (3 Bft) W-NW 285 22,5 km/h (4 Bft)
09.01.2012 18:25 4,4 C 72 % 0,0 l/m 10,2 km/h (2 Bft) N-NW 337 17,7 km/h (3 Bft)
09.01.2012 18:26 4,4 C 72 % 0,0 l/m 10,0 km/h (2 Bft) W-NW 298 17,7 km/h (3 Bft)
09.01.2012 18:27 4,4 C 72 % 0,0 l/m 12,1 km/h (2 Bft) N-NW 329 16,1 km/h (3 Bft)
09.01.2012 18:28 4,5 C 72 % 0,0 l/m 8,5 km/h (2 Bft) W-NW 302 12,9 km/h (3 Bft)
09.01.2012 18:29 4,4 C 72 % 0,0 l/m 7,2 km/h (2 Bft) W-NW 300 9,7 km/h (2 Bft)
09.01.2012 18:30 4,4 C 72 % 0,0 l/m 9,8 km/h (2 Bft) W 272 16,1 km/h (3 Bft)
09.01.2012 18:31 4,5 C 71 % 0,0 l/m 10,2 km/h (2 Bft) NW 309 19,3 km/h (3 Bft)
09.01.2012 18:32 4,5 C 72 % 0,0 l/m 6,9 km/h (2 Bft) W-NW 290 8,0 km/h (2 Bft)
09.01.2012 18:33 4,5 C 71 % 0,0 l/m 6,5 km/h (2 Bft) NW 323 12,9 km/h (3 Bft)
09.01.2012 18:34 4,5 C 71 % 0,0 l/m 7,8 km/h (2 Bft) NW 318 11,3 km/h (2 Bft)
09.01.2012 18:35 4,5 C 71 % 0,0 l/m 10,5 km/h (2 Bft) NW 319 14,5 km/h (3 Bft)
09.01.2012 18:36 4,5 C 71 % 0,0 l/m 7,1 km/h (2 Bft) N-NW 331 9,7 km/h (2 Bft)
09.01.2012 18:37 4,5 C 71 % 0,0 l/m 12,6 km/h (3 Bft) NW 308 19,3 km/h (3 Bft)
09.01.2012 18:38 4,5 C 71 % 0,0 l/m 13,7 km/h (3 Bft) N 349 17,7 km/h (3 Bft)
09.01.2012 18:39 4,6 C 71 % 0,0 l/m 9,7 km/h (2 Bft) N 6 17,7 km/h (3 Bft)
09.01.2012 18:40 4,6 C 71 % 0,0 l/m 6,9 km/h (2 Bft) NW 308 9,7 km/h (2 Bft)
09.01.2012 18:41 4,6 C 71 % 0,0 l/m 6,9 km/h (2 Bft) N-NW 327 11,3 km/h (2 Bft)
09.01.2012 18:42 4,6 C 71 % 0,0 l/m 9,1 km/h (2 Bft) N-NW 332 16,1 km/h (3 Bft)
09.01.2012 18:43 4,6 C 70 % 0,0 l/m 11,8 km/h (2 Bft) NW 316 17,7 km/h (3 Bft)
09.01.2012 18:44 4,6 C 71 % 0,0 l/m 4,8 km/h (1 Bft) N-NW 334 11,3 km/h (2 Bft)
09.01.2012 18:45 4,6 C 71 % 0,0 l/m 2,5 km/h (1 Bft) W-NW 300 3,2 km/h (1 Bft)
09.01.2012 18:46 4,5 C 71 % 0,0 l/m 5,5 km/h (1 Bft) NW 314 9,7 km/h (2 Bft)
09.01.2012 18:47 4,5 C 71 % 0,0 l/m 5,6 km/h (1 Bft) NW 305 8,0 km/h (2 Bft)
09.01.2012 18:48 4,5 C 72 % 0,0 l/m 5,3 km/h (1 Bft) W-NW 300 8,0 km/h (2 Bft)
09.01.2012 18:49 4,4 C 72 % 0,0 l/m 8,1 km/h (2 Bft) W 274 11,3 km/h (2 Bft)
09.01.2012 18:50 4,4 C 72 % 0,0 l/m 6,1 km/h (2 Bft) NW 321 9,7 km/h (2 Bft)
09.01.2012 18:51 4,4 C 72 % 0,0 l/m 5,7 km/h (1 Bft) W-NW 298 9,7 km/h (2 Bft)
09.01.2012 18:52 4,4 C 72 % 0,0 l/m 5,2 km/h (1 Bft) NW 319 8,0 km/h (2 Bft)
09.01.2012 18:53 4,4 C 72 % 0,0 l/m 9,9 km/h (2 Bft) W-NW 302 11,3 km/h (2 Bft)
09.01.2012 18:54 4,3 C 72 % 0,0 l/m 6,6 km/h (2 Bft) W-SW 239 11,3 km/h (2 Bft)
09.01.2012 18:55 4,3 C 72 % 0,0 l/m 6,5 km/h (2 Bft) W-NW 283 11,3 km/h (2 Bft)
09.01.2012 18:56 4,3 C 72 % 0,0 l/m 7,2 km/h (2 Bft) W-NW 297 14,5 km/h (3 Bft)
09.01.2012 18:57 4,3 C 72 % 0,0 l/m 7,9 km/h (2 Bft) S-SW 200 14,5 km/h (3 Bft)
09.01.2012 18:58 4,3 C 72 % 0,0 l/m 11,2 km/h (2 Bft) W-NW 300 17,7 km/h (3 Bft)
09.01.2012 18:59 4,3 C 72 % 0,0 l/m 6,1 km/h (2 Bft) W-NW 300 12,9 km/h (3 Bft)
09.01.2012 19:00 4,3 C 72 % 0,0 l/m 6,0 km/h (2 Bft) W 259 11,3 km/h (2 Bft)
09.01.2012 19:01 4,3 C 72 % 0,0 l/m 6,0 km/h (2 Bft) W-SW 249 12,9 km/h (3 Bft)
09.01.2012 19:02 4,3 C 72 % 0,0 l/m 12,6 km/h (3 Bft) W-NW 287 25,7 km/h (4 Bft)
09.01.2012 19:03 4,3 C 72 % 0,0 l/m 17,4 km/h (3 Bft) W-SW 245 25,7 km/h (4 Bft)
09.01.2012 19:04 4,3 C 72 % 0,0 l/m 16,5 km/h (3 Bft) W-SW 249 20,9 km/h (4 Bft)
09.01.2012 19:05 4,3 C 72 % 0,0 l/m 11,6 km/h (2 Bft) W 277 17,7 km/h (3 Bft)
09.01.2012 19:06 4,3 C 72 % 0,0 l/m 11,3 km/h (2 Bft) W-NW 286 20,9 km/h (4 Bft)
09.01.2012 19:07 4,4 C 72 % 0,0 l/m 18,4 km/h (3 Bft) W-NW 287 24,1 km/h (4 Bft)
09.01.2012 19:08 4,4 C 72 % 0,0 l/m 10,7 km/h (2 Bft) W-NW 282 20,9 km/h (4 Bft)
09.01.2012 19:09 4,4 C 72 % 0,0 l/m 8,9 km/h (2 Bft) W-NW 293 14,5 km/h (3 Bft)
09.01.2012 19:10 4,4 C 72 % 0,0 l/m 8,4 km/h (2 Bft) NW 312 12,9 km/h (3 Bft)
09.01.2012 19:11 4,4 C 72 % 0,0 l/m 11,2 km/h (2 Bft) W-SW 242 19,3 km/h (3 Bft)
09.01.2012 19:12 4,4 C 72 % 0,0 l/m 10,1 km/h (2 Bft) NW 308 19,3 km/h (3 Bft)
09.01.2012 19:13 4,3 C 72 % 0,0 l/m 10,4 km/h (2 Bft) W-SW 255 16,1 km/h (3 Bft)
09.01.2012 19:14 4,3 C 73 % 0,0 l/m 10,3 km/h (2 Bft) W-NW 301 17,7 km/h (3 Bft)
09.01.2012 19:15 4,3 C 73 % 0,0 l/m 11,6 km/h (2 Bft) W-NW 297 16,1 km/h (3 Bft)
09.01.2012 19:16 4,3 C 73 % 0,0 l/m 7,0 km/h (2 Bft) N-NW 340 16,1 km/h (3 Bft)
09.01.2012 19:17 4,3 C 73 % 0,0 l/m 5,4 km/h (1 Bft) W 278 11,3 km/h (2 Bft)
09.01.2012 19:18 4,3 C 73 % 0,0 l/m 9,8 km/h (2 Bft) W 274 14,5 km/h (3 Bft)
09.01.2012 19:19 4,3 C 73 % 0,0 l/m 6,0 km/h (2 Bft) W 274 12,9 km/h (3 Bft)
09.01.2012 19:20 4,3 C 73 % 0,0 l/m 8,2 km/h (2 Bft) W-NW 294 16,1 km/h (3 Bft)
09.01.2012 19:21 4,3 C 74 % 0,0 l/m 5,9 km/h (2 Bft) W-NW 293 11,3 km/h (2 Bft)
09.01.2012 19:22 4,3 C 74 % 0,0 l/m 3,5 km/h (1 Bft) W 276 8,0 km/h (2 Bft)
09.01.2012 19:23 4,2 C 74 % 0,0 l/m 4,7 km/h (1 Bft) W-NW 302 6,4 km/h (2 Bft)
09.01.2012 19:24 4,2 C 74 % 0,0 l/m 8,1 km/h (2 Bft) NW 322 11,3 km/h (2 Bft)
09.01.2012 19:25 4,2 C 74 % 0,0 l/m 9,3 km/h (2 Bft) NW 308 16,1 km/h (3 Bft)
09.01.2012 19:26 4,2 C 74 % 0,0 l/m 9,1 km/h (2 Bft) NW 305 11,3 km/h (2 Bft)
09.01.2012 19:27 4,2 C 74 % 0,0 l/m 4,0 km/h (1 Bft) N-NW 337 6,4 km/h (2 Bft)
09.01.2012 19:28 4,2 C 74 % 0,0 l/m 6,3 km/h (2 Bft) W 276 9,7 km/h (2 Bft)
09.01.2012 19:29 4,2 C 74 % 0,0 l/m 6,4 km/h (2 Bft) NW 313 11,3 km/h (2 Bft)
09.01.2012 19:30 4,2 C 74 % 0,0 l/m 11,8 km/h (2 Bft) W-NW 295 16,1 km/h (3 Bft)
09.01.2012 19:31 4,2 C 74 % 0,0 l/m 7,3 km/h (2 Bft) N-NW 330 11,3 km/h (2 Bft)
09.01.2012 19:32 4,2 C 74 % 0,0 l/m 9,2 km/h (2 Bft) W 262 17,7 km/h (3 Bft)
09.01.2012 19:33 4,2 C 74 % 0,0 l/m 7,1 km/h (2 Bft) N-NW 331 11,3 km/h (2 Bft)
09.01.2012 19:34 4,2 C 74 % 0,0 l/m 7,2 km/h (2 Bft) W-NW 295 14,5 km/h (3 Bft)
09.01.2012 19:35 4,2 C 75 % 0,0 l/m 6,4 km/h (2 Bft) N 349 16,1 km/h (3 Bft)
09.01.2012 19:36 4,2 C 75 % 0,0 l/m 5,8 km/h (2 Bft) W-NW 302 11,3 km/h (2 Bft)
09.01.2012 19:37 4,2 C 75 % 0,0 l/m 8,4 km/h (2 Bft) W-NW 285 14,5 km/h (3 Bft)
09.01.2012 19:38 4,2 C 75 % 0,0 l/m 6,8 km/h (2 Bft) W-NW 293 12,9 km/h (3 Bft)
09.01.2012 19:39 4,2 C 75 % 0,0 l/m 8,5 km/h (2 Bft) W-NW 283 14,5 km/h (3 Bft)
09.01.2012 19:40 4,2 C 75 % 0,0 l/m 11,4 km/h (2 Bft) NW 307 17,7 km/h (3 Bft)
09.01.2012 19:41 4,2 C 75 % 0,0 l/m 11,6 km/h (2 Bft) W-NW 302 20,9 km/h (4 Bft)
09.01.2012 19:42 4,2 C 75 % 0,0 l/m 10,2 km/h (2 Bft) NW 314 16,1 km/h (3 Bft)
09.01.2012 19:43 4,2 C 75 % 0,0 l/m 11,5 km/h (2 Bft) W-NW 290 17,7 km/h (3 Bft)
09.01.2012 19:44 4,2 C 75 % 0,0 l/m 7,8 km/h (2 Bft) W-NW 297 11,3 km/h (2 Bft)
09.01.2012 19:45 4,2 C 75 % 0,0 l/m 8,0 km/h (2 Bft) NW 321 12,9 km/h (3 Bft)
09.01.2012 19:46 4,2 C 75 % 0,0 l/m 9,5 km/h (2 Bft) W-NW 297 17,7 km/h (3 Bft)
09.01.2012 19:47 4,2 C 75 % 0,0 l/m 10,6 km/h (2 Bft) W-NW 287 17,7 km/h (3 Bft)
09.01.2012 19:48 4,2 C 75 % 0,0 l/m 10,6 km/h (2 Bft) W-NW 300 17,7 km/h (3 Bft)
09.01.2012 19:49 4,1 C 75 % 0,0 l/m 14,4 km/h (3 Bft) NW 323 20,9 km/h (4 Bft)
09.01.2012 19:50 4,1 C 76 % 0,0 l/m 11,2 km/h (2 Bft) W-NW 297 25,7 km/h (4 Bft)
09.01.2012 19:51 4,2 C 76 % 0,0 l/m 17,5 km/h (3 Bft) W-SW 245 22,5 km/h (4 Bft)
09.01.2012 19:52 4,2 C 76 % 0,0 l/m 13,2 km/h (3 Bft) W 274 17,7 km/h (3 Bft)
09.01.2012 19:53 4,2 C 76 % 0,0 l/m 14,7 km/h (3 Bft) W 267 22,5 km/h (4 Bft)
09.01.2012 19:54 4,2 C 76 % 0,0 l/m 15,6 km/h (3 Bft) W-NW 283 20,9 km/h (4 Bft)
09.01.2012 19:55 4,2 C 76 % 0,0 l/m 14,1 km/h (3 Bft) NW 313 19,3 km/h (3 Bft)
09.01.2012 19:56 4,2 C 76 % 0,0 l/m 11,1 km/h (2 Bft) W-NW 297 17,7 km/h (3 Bft)
09.01.2012 19:57 4,2 C 76 % 0,0 l/m 11,0 km/h (2 Bft) NW 321 16,1 km/h (3 Bft)
09.01.2012 19:58 4,2 C 76 % 0,0 l/m 9,7 km/h (2 Bft) N-NW 347 19,3 km/h (3 Bft)
09.01.2012 19:59 4,2 C 76 % 0,0 l/m 10,8 km/h (2 Bft) N-NW 347 16,1 km/h (3 Bft)
09.01.2012 20:00 4,2 C 76 % 0,0 l/m 11,5 km/h (2 Bft) W-NW 285 19,3 km/h (3 Bft)
09.01.2012 20:01 4,2 C 76 % 0,0 l/m 14,7 km/h (3 Bft) W-NW 284 20,9 km/h (4 Bft)
09.01.2012 20:02 4,3 C 77 % 0,0 l/m 21,5 km/h (4 Bft) NW 312 29,0 km/h (5 Bft)
09.01.2012 20:03 4,3 C 77 % 0,0 l/m 13,3 km/h (3 Bft) NW 309 22,5 km/h (4 Bft)
09.01.2012 20:04 4,3 C 77 % 0,0 l/m 10,0 km/h (2 Bft) W-NW 291 16,1 km/h (3 Bft)
09.01.2012 20:05 4,2 C 77 % 0,0 l/m 8,4 km/h (2 Bft) W-NW 298 16,1 km/h (3 Bft)
09.01.2012 20:06 4,2 C 77 % 0,0 l/m 15,0 km/h (3 Bft) W-SW 242 27,4 km/h (4 Bft)
09.01.2012 20:07 4,2 C 76 % 0,0 l/m 5,0 km/h (1 Bft) N-NW 329 9,7 km/h (2 Bft)
09.01.2012 20:08 4,2 C 76 % 0,0 l/m 10,4 km/h (2 Bft) NW 304 16,1 km/h (3 Bft)
09.01.2012 20:09 4,3 C 76 % 0,0 l/m 11,7 km/h (2 Bft) N-NW 327 17,7 km/h (3 Bft)
09.01.2012 20:10 4,3 C 76 % 0,0 l/m 9,8 km/h (2 Bft) NW 321 16,1 km/h (3 Bft)
09.01.2012 20:11 4,3 C 76 % 0,0 l/m 11,0 km/h (2 Bft) W-NW 298 12,9 km/h (3 Bft)
09.01.2012 20:12 4,3 C 76 % 0,0 l/m 8,2 km/h (2 Bft) N 360 11,3 km/h (2 Bft)
09.01.2012 20:13 4,3 C 76 % 0,0 l/m 11,1 km/h (2 Bft) W-NW 302 16,1 km/h (3 Bft)
09.01.2012 20:14 4,3 C 76 % 0,0 l/m 10,7 km/h (2 Bft) W-NW 291 19,3 km/h (3 Bft)
09.01.2012 20:15 4,3 C 76 % 0,0 l/m 9,8 km/h (2 Bft) N-NW 346 16,1 km/h (3 Bft)
09.01.2012 20:16 4,3 C 76 % 0,0 l/m 5,8 km/h (2 Bft) N-NO 19 8,0 km/h (2 Bft)
09.01.2012 20:17 4,3 C 76 % 0,0 l/m 10,1 km/h (2 Bft) NW 319 16,1 km/h (3 Bft)
09.01.2012 20:18 4,3 C 76 % 0,0 l/m 10,7 km/h (2 Bft) N-NW 341 16,1 km/h (3 Bft)
09.01.2012 20:19 4,3 C 77 % 0,0 l/m 11,3 km/h (2 Bft) NW 315 19,3 km/h (3 Bft)
09.01.2012 20:20 4,3 C 77 % 0,0 l/m 7,5 km/h (2 Bft) W-NW 295 9,7 km/h (2 Bft)
09.01.2012 20:21 4,3 C 77 % 0,0 l/m 11,1 km/h (2 Bft) NW 314 24,1 km/h (4 Bft)
09.01.2012 20:22 4,3 C 77 % 0,0 l/m 13,1 km/h (3 Bft) SW 218 24,1 km/h (4 Bft)
09.01.2012 20:23 4,3 C 77 % 0,0 l/m 17,9 km/h (3 Bft) N-NW 331 24,1 km/h (4 Bft)
09.01.2012 20:24 4,3 C 77 % 0,0 l/m 15,4 km/h (3 Bft) NW 316 20,9 km/h (4 Bft)
09.01.2012 20:25 4,3 C 77 % 0,0 l/m 13,1 km/h (3 Bft) N-NW 341 20,9 km/h (4 Bft)
09.01.2012 20:26 4,3 C 77 % 0,0 l/m 8,3 km/h (2 Bft) N 359 11,3 km/h (2 Bft)
09.01.2012 20:27 4,3 C 77 % 0,0 l/m 12,6 km/h (3 Bft) W-NW 299 17,7 km/h (3 Bft)
09.01.2012 20:28 4,3 C 77 % 0,0 l/m 11,9 km/h (2 Bft) N-NW 329 14,5 km/h (3 Bft)
09.01.2012 20:29 4,3 C 77 % 0,0 l/m 13,0 km/h (3 Bft) NW 317 17,7 km/h (3 Bft)
09.01.2012 20:30 4,3 C 77 % 0,0 l/m 6,9 km/h (2 Bft) NW 319 14,5 km/h (3 Bft)
09.01.2012 20:31 4,3 C 77 % 0,0 l/m 14,1 km/h (3 Bft) NW 319 19,3 km/h (3 Bft)
09.01.2012 20:32 4,3 C 77 % 0,0 l/m 12,9 km/h (3 Bft) N-NO 32 17,7 km/h (3 Bft)
09.01.2012 20:33 4,3 C 78 % 0,0 l/m 11,5 km/h (2 Bft) NW 314 16,1 km/h (3 Bft)
09.01.2012 20:34 4,2 C 78 % 0,0 l/m 9,9 km/h (2 Bft) W-SW 256 14,5 km/h (3 Bft)
09.01.2012 20:35 4,2 C 78 % 0,0 l/m 8,1 km/h (2 Bft) W-NW 300 14,5 km/h (3 Bft)
09.01.2012 20:36 4,2 C 78 % 0,0 l/m 12,0 km/h (2 Bft) NW 321 17,7 km/h (3 Bft)
09.01.2012 20:37 4,2 C 78 % 0,0 l/m 10,8 km/h (2 Bft) W-SW 253 24,1 km/h (4 Bft)
09.01.2012 20:38 4,2 C 78 % 0,0 l/m 9,7 km/h (2 Bft) N-NW 335 22,5 km/h (4 Bft)
09.01.2012 20:39 4,2 C 78 % 0,0 l/m 12,2 km/h (2 Bft) W-NW 301 17,7 km/h (3 Bft)
09.01.2012 20:40 4,2 C 79 % 0,0 l/m 14,9 km/h (3 Bft) NW 314 27,4 km/h (4 Bft)
09.01.2012 20:41 4,2 C 79 % 0,0 l/m 11,3 km/h (2 Bft) W-NW 300 24,1 km/h (4 Bft)
09.01.2012 20:42 4,3 C 79 % 0,0 l/m 18,3 km/h (3 Bft) W-NW 298 24,1 km/h (4 Bft)
09.01.2012 20:43 4,3 C 78 % 0,0 l/m 13,1 km/h (3 Bft) W 271 22,5 km/h (4 Bft)
09.01.2012 20:44 4,3 C 79 % 0,0 l/m 17,5 km/h (3 Bft) NW 309 24,1 km/h (4 Bft)
09.01.2012 20:45 4,4 C 78 % 0,0 l/m 13,7 km/h (3 Bft) NW 325 20,9 km/h (4 Bft)
09.01.2012 20:46 4,4 C 79 % 0,0 l/m 20,1 km/h (4 Bft) W 276 30,6 km/h (5 Bft)
09.01.2012 20:47 4,4 C 79 % 0,0 l/m 12,5 km/h (3 Bft) W-NW 291 20,9 km/h (4 Bft)
09.01.2012 20:48 4,4 C 79 % 0,0 l/m 19,5 km/h (3 Bft) N-NW 328 33,8 km/h (5 Bft)
09.01.2012 20:49 4,4 C 79 % 0,0 l/m 10,7 km/h (2 Bft) SW 219 16,1 km/h (3 Bft)
09.01.2012 20:50 4,4 C 79 % 0,0 l/m 20,2 km/h (4 Bft) W-NW 295 30,6 km/h (5 Bft)
09.01.2012 20:51 4,4 C 79 % 0,0 l/m 17,6 km/h (3 Bft) O-SO 114 27,4 km/h (4 Bft)
09.01.2012 20:52 4,4 C 79 % 0,0 l/m 15,9 km/h (3 Bft) W-NW 289 27,4 km/h (4 Bft)
09.01.2012 20:53 4,5 C 79 % 0,0 l/m 17,7 km/h (3 Bft) W 280 22,5 km/h (4 Bft)
09.01.2012 20:54 4,5 C 79 % 0,0 l/m 17,4 km/h (3 Bft) O 94 33,8 km/h (5 Bft)
09.01.2012 20:55 4,5 C 79 % 0,0 l/m 20,8 km/h (4 Bft) W-NW 289 32,2 km/h (5 Bft)
09.01.2012 20:56 4,4 C 80 % 0,0 l/m 15,5 km/h (3 Bft) W-NW 287 24,1 km/h (4 Bft)
09.01.2012 20:57 4,4 C 80 % 0,0 l/m 19,6 km/h (3 Bft) NW 311 32,2 km/h (5 Bft)
09.01.2012 20:58 4,5 C 80 % 0,0 l/m 21,5 km/h (4 Bft) W 271 41,8 km/h (6 Bft)
09.01.2012 20:59 4,5 C 80 % 0,0 l/m 20,6 km/h (4 Bft) W-NW 301 32,2 km/h (5 Bft)
09.01.2012 21:00 4,5 C 80 % 0,0 l/m 12,9 km/h (3 Bft) N-NO 25 22,5 km/h (4 Bft)
09.01.2012 21:01 4,4 C 80 % 0,0 l/m 15,0 km/h (3 Bft) W 261 30,6 km/h (5 Bft)
09.01.2012 21:02 4,4 C 80 % 0,0 l/m 17,7 km/h (3 Bft) N-NW 337 30,6 km/h (5 Bft)
09.01.2012 21:03 4,4 C 81 % 0,0 l/m 13,2 km/h (3 Bft) SW 225 20,9 km/h (4 Bft)
09.01.2012 21:04 4,4 C 81 % 0,0 l/m 16,3 km/h (3 Bft) W-NW 290 27,4 km/h (4 Bft)
09.01.2012 21:05 4,4 C 81 % 0,0 l/m 22,8 km/h (4 Bft) W-SW 242 30,6 km/h (5 Bft)
09.01.2012 21:06 4,4 C 81 % 0,0 l/m 11,1 km/h (2 Bft) W 270 19,3 km/h (3 Bft)
09.01.2012 21:07 4,4 C 81 % 0,0 l/m 10,1 km/h (2 Bft) NW 305 17,7 km/h (3 Bft)
09.01.2012 21:08 4,3 C 82 % 0,0 l/m 19,0 km/h (3 Bft) W-NW 290 24,1 km/h (4 Bft)
09.01.2012 21:09 4,3 C 82 % 0,0 l/m 22,5 km/h (4 Bft) W-NW 282 30,6 km/h (5 Bft)
09.01.2012 21:10 4,3 C 82 % 0,0 l/m 13,3 km/h (3 Bft) W-NW 285 22,5 km/h (4 Bft)
09.01.2012 21:11 4,3 C 82 % 0,0 l/m 13,2 km/h (3 Bft) W-NW 301 19,3 km/h (3 Bft)
09.01.2012 21:12 4,3 C 82 % 0,0 l/m 17,5 km/h (3 Bft) W 274 25,7 km/h (4 Bft)
09.01.2012 21:13 4,3 C 82 % 0,0 l/m 14,9 km/h (3 Bft) NW 312 22,5 km/h (4 Bft)
09.01.2012 21:14 4,2 C 82 % 0,0 l/m 12,8 km/h (3 Bft) W-NW 300 17,7 km/h (3 Bft)
09.01.2012 21:15 4,2 C 83 % 0,0 l/m 10,3 km/h (2 Bft) W-NW 297 14,5 km/h (3 Bft)
09.01.2012 21:16 4,2 C 83 % 0,0 l/m 13,1 km/h (3 Bft) W-NW 291 20,9 km/h (4 Bft)
09.01.2012 21:17 4,2 C 83 % 0,0 l/m 11,7 km/h (2 Bft) N-NW 334 19,3 km/h (3 Bft)
09.01.2012 21:18 4,1 C 84 % 0,0 l/m 11,7 km/h (2 Bft) NW 310 17,7 km/h (3 Bft)
09.01.2012 21:19 4,1 C 84 % 0,0 l/m 9,0 km/h (2 Bft) NO 37 12,9 km/h (3 Bft)
09.01.2012 21:20 4,1 C 84 % 0,0 l/m 12,0 km/h (2 Bft) W-NW 285 25,7 km/h (4 Bft)
09.01.2012 21:21 4,1 C 84 % 0,0 l/m 15,2 km/h (3 Bft) W-SW 248 24,1 km/h (4 Bft)
09.01.2012 21:22 4,0 C 85 % 0,0 l/m 7,6 km/h (2 Bft) W-NW 294 20,9 km/h (4 Bft)
09.01.2012 21:23 4,0 C 85 % 0,0 l/m 9,2 km/h (2 Bft) NW 325 12,9 km/h (3 Bft)
09.01.2012 21:24 3,9 C 85 % 0,0 l/m 11,2 km/h (2 Bft) NW 315 16,1 km/h (3 Bft)
09.01.2012 21:25 3,9 C 85 % 0,0 l/m 5,9 km/h (2 Bft) W-NW 297 9,7 km/h (2 Bft)
09.01.2012 21:26 3,9 C 86 % 0,0 l/m 10,3 km/h (2 Bft) NW 322 17,7 km/h (3 Bft)
09.01.2012 21:27 3,8 C 86 % 0,0 l/m 5,9 km/h (2 Bft) W 266 8,0 km/h (2 Bft)
09.01.2012 21:28 3,8 C 86 % 0,0 l/m 7,1 km/h (2 Bft) W-NW 287 14,5 km/h (3 Bft)
09.01.2012 21:29 3,8 C 86 % 0,0 l/m 13,7 km/h (3 Bft) O 98 17,7 km/h (3 Bft)
09.01.2012 21:30 3,8 C 86 % 0,0 l/m 7,0 km/h (2 Bft) N 353 12,9 km/h (3 Bft)
09.01.2012 21:31 3,8 C 86 % 0,0 l/m 6,8 km/h (2 Bft) W-NW 298 11,3 km/h (2 Bft)
09.01.2012 21:32 3,8 C 86 % 0,0 l/m 9,7 km/h (2 Bft) NW 321 17,7 km/h (3 Bft)
09.01.2012 21:33 3,8 C 86 % 0,0 l/m 7,1 km/h (2 Bft) NW 311 12,9 km/h (3 Bft)
09.01.2012 21:34 3,8 C 86 % 0,0 l/m 11,7 km/h (2 Bft) N-NW 335 16,1 km/h (3 Bft)
09.01.2012 21:35 3,8 C 86 % 0,0 l/m 10,6 km/h (2 Bft) W-NW 283 12,9 km/h (3 Bft)
09.01.2012 21:36 3,8 C 86 % 0,0 l/m 10,5 km/h (2 Bft) NW 312 14,5 km/h (3 Bft)
09.01.2012 21:37 3,8 C 86 % 0,0 l/m 6,3 km/h (2 Bft) NW 304 8,0 km/h (2 Bft)
09.01.2012 21:38 3,7 C 86 % 0,0 l/m 4,1 km/h (1 Bft) N-NO 19 8,0 km/h (2 Bft)
09.01.2012 21:39 3,7 C 86 % 0,0 l/m 13,8 km/h (3 Bft) W 278 24,1 km/h (4 Bft)
09.01.2012 21:40 3,7 C 86 % 0,0 l/m 10,8 km/h (2 Bft) W-NW 284 17,7 km/h (3 Bft)
09.01.2012 21:41 3,7 C 86 % 0,0 l/m 5,8 km/h (2 Bft) W-SW 253 9,7 km/h (2 Bft)
09.01.2012 21:42 3,7 C 86 % 0,0 l/m 9,7 km/h (2 Bft) W-SW 239 20,9 km/h (4 Bft)
09.01.2012 21:43 3,7 C 86 % 0,0 l/m 9,3 km/h (2 Bft) W-NW 296 16,1 km/h (3 Bft)
09.01.2012 21:44 3,7 C 86 % 0,0 l/m 8,4 km/h (2 Bft) W-NW 288 9,7 km/h (2 Bft)
09.01.2012 21:45 3,7 C 86 % 0,0 l/m 5,8 km/h (2 Bft) W-NW 302 8,0 km/h (2 Bft)
09.01.2012 21:46 3,7 C 87 % 0,0 l/m 11,7 km/h (2 Bft) W 271 17,7 km/h (3 Bft)
09.01.2012 21:47 3,7 C 87 % 0,0 l/m 5,6 km/h (1 Bft) NW 308 14,5 km/h (3 Bft)
09.01.2012 21:48 3,7 C 86 % 0,0 l/m 9,9 km/h (2 Bft) W-NW 302 17,7 km/h (3 Bft)
09.01.2012 21:49 3,7 C 86 % 0,0 l/m 11,2 km/h (2 Bft) W-NW 284 20,9 km/h (4 Bft)
09.01.2012 21:50 3,7 C 87 % 0,0 l/m 13,5 km/h (3 Bft) W-NW 297 17,7 km/h (3 Bft)
09.01.2012 21:51 3,7 C 87 % 0,0 l/m 10,0 km/h (2 Bft) NW 326 14,5 km/h (3 Bft)
09.01.2012 21:52 3,7 C 87 % 0,0 l/m 4,3 km/h (1 Bft) NW 308 9,7 km/h (2 Bft)
09.01.2012 21:53 3,7 C 87 % 0,0 l/m 6,0 km/h (2 Bft) NW 321 12,9 km/h (3 Bft)
09.01.2012 21:54 3,7 C 87 % 0,0 l/m 9,0 km/h (2 Bft) W-NW 296 11,3 km/h (2 Bft)
09.01.2012 21:55 3,7 C 87 % 0,0 l/m 11,7 km/h (2 Bft) W 281 19,3 km/h (3 Bft)
09.01.2012 21:56 3,7 C 87 % 0,0 l/m 4,4 km/h (1 Bft) N-NW 335 8,0 km/h (2 Bft)
09.01.2012 21:57 3,6 C 87 % 0,0 l/m 9,8 km/h (2 Bft) W-NW 298 12,9 km/h (3 Bft)
09.01.2012 21:58 3,6 C 87 % 0,0 l/m 7,2 km/h (2 Bft) W-NW 298 11,3 km/h (2 Bft)
09.01.2012 21:59 3,6 C 87 % 0,0 l/m 12,1 km/h (2 Bft) NW 309 16,1 km/h (3 Bft)
09.01.2012 22:00 3,6 C 87 % 0,0 l/m 9,6 km/h (2 Bft) N-NW 340 17,7 km/h (3 Bft)
09.01.2012 22:01 3,6 C 87 % 0,0 l/m 9,3 km/h (2 Bft) NW 322 11,3 km/h (2 Bft)
09.01.2012 22:02 3,6 C 87 % 0,0 l/m 7,1 km/h (2 Bft) N-NW 337 14,5 km/h (3 Bft)
09.01.2012 22:03 3,6 C 87 % 0,0 l/m 9,5 km/h (2 Bft) W-NW 289 14,5 km/h (3 Bft)
09.01.2012 22:04 3,6 C 87 % 0,0 l/m 10,9 km/h (2 Bft) NW 305 17,7 km/h (3 Bft)
09.01.2012 22:05 3,6 C 87 % 0,0 l/m 8,4 km/h (2 Bft) W-NW 300 11,3 km/h (2 Bft)
09.01.2012 22:06 3,6 C 87 % 0,0 l/m 9,5 km/h (2 Bft) W-NW 297 16,1 km/h (3 Bft)
09.01.2012 22:07 3,6 C 87 % 0,0 l/m 6,9 km/h (2 Bft) W-NW 297 14,5 km/h (3 Bft)
09.01.2012 22:08 3,6 C 87 % 0,0 l/m 9,3 km/h (2 Bft) N-NW 333 17,7 km/h (3 Bft)
09.01.2012 22:09 3,6 C 87 % 0,0 l/m 12,1 km/h (2 Bft) W-NW 287 16,1 km/h (3 Bft)
09.01.2012 22:10 3,6 C 87 % 0,0 l/m 11,5 km/h (2 Bft) NW 308 20,9 km/h (4 Bft)
09.01.2012 22:11 3,6 C 87 % 0,0 l/m 7,7 km/h (2 Bft) W-NW 297 11,3 km/h (2 Bft)
09.01.2012 22:12 3,6 C 87 % 0,0 l/m 4,7 km/h (1 Bft) SW 221 9,7 km/h (2 Bft)
09.01.2012 22:13 3,6 C 87 % 0,0 l/m 7,1 km/h (2 Bft) W-NW 300 11,3 km/h (2 Bft)
09.01.2012 22:14 3,6 C 87 % 0,0 l/m 3,1 km/h (1 Bft) NW 319 8,0 km/h (2 Bft)
09.01.2012 22:15 3,6 C 88 % 0,0 l/m 3,0 km/h (1 Bft) N-NW 334 4,8 km/h (1 Bft)
09.01.2012 22:16 3,5 C 88 % 0,0 l/m 4,2 km/h (1 Bft) N-NW 334 8,0 km/h (2 Bft)
09.01.2012 22:17 3,5 C 88 % 0,0 l/m 7,0 km/h (2 Bft) W-NW 295 11,3 km/h (2 Bft)
09.01.2012 22:18 3,5 C 88 % 0,0 l/m 5,9 km/h (2 Bft) N-NO 30 9,7 km/h (2 Bft)
09.01.2012 22:19 3,5 C 88 % 0,0 l/m 7,2 km/h (2 Bft) NW 309 11,3 km/h (2 Bft)
09.01.2012 22:20 3,5 C 88 % 0,0 l/m 7,1 km/h (2 Bft) NW 319 9,7 km/h (2 Bft)
09.01.2012 22:21 3,5 C 88 % 0,0 l/m 9,7 km/h (2 Bft) N-NW 345 12,9 km/h (3 Bft)
09.01.2012 22:22 3,5 C 88 % 0,0 l/m 5,9 km/h (2 Bft) NW 326 8,0 km/h (2 Bft)
09.01.2012 22:23 3,5 C 88 % 0,0 l/m 6,4 km/h (2 Bft) NW 323 14,5 km/h (3 Bft)
09.01.2012 22:24 3,5 C 88 % 0,0 l/m 6,2 km/h (2 Bft) W 281 9,7 km/h (2 Bft)
09.01.2012 22:25 3,5 C 88 % 0,0 l/m 5,0 km/h (1 Bft) W-NW 293 6,4 km/h (2 Bft)
09.01.2012 22:26 3,5 C 88 % 0,0 l/m 5,6 km/h (1 Bft) N-NW 334 8,0 km/h (2 Bft)
09.01.2012 22:27 3,4 C 88 % 0,0 l/m 7,0 km/h (2 Bft) W-NW 297 11,3 km/h (2 Bft)
09.01.2012 22:28 3,5 C 88 % 0,0 l/m 7,1 km/h (2 Bft) W-NW 296 9,7 km/h (2 Bft)
09.01.2012 22:29 3,4 C 88 % 0,0 l/m 5,2 km/h (1 Bft) NW 305 6,4 km/h (2 Bft)
09.01.2012 22:30 3,4 C 88 % 0,0 l/m 4,2 km/h (1 Bft) W-NW 288 6,4 km/h (2 Bft)
09.01.2012 22:31 3,4 C 88 % 0,0 l/m 6,7 km/h (2 Bft) W 261 14,5 km/h (3 Bft)
09.01.2012 22:32 3,5 C 88 % 0,0 l/m 9,3 km/h (2 Bft) NW 314 14,5 km/h (3 Bft)
09.01.2012 22:33 3,4 C 88 % 0,0 l/m 5,0 km/h (1 Bft) W-NW 297 9,7 km/h (2 Bft)
09.01.2012 22:34 3,4 C 88 % 0,0 l/m 7,2 km/h (2 Bft) W 263 12,9 km/h (3 Bft)
09.01.2012 22:35 3,4 C 88 % 0,0 l/m 5,2 km/h (1 Bft) N-NW 335 8,0 km/h (2 Bft)
09.01.2012 22:36 3,4 C 88 % 0,0 l/m 6,3 km/h (2 Bft) NW 322 11,3 km/h (2 Bft)
09.01.2012 22:37 3,4 C 88 % 0,0 l/m 7,6 km/h (2 Bft) W-NW 284 9,7 km/h (2 Bft)
09.01.2012 22:38 3,4 C 88 % 0,0 l/m 4,3 km/h (1 Bft) NW 319 8,0 km/h (2 Bft)
09.01.2012 22:39 3,4 C 88 % 0,0 l/m 10,7 km/h (2 Bft) W-NW 288 12,9 km/h (3 Bft)
09.01.2012 22:40 3,4 C 88 % 0,0 l/m 7,7 km/h (2 Bft) W-SW 242 11,3 km/h (2 Bft)
09.01.2012 22:41 3,4 C 88 % 0,0 l/m 4,5 km/h (1 Bft) NW 323 8,0 km/h (2 Bft)
09.01.2012 22:42 3,4 C 89 % 0,0 l/m 4,2 km/h (1 Bft) W-NW 300 8,0 km/h (2 Bft)
09.01.2012 22:43 3,4 C 89 % 0,0 l/m 4,8 km/h (1 Bft) W-NW 297 8,0 km/h (2 Bft)
09.01.2012 22:44 3,4 C 89 % 0,0 l/m 4,8 km/h (1 Bft) W 269 8,0 km/h (2 Bft)
09.01.2012 22:45 3,3 C 89 % 0,0 l/m 1,4 km/h (1 Bft) W 263 3,2 km/h (1 Bft)
09.01.2012 22:46 3,3 C 89 % 0,0 l/m 3,0 km/h (1 Bft) NW 315 8,0 km/h (2 Bft)
09.01.2012 22:47 3,3 C 89 % 0,0 l/m 5,6 km/h (1 Bft) W-NW 287 8,0 km/h (2 Bft)
09.01.2012 22:48 3,3 C 89 % 0,0 l/m 2,9 km/h (1 Bft) W-NW 288 4,8 km/h (1 Bft)
09.01.2012 22:49 3,3 C 89 % 0,0 l/m 4,0 km/h (1 Bft) W-SW 248 8,0 km/h (2 Bft)
09.01.2012 22:50 3,3 C 90 % 0,0 l/m 6,3 km/h (2 Bft) W-SW 256 11,3 km/h (2 Bft)
09.01.2012 22:51 3,3 C 90 % 0,0 l/m 1,8 km/h (1 Bft) W 264 3,2 km/h (1 Bft)
09.01.2012 22:52 3,3 C 90 % 0,0 l/m 6,7 km/h (2 Bft) W-NW 301 11,3 km/h (2 Bft)
09.01.2012 22:53 3,3 C 90 % 0,0 l/m 2,7 km/h (1 Bft) SW 219 4,8 km/h (1 Bft)
09.01.2012 22:54 3,2 C 90 % 0,0 l/m 3,3 km/h (1 Bft) W 271 8,0 km/h (2 Bft)
09.01.2012 22:55 3,3 C 90 % 0,0 l/m 6,4 km/h (2 Bft) W-NW 296 9,7 km/h (2 Bft)
09.01.2012 22:56 3,2 C 90 % 0,0 l/m 2,9 km/h (1 Bft) W-SW 240 8,0 km/h (2 Bft)
09.01.2012 22:57 3,2 C 90 % 0,0 l/m 4,2 km/h (1 Bft) W-NW 303 6,4 km/h (2 Bft)
09.01.2012 22:58 3,2 C 90 % 0,0 l/m 3,2 km/h (1 Bft) S-SW 197 9,7 km/h (2 Bft)
09.01.2012 22:59 3,2 C 90 % 0,0 l/m 5,2 km/h (1 Bft) SW 226 9,7 km/h (2 Bft)
09.01.2012 23:00 3,2 C 90 % 0,0 l/m 6,0 km/h (2 Bft) W 276 8,0 km/h (2 Bft)
09.01.2012 23:01 3,2 C 90 % 0,0 l/m 7,2 km/h (2 Bft) W-NW 287 9,7 km/h (2 Bft)
09.01.2012 23:02 3,2 C 90 % 0,0 l/m 7,4 km/h (2 Bft) W-SW 248 9,7 km/h (2 Bft)
09.01.2012 23:03 3,2 C 90 % 0,0 l/m 4,2 km/h (1 Bft) SW 228 9,7 km/h (2 Bft)
09.01.2012 23:04 3,2 C 90 % 0,0 l/m 9,2 km/h (2 Bft) W-SW 255 12,9 km/h (3 Bft)
09.01.2012 23:05 3,2 C 90 % 0,0 l/m 7,5 km/h (2 Bft) W-SW 242 12,9 km/h (3 Bft)
09.01.2012 23:06 3,2 C 90 % 0,0 l/m 6,9 km/h (2 Bft) W-SW 246 11,3 km/h (2 Bft)
09.01.2012 23:07 3,2 C 90 % 0,0 l/m 6,5 km/h (2 Bft) W-SW 246 9,7 km/h (2 Bft)
09.01.2012 23:08 3,2 C 90 % 0,2 l/m 8,2 km/h (2 Bft) N-NW 335 11,3 km/h (2 Bft)
09.01.2012 23:09 3,2 C 90 % 0,0 l/m 6,0 km/h (2 Bft) W-SW 239 11,3 km/h (2 Bft)
09.01.2012 23:10 3,2 C 90 % 0,0 l/m 6,6 km/h (2 Bft) W 259 9,7 km/h (2 Bft)
09.01.2012 23:11 3,2 C 90 % 0,0 l/m 8,3 km/h (2 Bft) W-SW 249 14,5 km/h (3 Bft)
09.01.2012 23:12 3,3 C 90 % 0,0 l/m 6,2 km/h (2 Bft) W-SW 239 14,5 km/h (3 Bft)
09.01.2012 23:13 3,3 C 90 % 0,0 l/m 6,4 km/h (2 Bft) W 277 9,7 km/h (2 Bft)
09.01.2012 23:14 3,3 C 90 % 0,0 l/m 5,2 km/h (1 Bft) W 260 9,7 km/h (2 Bft)
09.01.2012 23:15 3,3 C 90 % 0,0 l/m 6,9 km/h (2 Bft) W-SW 242 11,3 km/h (2 Bft)
09.01.2012 23:16 3,3 C 90 % 0,0 l/m 3,8 km/h (1 Bft) W 263 8,0 km/h (2 Bft)
09.01.2012 23:17 3,3 C 90 % 0,0 l/m 3,8 km/h (1 Bft) S-SO 159 6,4 km/h (2 Bft)
09.01.2012 23:18 3,3 C 90 % 0,0 l/m 6,4 km/h (2 Bft) SW 229 8,0 km/h (2 Bft)
09.01.2012 23:19 3,3 C 90 % 0,0 l/m 7,6 km/h (2 Bft) W-SW 245 12,9 km/h (3 Bft)
09.01.2012 23:20 3,3 C 90 % 0,0 l/m 7,5 km/h (2 Bft) W-SW 257 9,7 km/h (2 Bft)
09.01.2012 23:21 3,3 C 90 % 0,0 l/m 5,3 km/h (1 Bft) W-SW 250 9,7 km/h (2 Bft)
09.01.2012 23:22 3,3 C 90 % 0,0 l/m 8,0 km/h (2 Bft) W 260 12,9 km/h (3 Bft)
09.01.2012 23:23 3,3 C 90 % 0,0 l/m 5,4 km/h (1 Bft) W 273 11,3 km/h (2 Bft)
09.01.2012 23:24 3,3 C 90 % 0,0 l/m 3,4 km/h (1 Bft) N 355 4,8 km/h (1 Bft)
09.01.2012 23:25 3,3 C 90 % 0,0 l/m 3,7 km/h (1 Bft) S-SW 193 6,4 km/h (2 Bft)
09.01.2012 23:26 3,3 C 90 % 0,0 l/m 4,6 km/h (1 Bft) W 267 8,0 km/h (2 Bft)
09.01.2012 23:27 3,3 C 90 % 0,0 l/m 6,8 km/h (2 Bft) W 277 9,7 km/h (2 Bft)
09.01.2012 23:28 3,3 C 90 % 0,0 l/m 5,2 km/h (1 Bft) W-SW 239 8,0 km/h (2 Bft)
09.01.2012 23:29 3,3 C 90 % 0,0 l/m 5,2 km/h (1 Bft) W-SW 240 8,0 km/h (2 Bft)
09.01.2012 23:30 3,3 C 90 % 0,0 l/m 8,0 km/h (2 Bft) W-NW 293 11,3 km/h (2 Bft)
09.01.2012 23:31 3,3 C 90 % 0,0 l/m 8,7 km/h (2 Bft) W-SW 240 11,3 km/h (2 Bft)
09.01.2012 23:32 3,3 C 90 % 0,0 l/m 8,3 km/h (2 Bft) SW 229 11,3 km/h (2 Bft)
09.01.2012 23:33 3,3 C 90 % 0,0 l/m 6,6 km/h (2 Bft) W-SW 243 9,7 km/h (2 Bft)
09.01.2012 23:34 3,3 C 90 % 0,0 l/m 6,4 km/h (2 Bft) N-NO 23 11,3 km/h (2 Bft)
09.01.2012 23:35 3,3 C 91 % 0,0 l/m 8,4 km/h (2 Bft) W 261 11,3 km/h (2 Bft)
09.01.2012 23:36 3,3 C 91 % 0,0 l/m 8,1 km/h (2 Bft) W-SW 245 12,9 km/h (3 Bft)
09.01.2012 23:37 3,3 C 91 % 0,0 l/m 8,4 km/h (2 Bft) W 260 11,3 km/h (2 Bft)
09.01.2012 23:38 3,3 C 91 % 0,0 l/m 9,4 km/h (2 Bft) W 264 11,3 km/h (2 Bft)
09.01.2012 23:39 3,3 C 91 % 0,0 l/m 7,7 km/h (2 Bft) SW 232 9,7 km/h (2 Bft)
09.01.2012 23:40 3,2 C 91 % 0,0 l/m 7,3 km/h (2 Bft) W-NW 284 11,3 km/h (2 Bft)
09.01.2012 23:41 3,2 C 91 % 0,2 l/m 5,2 km/h (1 Bft) W 260 8,0 km/h (2 Bft)
09.01.2012 23:42 3,2 C 91 % 0,0 l/m 8,0 km/h (2 Bft) W-SW 241 9,7 km/h (2 Bft)
09.01.2012 23:43 3,2 C 91 % 0,0 l/m 9,2 km/h (2 Bft) W 267 11,3 km/h (2 Bft)
09.01.2012 23:44 3,2 C 91 % 0,0 l/m 8,4 km/h (2 Bft) W 263 11,3 km/h (2 Bft)
09.01.2012 23:45 3,2 C 91 % 0,0 l/m 6,9 km/h (2 Bft) W-SW 244 11,3 km/h (2 Bft)
09.01.2012 23:46 3,2 C 91 % 0,0 l/m 7,0 km/h (2 Bft) SW 232 11,3 km/h (2 Bft)
09.01.2012 23:47 3,2 C 91 % 0,0 l/m 8,0 km/h (2 Bft) W 270 9,7 km/h (2 Bft)
09.01.2012 23:48 3,2 C 91 % 0,0 l/m 8,2 km/h (2 Bft) SW 229 9,7 km/h (2 Bft)
09.01.2012 23:49 3,2 C 92 % 0,0 l/m 8,4 km/h (2 Bft) SW 236 11,3 km/h (2 Bft)
09.01.2012 23:50 3,1 C 92 % 0,0 l/m 9,9 km/h (2 Bft) SW 235 12,9 km/h (3 Bft)
09.01.2012 23:51 3,1 C 92 % 0,0 l/m 8,6 km/h (2 Bft) W-SW 240 11,3 km/h (2 Bft)
09.01.2012 23:52 3,1 C 92 % 0,0 l/m 7,7 km/h (2 Bft) S-SW 208 12,9 km/h (3 Bft)
09.01.2012 23:53 3,1 C 92 % 0,0 l/m 10,5 km/h (2 Bft) SW 231 12,9 km/h (3 Bft)
09.01.2012 23:54 3,1 C 92 % 0,0 l/m 7,6 km/h (2 Bft) SW 235 9,7 km/h (2 Bft)
09.01.2012 23:55 3,1 C 92 % 0,0 l/m 7,1 km/h (2 Bft) W-SW 245 9,7 km/h (2 Bft)
09.01.2012 23:56 3,1 C 92 % 0,2 l/m 5,5 km/h (1 Bft) SW 233 8,0 km/h (2 Bft)
09.01.2012 23:57 3,0 C 92 % 0,0 l/m 5,1 km/h (1 Bft) SW 219 8,0 km/h (2 Bft)
09.01.2012 23:58 3,0 C 92 % 0,0 l/m 6,8 km/h (2 Bft) SW 231 9,7 km/h (2 Bft)
09.01.2012 23:59 3,0 C 92 % 0,0 l/m 5,4 km/h (1 Bft) W-SW 238 9,7 km/h (2 Bft)
_ Min-Zeit 23:56 18:43 - 22:45 - - 00:00
Minimum _ 3,0 C 70 % - 1,4 km/h (1 Bft) - - 3,2 km/h (1 Bft)
_ Max-Zeit 14:45 23:49 04:51 15:00 - - 13:03
Maximum _ 5,6 C 92 % 0,2 l/m 37,0 km/h
W-NW (5 Bft)
- - 46,7 km/h
W-NW (6 Bft)
Durchschnitt _ 4,3 C 80 % #1,0 l/m 12,5 km/h (3 Bft) W-NW - 20,3 km/h (4 Bft)